<?xml version="1.0" encoding="UTF-8" standalone="no" ?>
<gpx xmlns="http://www.topografix.com/GPX/1/1" xmlns:xsi="http://www.w3.org/2001/XMLSchema-instance" xsi:schemaLocation="http://www.topografix.com/GPX/1/1 http://www.topografix.com/GPX/1/1/gpx.xsd" version="1.1" creator="VisuGPX - https://www.visugpx.com">
  <metadata>
    <name>Saint Martin de Londres - La Conque</name>
    <desc><![CDATA[A repérer rapidement]]></desc>
  </metadata>
  <trk>
    <name><![CDATA[17-JAN-16 15:20:08]]></name>
    <trkseg>
      <trkpt lat="43.79012" lon="3.7309">
        <ele>188.56</ele>
        <time>2016-01-17T08:42:32Z</time>
      </trkpt>
      <trkpt lat="43.79019" lon="3.73099">
        <ele>188.56</ele>
        <time>2016-01-17T08:42:41Z</time>
      </trkpt>
      <trkpt lat="43.79028" lon="3.73109">
        <ele>188.08</ele>
        <time>2016-01-17T08:42:53Z</time>
      </trkpt>
      <trkpt lat="43.79035" lon="3.73123">
        <ele>188.08</ele>
        <time>2016-01-17T08:43:05Z</time>
      </trkpt>
      <trkpt lat="43.79049" lon="3.73136">
        <ele>186.63</ele>
        <time>2016-01-17T08:43:20Z</time>
      </trkpt>
      <trkpt lat="43.79058" lon="3.73147">
        <ele>186.15</ele>
        <time>2016-01-17T08:43:28Z</time>
      </trkpt>
      <trkpt lat="43.79065" lon="3.7316">
        <ele>186.15</ele>
        <time>2016-01-17T08:43:38Z</time>
      </trkpt>
      <trkpt lat="43.79073" lon="3.73174">
        <ele>185.67</ele>
        <time>2016-01-17T08:43:48Z</time>
      </trkpt>
      <trkpt lat="43.79084" lon="3.73187">
        <ele>185.19</ele>
        <time>2016-01-17T08:43:58Z</time>
      </trkpt>
      <trkpt lat="43.7909" lon="3.73201">
        <ele>185.19</ele>
        <time>2016-01-17T08:44:57Z</time>
      </trkpt>
      <trkpt lat="43.79084" lon="3.7319">
        <ele>185.19</ele>
        <time>2016-01-17T08:45:38Z</time>
      </trkpt>
      <trkpt lat="43.79075" lon="3.73176">
        <ele>185.67</ele>
        <time>2016-01-17T08:45:50Z</time>
      </trkpt>
      <trkpt lat="43.79068" lon="3.73162">
        <ele>185.67</ele>
        <time>2016-01-17T08:46:01Z</time>
      </trkpt>
      <trkpt lat="43.79062" lon="3.73148">
        <ele>186.63</ele>
        <time>2016-01-17T08:46:10Z</time>
      </trkpt>
      <trkpt lat="43.79055" lon="3.73136">
        <ele>186.63</ele>
        <time>2016-01-17T08:46:21Z</time>
      </trkpt>
      <trkpt lat="43.79044" lon="3.7313">
        <ele>187.11</ele>
        <time>2016-01-17T08:46:31Z</time>
      </trkpt>
      <trkpt lat="43.79033" lon="3.73131">
        <ele>187.11</ele>
        <time>2016-01-17T08:46:40Z</time>
      </trkpt>
      <trkpt lat="43.7902" lon="3.73131">
        <ele>187.59</ele>
        <time>2016-01-17T08:46:51Z</time>
      </trkpt>
      <trkpt lat="43.79009" lon="3.73133">
        <ele>188.08</ele>
        <time>2016-01-17T08:47:03Z</time>
      </trkpt>
      <trkpt lat="43.78996" lon="3.73133">
        <ele>188.56</ele>
        <time>2016-01-17T08:47:13Z</time>
      </trkpt>
      <trkpt lat="43.78985" lon="3.73132">
        <ele>189.04</ele>
        <time>2016-01-17T08:47:22Z</time>
      </trkpt>
      <trkpt lat="43.78973" lon="3.73134">
        <ele>189.52</ele>
        <time>2016-01-17T08:47:32Z</time>
      </trkpt>
      <trkpt lat="43.78963" lon="3.73135">
        <ele>189.52</ele>
        <time>2016-01-17T08:47:41Z</time>
      </trkpt>
      <trkpt lat="43.78952" lon="3.73135">
        <ele>189.52</ele>
        <time>2016-01-17T08:47:50Z</time>
      </trkpt>
      <trkpt lat="43.78941" lon="3.73135">
        <ele>189.52</ele>
        <time>2016-01-17T08:47:58Z</time>
      </trkpt>
      <trkpt lat="43.7893" lon="3.73136">
        <ele>190</ele>
        <time>2016-01-17T08:48:06Z</time>
      </trkpt>
      <trkpt lat="43.7892" lon="3.73134">
        <ele>190.48</ele>
        <time>2016-01-17T08:48:14Z</time>
      </trkpt>
      <trkpt lat="43.78909" lon="3.73131">
        <ele>190.96</ele>
        <time>2016-01-17T08:48:23Z</time>
      </trkpt>
      <trkpt lat="43.78899" lon="3.73128">
        <ele>191.44</ele>
        <time>2016-01-17T08:48:32Z</time>
      </trkpt>
      <trkpt lat="43.78896" lon="3.7314">
        <ele>191.92</ele>
        <time>2016-01-17T08:48:48Z</time>
      </trkpt>
      <trkpt lat="43.789" lon="3.73153">
        <ele>191.92</ele>
        <time>2016-01-17T08:49:00Z</time>
      </trkpt>
      <trkpt lat="43.78901" lon="3.73154">
        <ele>191.92</ele>
        <time>2016-01-17T08:51:46Z</time>
      </trkpt>
      <trkpt lat="43.78901" lon="3.73157">
        <ele>192.4</ele>
        <time>2016-01-17T08:54:17Z</time>
      </trkpt>
      <trkpt lat="43.78911" lon="3.73164">
        <ele>192.4</ele>
        <time>2016-01-17T08:55:46Z</time>
      </trkpt>
      <trkpt lat="43.78923" lon="3.73161">
        <ele>191.44</ele>
        <time>2016-01-17T08:56:09Z</time>
      </trkpt>
      <trkpt lat="43.78931" lon="3.73149">
        <ele>190.96</ele>
        <time>2016-01-17T08:56:18Z</time>
      </trkpt>
      <trkpt lat="43.7894" lon="3.73142">
        <ele>190.48</ele>
        <time>2016-01-17T08:56:27Z</time>
      </trkpt>
      <trkpt lat="43.78951" lon="3.73137">
        <ele>190</ele>
        <time>2016-01-17T08:56:38Z</time>
      </trkpt>
      <trkpt lat="43.78961" lon="3.73135">
        <ele>190</ele>
        <time>2016-01-17T08:56:47Z</time>
      </trkpt>
      <trkpt lat="43.78974" lon="3.73133">
        <ele>189.52</ele>
        <time>2016-01-17T08:56:57Z</time>
      </trkpt>
      <trkpt lat="43.78986" lon="3.73133">
        <ele>189.04</ele>
        <time>2016-01-17T08:57:08Z</time>
      </trkpt>
      <trkpt lat="43.78999" lon="3.73131">
        <ele>188.56</ele>
        <time>2016-01-17T08:57:17Z</time>
      </trkpt>
      <trkpt lat="43.7902" lon="3.73129">
        <ele>188.08</ele>
        <time>2016-01-17T08:57:31Z</time>
      </trkpt>
      <trkpt lat="43.79023" lon="3.73117">
        <ele>187.59</ele>
        <time>2016-01-17T08:57:46Z</time>
      </trkpt>
      <trkpt lat="43.79019" lon="3.73101">
        <ele>188.56</ele>
        <time>2016-01-17T08:57:56Z</time>
      </trkpt>
      <trkpt lat="43.79011" lon="3.73086">
        <ele>188.56</ele>
        <time>2016-01-17T08:58:06Z</time>
      </trkpt>
      <trkpt lat="43.79015" lon="3.73073">
        <ele>189.04</ele>
        <time>2016-01-17T08:58:17Z</time>
      </trkpt>
      <trkpt lat="43.79022" lon="3.73062">
        <ele>189.52</ele>
        <time>2016-01-17T08:58:26Z</time>
      </trkpt>
      <trkpt lat="43.79028" lon="3.73051">
        <ele>190</ele>
        <time>2016-01-17T08:58:35Z</time>
      </trkpt>
      <trkpt lat="43.79035" lon="3.73038">
        <ele>190.96</ele>
        <time>2016-01-17T08:58:44Z</time>
      </trkpt>
      <trkpt lat="43.79039" lon="3.73026">
        <ele>191.92</ele>
        <time>2016-01-17T08:58:53Z</time>
      </trkpt>
      <trkpt lat="43.79048" lon="3.73029">
        <ele>192.4</ele>
        <time>2016-01-17T08:59:03Z</time>
      </trkpt>
      <trkpt lat="43.79057" lon="3.73035">
        <ele>191.92</ele>
        <time>2016-01-17T08:59:11Z</time>
      </trkpt>
      <trkpt lat="43.79066" lon="3.73037">
        <ele>193.36</ele>
        <time>2016-01-17T08:59:24Z</time>
      </trkpt>
      <trkpt lat="43.7907" lon="3.73025">
        <ele>194.8</ele>
        <time>2016-01-17T08:59:34Z</time>
      </trkpt>
      <trkpt lat="43.79074" lon="3.73011">
        <ele>197.21</ele>
        <time>2016-01-17T08:59:45Z</time>
      </trkpt>
      <trkpt lat="43.79082" lon="3.73003">
        <ele>199.13</ele>
        <time>2016-01-17T08:59:55Z</time>
      </trkpt>
      <trkpt lat="43.79092" lon="3.72997">
        <ele>200.57</ele>
        <time>2016-01-17T09:00:04Z</time>
      </trkpt>
      <trkpt lat="43.791" lon="3.72989">
        <ele>200.57</ele>
        <time>2016-01-17T09:00:13Z</time>
      </trkpt>
      <trkpt lat="43.79111" lon="3.72994">
        <ele>201.05</ele>
        <time>2016-01-17T09:00:23Z</time>
      </trkpt>
      <trkpt lat="43.79118" lon="3.73002">
        <ele>201.05</ele>
        <time>2016-01-17T09:00:31Z</time>
      </trkpt>
      <trkpt lat="43.79125" lon="3.73013">
        <ele>200.57</ele>
        <time>2016-01-17T09:00:40Z</time>
      </trkpt>
      <trkpt lat="43.79132" lon="3.73024">
        <ele>200.09</ele>
        <time>2016-01-17T09:00:49Z</time>
      </trkpt>
      <trkpt lat="43.7914" lon="3.73026">
        <ele>200.09</ele>
        <time>2016-01-17T09:00:59Z</time>
      </trkpt>
      <trkpt lat="43.79147" lon="3.73017">
        <ele>201.05</ele>
        <time>2016-01-17T09:01:16Z</time>
      </trkpt>
      <trkpt lat="43.79152" lon="3.73005">
        <ele>202.01</ele>
        <time>2016-01-17T09:01:26Z</time>
      </trkpt>
      <trkpt lat="43.79155" lon="3.72991">
        <ele>203.46</ele>
        <time>2016-01-17T09:01:36Z</time>
      </trkpt>
      <trkpt lat="43.79157" lon="3.72976">
        <ele>204.9</ele>
        <time>2016-01-17T09:01:47Z</time>
      </trkpt>
      <trkpt lat="43.79158" lon="3.72959">
        <ele>206.34</ele>
        <time>2016-01-17T09:01:57Z</time>
      </trkpt>
      <trkpt lat="43.79162" lon="3.72944">
        <ele>206.82</ele>
        <time>2016-01-17T09:02:07Z</time>
      </trkpt>
      <trkpt lat="43.79164" lon="3.72928">
        <ele>207.78</ele>
        <time>2016-01-17T09:02:18Z</time>
      </trkpt>
      <trkpt lat="43.79161" lon="3.72914">
        <ele>208.74</ele>
        <time>2016-01-17T09:02:28Z</time>
      </trkpt>
      <trkpt lat="43.7916" lon="3.729">
        <ele>209.22</ele>
        <time>2016-01-17T09:02:37Z</time>
      </trkpt>
      <trkpt lat="43.79159" lon="3.72886">
        <ele>209.7</ele>
        <time>2016-01-17T09:02:46Z</time>
      </trkpt>
      <trkpt lat="43.79166" lon="3.72877">
        <ele>210.67</ele>
        <time>2016-01-17T09:02:59Z</time>
      </trkpt>
      <trkpt lat="43.79168" lon="3.72862">
        <ele>211.63</ele>
        <time>2016-01-17T09:03:15Z</time>
      </trkpt>
      <trkpt lat="43.7917" lon="3.72847">
        <ele>212.11</ele>
        <time>2016-01-17T09:03:27Z</time>
      </trkpt>
      <trkpt lat="43.79172" lon="3.72829">
        <ele>213.07</ele>
        <time>2016-01-17T09:03:42Z</time>
      </trkpt>
      <trkpt lat="43.79171" lon="3.72811">
        <ele>214.03</ele>
        <time>2016-01-17T09:03:58Z</time>
      </trkpt>
      <trkpt lat="43.7917" lon="3.72792">
        <ele>214.99</ele>
        <time>2016-01-17T09:04:11Z</time>
      </trkpt>
      <trkpt lat="43.79167" lon="3.72775">
        <ele>215.47</ele>
        <time>2016-01-17T09:04:22Z</time>
      </trkpt>
      <trkpt lat="43.79162" lon="3.7276">
        <ele>216.43</ele>
        <time>2016-01-17T09:04:33Z</time>
      </trkpt>
      <trkpt lat="43.79155" lon="3.72743">
        <ele>217.4</ele>
        <time>2016-01-17T09:04:47Z</time>
      </trkpt>
      <trkpt lat="43.79151" lon="3.72727">
        <ele>218.36</ele>
        <time>2016-01-17T09:04:58Z</time>
      </trkpt>
      <trkpt lat="43.79146" lon="3.72708">
        <ele>219.32</ele>
        <time>2016-01-17T09:05:12Z</time>
      </trkpt>
      <trkpt lat="43.79145" lon="3.72691">
        <ele>220.28</ele>
        <time>2016-01-17T09:05:34Z</time>
      </trkpt>
      <trkpt lat="43.79144" lon="3.72672">
        <ele>221.72</ele>
        <time>2016-01-17T09:05:52Z</time>
      </trkpt>
      <trkpt lat="43.79139" lon="3.72651">
        <ele>223.16</ele>
        <time>2016-01-17T09:06:12Z</time>
      </trkpt>
      <trkpt lat="43.79139" lon="3.72631">
        <ele>224.12</ele>
        <time>2016-01-17T09:06:27Z</time>
      </trkpt>
      <trkpt lat="43.79142" lon="3.72614">
        <ele>225.57</ele>
        <time>2016-01-17T09:06:39Z</time>
      </trkpt>
      <trkpt lat="43.79145" lon="3.72598">
        <ele>227.01</ele>
        <time>2016-01-17T09:06:50Z</time>
      </trkpt>
      <trkpt lat="43.79149" lon="3.72586">
        <ele>227.97</ele>
        <time>2016-01-17T09:07:05Z</time>
      </trkpt>
      <trkpt lat="43.79155" lon="3.7257">
        <ele>228.93</ele>
        <time>2016-01-17T09:07:19Z</time>
      </trkpt>
      <trkpt lat="43.79161" lon="3.72556">
        <ele>230.37</ele>
        <time>2016-01-17T09:07:30Z</time>
      </trkpt>
      <trkpt lat="43.79166" lon="3.72544">
        <ele>230.37</ele>
        <time>2016-01-17T09:08:44Z</time>
      </trkpt>
      <trkpt lat="43.79171" lon="3.72533">
        <ele>232.3</ele>
        <time>2016-01-17T09:08:59Z</time>
      </trkpt>
      <trkpt lat="43.79177" lon="3.72523">
        <ele>233.74</ele>
        <time>2016-01-17T09:09:50Z</time>
      </trkpt>
      <trkpt lat="43.79183" lon="3.72513">
        <ele>235.18</ele>
        <time>2016-01-17T09:10:00Z</time>
      </trkpt>
      <trkpt lat="43.79186" lon="3.725">
        <ele>236.62</ele>
        <time>2016-01-17T09:10:11Z</time>
      </trkpt>
      <trkpt lat="43.79193" lon="3.72492">
        <ele>237.1</ele>
        <time>2016-01-17T09:10:22Z</time>
      </trkpt>
      <trkpt lat="43.79197" lon="3.72479">
        <ele>239.02</ele>
        <time>2016-01-17T09:10:34Z</time>
      </trkpt>
      <trkpt lat="43.79203" lon="3.72463">
        <ele>240.47</ele>
        <time>2016-01-17T09:10:54Z</time>
      </trkpt>
      <trkpt lat="43.79206" lon="3.72443">
        <ele>242.39</ele>
        <time>2016-01-17T09:11:09Z</time>
      </trkpt>
      <trkpt lat="43.7921" lon="3.72422">
        <ele>243.83</ele>
        <time>2016-01-17T09:11:24Z</time>
      </trkpt>
      <trkpt lat="43.79212" lon="3.72403">
        <ele>245.75</ele>
        <time>2016-01-17T09:11:38Z</time>
      </trkpt>
      <trkpt lat="43.79217" lon="3.72385">
        <ele>247.68</ele>
        <time>2016-01-17T09:11:54Z</time>
      </trkpt>
      <trkpt lat="43.79223" lon="3.72367">
        <ele>250.08</ele>
        <time>2016-01-17T09:12:11Z</time>
      </trkpt>
      <trkpt lat="43.79225" lon="3.72347">
        <ele>251.52</ele>
        <time>2016-01-17T09:12:28Z</time>
      </trkpt>
      <trkpt lat="43.79229" lon="3.72327">
        <ele>253.93</ele>
        <time>2016-01-17T09:12:43Z</time>
      </trkpt>
      <trkpt lat="43.79238" lon="3.72313">
        <ele>255.85</ele>
        <time>2016-01-17T09:13:00Z</time>
      </trkpt>
      <trkpt lat="43.79247" lon="3.72299">
        <ele>257.77</ele>
        <time>2016-01-17T09:13:17Z</time>
      </trkpt>
      <trkpt lat="43.79261" lon="3.72286">
        <ele>260.17</ele>
        <time>2016-01-17T09:13:38Z</time>
      </trkpt>
      <trkpt lat="43.79274" lon="3.7227">
        <ele>262.1</ele>
        <time>2016-01-17T09:13:57Z</time>
      </trkpt>
      <trkpt lat="43.79285" lon="3.72256">
        <ele>263.54</ele>
        <time>2016-01-17T09:14:10Z</time>
      </trkpt>
      <trkpt lat="43.79295" lon="3.72241">
        <ele>264.98</ele>
        <time>2016-01-17T09:14:26Z</time>
      </trkpt>
      <trkpt lat="43.79306" lon="3.72224">
        <ele>265.94</ele>
        <time>2016-01-17T09:14:45Z</time>
      </trkpt>
      <trkpt lat="43.79318" lon="3.72204">
        <ele>266.9</ele>
        <time>2016-01-17T09:15:03Z</time>
      </trkpt>
      <trkpt lat="43.79329" lon="3.72187">
        <ele>267.38</ele>
        <time>2016-01-17T09:15:17Z</time>
      </trkpt>
      <trkpt lat="43.79338" lon="3.7217">
        <ele>267.38</ele>
        <time>2016-01-17T09:15:30Z</time>
      </trkpt>
      <trkpt lat="43.79347" lon="3.72154">
        <ele>266.9</ele>
        <time>2016-01-17T09:15:43Z</time>
      </trkpt>
      <trkpt lat="43.79357" lon="3.72139">
        <ele>266.42</ele>
        <time>2016-01-17T09:15:55Z</time>
      </trkpt>
      <trkpt lat="43.79366" lon="3.72125">
        <ele>265.94</ele>
        <time>2016-01-17T09:16:05Z</time>
      </trkpt>
      <trkpt lat="43.79374" lon="3.72114">
        <ele>265.46</ele>
        <time>2016-01-17T09:16:15Z</time>
      </trkpt>
      <trkpt lat="43.79382" lon="3.72102">
        <ele>264.5</ele>
        <time>2016-01-17T09:16:27Z</time>
      </trkpt>
      <trkpt lat="43.79392" lon="3.72086">
        <ele>263.06</ele>
        <time>2016-01-17T09:16:45Z</time>
      </trkpt>
      <trkpt lat="43.79396" lon="3.72069">
        <ele>262.1</ele>
        <time>2016-01-17T09:16:58Z</time>
      </trkpt>
      <trkpt lat="43.79398" lon="3.72051">
        <ele>260.65</ele>
        <time>2016-01-17T09:17:11Z</time>
      </trkpt>
      <trkpt lat="43.79397" lon="3.72032">
        <ele>259.69</ele>
        <time>2016-01-17T09:17:25Z</time>
      </trkpt>
      <trkpt lat="43.79396" lon="3.72014">
        <ele>258.73</ele>
        <time>2016-01-17T09:17:36Z</time>
      </trkpt>
      <trkpt lat="43.79393" lon="3.71998">
        <ele>258.25</ele>
        <time>2016-01-17T09:17:46Z</time>
      </trkpt>
      <trkpt lat="43.79391" lon="3.7198">
        <ele>257.29</ele>
        <time>2016-01-17T09:17:56Z</time>
      </trkpt>
      <trkpt lat="43.7939" lon="3.71962">
        <ele>256.33</ele>
        <time>2016-01-17T09:18:06Z</time>
      </trkpt>
      <trkpt lat="43.7939" lon="3.71946">
        <ele>256.33</ele>
        <time>2016-01-17T09:18:15Z</time>
      </trkpt>
      <trkpt lat="43.79388" lon="3.7193">
        <ele>255.85</ele>
        <time>2016-01-17T09:18:31Z</time>
      </trkpt>
      <trkpt lat="43.79387" lon="3.71915">
        <ele>255.85</ele>
        <time>2016-01-17T09:18:40Z</time>
      </trkpt>
      <trkpt lat="43.79387" lon="3.71899">
        <ele>255.37</ele>
        <time>2016-01-17T09:18:49Z</time>
      </trkpt>
      <trkpt lat="43.79387" lon="3.71884">
        <ele>255.85</ele>
        <time>2016-01-17T09:18:58Z</time>
      </trkpt>
      <trkpt lat="43.79388" lon="3.71868">
        <ele>255.85</ele>
        <time>2016-01-17T09:19:06Z</time>
      </trkpt>
      <trkpt lat="43.79386" lon="3.71853">
        <ele>255.85</ele>
        <time>2016-01-17T09:19:14Z</time>
      </trkpt>
      <trkpt lat="43.79382" lon="3.71839">
        <ele>255.85</ele>
        <time>2016-01-17T09:19:22Z</time>
      </trkpt>
      <trkpt lat="43.79376" lon="3.71828">
        <ele>256.33</ele>
        <time>2016-01-17T09:19:30Z</time>
      </trkpt>
      <trkpt lat="43.7937" lon="3.71816">
        <ele>256.81</ele>
        <time>2016-01-17T09:19:38Z</time>
      </trkpt>
      <trkpt lat="43.79364" lon="3.71803">
        <ele>256.81</ele>
        <time>2016-01-17T09:19:46Z</time>
      </trkpt>
      <trkpt lat="43.79359" lon="3.71791">
        <ele>256.81</ele>
        <time>2016-01-17T09:19:54Z</time>
      </trkpt>
      <trkpt lat="43.79354" lon="3.71779">
        <ele>257.77</ele>
        <time>2016-01-17T09:20:02Z</time>
      </trkpt>
      <trkpt lat="43.79348" lon="3.71766">
        <ele>257.29</ele>
        <time>2016-01-17T09:20:10Z</time>
      </trkpt>
      <trkpt lat="43.79346" lon="3.71752">
        <ele>257.77</ele>
        <time>2016-01-17T09:20:18Z</time>
      </trkpt>
      <trkpt lat="43.79345" lon="3.71736">
        <ele>258.25</ele>
        <time>2016-01-17T09:20:27Z</time>
      </trkpt>
      <trkpt lat="43.79344" lon="3.71721">
        <ele>258.73</ele>
        <time>2016-01-17T09:20:35Z</time>
      </trkpt>
      <trkpt lat="43.79343" lon="3.71707">
        <ele>259.21</ele>
        <time>2016-01-17T09:20:43Z</time>
      </trkpt>
      <trkpt lat="43.79341" lon="3.71692">
        <ele>259.21</ele>
        <time>2016-01-17T09:20:52Z</time>
      </trkpt>
      <trkpt lat="43.79341" lon="3.71677">
        <ele>259.69</ele>
        <time>2016-01-17T09:21:03Z</time>
      </trkpt>
      <trkpt lat="43.79343" lon="3.71666">
        <ele>260.17</ele>
        <time>2016-01-17T09:24:38Z</time>
      </trkpt>
      <trkpt lat="43.79348" lon="3.71653">
        <ele>260.17</ele>
        <time>2016-01-17T09:25:02Z</time>
      </trkpt>
      <trkpt lat="43.79352" lon="3.7164">
        <ele>260.65</ele>
        <time>2016-01-17T09:25:12Z</time>
      </trkpt>
      <trkpt lat="43.79354" lon="3.71625">
        <ele>261.14</ele>
        <time>2016-01-17T09:25:22Z</time>
      </trkpt>
      <trkpt lat="43.79355" lon="3.71611">
        <ele>261.62</ele>
        <time>2016-01-17T09:25:31Z</time>
      </trkpt>
      <trkpt lat="43.79355" lon="3.71598">
        <ele>261.62</ele>
        <time>2016-01-17T09:25:39Z</time>
      </trkpt>
      <trkpt lat="43.79354" lon="3.71584">
        <ele>262.1</ele>
        <time>2016-01-17T09:25:48Z</time>
      </trkpt>
      <trkpt lat="43.79358" lon="3.71569">
        <ele>262.58</ele>
        <time>2016-01-17T09:25:57Z</time>
      </trkpt>
      <trkpt lat="43.7936" lon="3.71555">
        <ele>263.06</ele>
        <time>2016-01-17T09:26:06Z</time>
      </trkpt>
      <trkpt lat="43.79363" lon="3.71542">
        <ele>263.54</ele>
        <time>2016-01-17T09:26:15Z</time>
      </trkpt>
      <trkpt lat="43.79367" lon="3.71525">
        <ele>264.5</ele>
        <time>2016-01-17T09:26:26Z</time>
      </trkpt>
      <trkpt lat="43.7937" lon="3.7151">
        <ele>264.98</ele>
        <time>2016-01-17T09:26:35Z</time>
      </trkpt>
      <trkpt lat="43.79373" lon="3.71495">
        <ele>265.46</ele>
        <time>2016-01-17T09:26:45Z</time>
      </trkpt>
      <trkpt lat="43.79378" lon="3.71483">
        <ele>266.42</ele>
        <time>2016-01-17T09:26:54Z</time>
      </trkpt>
      <trkpt lat="43.79383" lon="3.71469">
        <ele>266.9</ele>
        <time>2016-01-17T09:27:04Z</time>
      </trkpt>
      <trkpt lat="43.79389" lon="3.71456">
        <ele>267.38</ele>
        <time>2016-01-17T09:27:14Z</time>
      </trkpt>
      <trkpt lat="43.79396" lon="3.71444">
        <ele>268.35</ele>
        <time>2016-01-17T09:27:26Z</time>
      </trkpt>
      <trkpt lat="43.79403" lon="3.71429">
        <ele>268.83</ele>
        <time>2016-01-17T09:27:37Z</time>
      </trkpt>
      <trkpt lat="43.79408" lon="3.71415">
        <ele>269.79</ele>
        <time>2016-01-17T09:27:48Z</time>
      </trkpt>
      <trkpt lat="43.79414" lon="3.71402">
        <ele>270.75</ele>
        <time>2016-01-17T09:27:58Z</time>
      </trkpt>
      <trkpt lat="43.7942" lon="3.71389">
        <ele>271.23</ele>
        <time>2016-01-17T09:28:10Z</time>
      </trkpt>
      <trkpt lat="43.79424" lon="3.71372">
        <ele>272.19</ele>
        <time>2016-01-17T09:28:21Z</time>
      </trkpt>
      <trkpt lat="43.79425" lon="3.71356">
        <ele>272.67</ele>
        <time>2016-01-17T09:28:31Z</time>
      </trkpt>
      <trkpt lat="43.79425" lon="3.71341">
        <ele>273.15</ele>
        <time>2016-01-17T09:28:40Z</time>
      </trkpt>
      <trkpt lat="43.79426" lon="3.71327">
        <ele>274.11</ele>
        <time>2016-01-17T09:28:49Z</time>
      </trkpt>
      <trkpt lat="43.79428" lon="3.71313">
        <ele>275.07</ele>
        <time>2016-01-17T09:28:58Z</time>
      </trkpt>
      <trkpt lat="43.79429" lon="3.713">
        <ele>276.04</ele>
        <time>2016-01-17T09:29:09Z</time>
      </trkpt>
      <trkpt lat="43.79431" lon="3.71283">
        <ele>276.52</ele>
        <time>2016-01-17T09:29:19Z</time>
      </trkpt>
      <trkpt lat="43.79438" lon="3.71273">
        <ele>278.44</ele>
        <time>2016-01-17T09:29:31Z</time>
      </trkpt>
      <trkpt lat="43.7945" lon="3.71275">
        <ele>279.88</ele>
        <time>2016-01-17T09:29:46Z</time>
      </trkpt>
      <trkpt lat="43.79463" lon="3.71278">
        <ele>283.25</ele>
        <time>2016-01-17T09:30:03Z</time>
      </trkpt>
      <trkpt lat="43.7947" lon="3.71291">
        <ele>285.17</ele>
        <time>2016-01-17T09:30:15Z</time>
      </trkpt>
      <trkpt lat="43.7948" lon="3.71302">
        <ele>287.09</ele>
        <time>2016-01-17T09:30:29Z</time>
      </trkpt>
      <trkpt lat="43.79489" lon="3.71318">
        <ele>289.97</ele>
        <time>2016-01-17T09:30:47Z</time>
      </trkpt>
      <trkpt lat="43.79495" lon="3.71313">
        <ele>292.38</ele>
        <time>2016-01-17T09:31:01Z</time>
      </trkpt>
      <trkpt lat="43.79499" lon="3.713">
        <ele>292.86</ele>
        <time>2016-01-17T09:31:12Z</time>
      </trkpt>
      <trkpt lat="43.79505" lon="3.71288">
        <ele>293.82</ele>
        <time>2016-01-17T09:31:23Z</time>
      </trkpt>
      <trkpt lat="43.79507" lon="3.71271">
        <ele>296.22</ele>
        <time>2016-01-17T09:31:36Z</time>
      </trkpt>
      <trkpt lat="43.79511" lon="3.71254">
        <ele>298.63</ele>
        <time>2016-01-17T09:31:52Z</time>
      </trkpt>
      <trkpt lat="43.79514" lon="3.71237">
        <ele>301.03</ele>
        <time>2016-01-17T09:32:06Z</time>
      </trkpt>
      <trkpt lat="43.79518" lon="3.71221">
        <ele>302.95</ele>
        <time>2016-01-17T09:32:19Z</time>
      </trkpt>
      <trkpt lat="43.79521" lon="3.71204">
        <ele>304.88</ele>
        <time>2016-01-17T09:32:32Z</time>
      </trkpt>
      <trkpt lat="43.7952" lon="3.71187">
        <ele>306.32</ele>
        <time>2016-01-17T09:32:45Z</time>
      </trkpt>
      <trkpt lat="43.79517" lon="3.71169">
        <ele>308.72</ele>
        <time>2016-01-17T09:32:59Z</time>
      </trkpt>
      <trkpt lat="43.79513" lon="3.71153">
        <ele>310.64</ele>
        <time>2016-01-17T09:33:12Z</time>
      </trkpt>
      <trkpt lat="43.79513" lon="3.71137">
        <ele>311.6</ele>
        <time>2016-01-17T09:33:24Z</time>
      </trkpt>
      <trkpt lat="43.79514" lon="3.7112">
        <ele>312.57</ele>
        <time>2016-01-17T09:33:36Z</time>
      </trkpt>
      <trkpt lat="43.79513" lon="3.71103">
        <ele>313.53</ele>
        <time>2016-01-17T09:33:50Z</time>
      </trkpt>
      <trkpt lat="43.7951" lon="3.71085">
        <ele>315.45</ele>
        <time>2016-01-17T09:34:05Z</time>
      </trkpt>
      <trkpt lat="43.79506" lon="3.71068">
        <ele>317.37</ele>
        <time>2016-01-17T09:34:18Z</time>
      </trkpt>
      <trkpt lat="43.79509" lon="3.71053">
        <ele>320.26</ele>
        <time>2016-01-17T09:34:35Z</time>
      </trkpt>
      <trkpt lat="43.79516" lon="3.71061">
        <ele>322.18</ele>
        <time>2016-01-17T09:34:52Z</time>
      </trkpt>
      <trkpt lat="43.79526" lon="3.71071">
        <ele>324.1</ele>
        <time>2016-01-17T09:35:07Z</time>
      </trkpt>
      <trkpt lat="43.79536" lon="3.71071">
        <ele>325.54</ele>
        <time>2016-01-17T09:35:56Z</time>
      </trkpt>
      <trkpt lat="43.79534" lon="3.71054">
        <ele>327.47</ele>
        <time>2016-01-17T09:36:10Z</time>
      </trkpt>
      <trkpt lat="43.79533" lon="3.71032">
        <ele>329.87</ele>
        <time>2016-01-17T09:36:27Z</time>
      </trkpt>
      <trkpt lat="43.7953" lon="3.71014">
        <ele>331.79</ele>
        <time>2016-01-17T09:36:46Z</time>
      </trkpt>
      <trkpt lat="43.79528" lon="3.70994">
        <ele>333.71</ele>
        <time>2016-01-17T09:37:01Z</time>
      </trkpt>
      <trkpt lat="43.79531" lon="3.70977">
        <ele>335.64</ele>
        <time>2016-01-17T09:37:15Z</time>
      </trkpt>
      <trkpt lat="43.79536" lon="3.70963">
        <ele>337.56</ele>
        <time>2016-01-17T09:37:29Z</time>
      </trkpt>
      <trkpt lat="43.79542" lon="3.70947">
        <ele>338.52</ele>
        <time>2016-01-17T09:39:44Z</time>
      </trkpt>
      <trkpt lat="43.79545" lon="3.70933">
        <ele>339.48</ele>
        <time>2016-01-17T09:39:56Z</time>
      </trkpt>
      <trkpt lat="43.79546" lon="3.70917">
        <ele>340.92</ele>
        <time>2016-01-17T09:40:08Z</time>
      </trkpt>
      <trkpt lat="43.79548" lon="3.70903">
        <ele>341.89</ele>
        <time>2016-01-17T09:40:18Z</time>
      </trkpt>
      <trkpt lat="43.79548" lon="3.70889">
        <ele>341.89</ele>
        <time>2016-01-17T09:40:27Z</time>
      </trkpt>
      <trkpt lat="43.79549" lon="3.70875">
        <ele>340.92</ele>
        <time>2016-01-17T09:40:36Z</time>
      </trkpt>
      <trkpt lat="43.79549" lon="3.70861">
        <ele>339.96</ele>
        <time>2016-01-17T09:40:45Z</time>
      </trkpt>
      <trkpt lat="43.79547" lon="3.70847">
        <ele>338.04</ele>
        <time>2016-01-17T09:40:55Z</time>
      </trkpt>
      <trkpt lat="43.79545" lon="3.70833">
        <ele>337.08</ele>
        <time>2016-01-17T09:41:34Z</time>
      </trkpt>
      <trkpt lat="43.79536" lon="3.70828">
        <ele>335.64</ele>
        <time>2016-01-17T09:41:44Z</time>
      </trkpt>
      <trkpt lat="43.79527" lon="3.70822">
        <ele>334.2</ele>
        <time>2016-01-17T09:41:54Z</time>
      </trkpt>
      <trkpt lat="43.79524" lon="3.70807">
        <ele>332.75</ele>
        <time>2016-01-17T09:42:04Z</time>
      </trkpt>
      <trkpt lat="43.79523" lon="3.70791">
        <ele>330.83</ele>
        <time>2016-01-17T09:42:15Z</time>
      </trkpt>
      <trkpt lat="43.79525" lon="3.70774">
        <ele>329.87</ele>
        <time>2016-01-17T09:42:25Z</time>
      </trkpt>
      <trkpt lat="43.79525" lon="3.70757">
        <ele>328.43</ele>
        <time>2016-01-17T09:42:34Z</time>
      </trkpt>
      <trkpt lat="43.79525" lon="3.70743">
        <ele>326.99</ele>
        <time>2016-01-17T09:42:42Z</time>
      </trkpt>
      <trkpt lat="43.79524" lon="3.70725">
        <ele>326.02</ele>
        <time>2016-01-17T09:42:51Z</time>
      </trkpt>
      <trkpt lat="43.79523" lon="3.70709">
        <ele>325.06</ele>
        <time>2016-01-17T09:42:59Z</time>
      </trkpt>
      <trkpt lat="43.79521" lon="3.70695">
        <ele>324.1</ele>
        <time>2016-01-17T09:43:06Z</time>
      </trkpt>
      <trkpt lat="43.79519" lon="3.70682">
        <ele>323.14</ele>
        <time>2016-01-17T09:43:15Z</time>
      </trkpt>
      <trkpt lat="43.79516" lon="3.70667">
        <ele>322.18</ele>
        <time>2016-01-17T09:43:25Z</time>
      </trkpt>
      <trkpt lat="43.79514" lon="3.70652">
        <ele>320.74</ele>
        <time>2016-01-17T09:43:34Z</time>
      </trkpt>
      <trkpt lat="43.79511" lon="3.70636">
        <ele>319.3</ele>
        <time>2016-01-17T09:43:43Z</time>
      </trkpt>
      <trkpt lat="43.79509" lon="3.7062">
        <ele>318.33</ele>
        <time>2016-01-17T09:43:51Z</time>
      </trkpt>
      <trkpt lat="43.79507" lon="3.70602">
        <ele>316.89</ele>
        <time>2016-01-17T09:44:00Z</time>
      </trkpt>
      <trkpt lat="43.79505" lon="3.70587">
        <ele>316.41</ele>
        <time>2016-01-17T09:44:08Z</time>
      </trkpt>
      <trkpt lat="43.79502" lon="3.70571">
        <ele>315.45</ele>
        <time>2016-01-17T09:44:16Z</time>
      </trkpt>
      <trkpt lat="43.795" lon="3.70557">
        <ele>315.45</ele>
        <time>2016-01-17T09:44:23Z</time>
      </trkpt>
      <trkpt lat="43.79498" lon="3.70542">
        <ele>314.49</ele>
        <time>2016-01-17T09:44:31Z</time>
      </trkpt>
      <trkpt lat="43.79495" lon="3.70527">
        <ele>314.01</ele>
        <time>2016-01-17T09:44:39Z</time>
      </trkpt>
      <trkpt lat="43.79493" lon="3.70513">
        <ele>313.53</ele>
        <time>2016-01-17T09:44:46Z</time>
      </trkpt>
      <trkpt lat="43.79492" lon="3.70499">
        <ele>313.05</ele>
        <time>2016-01-17T09:44:53Z</time>
      </trkpt>
      <trkpt lat="43.79494" lon="3.70482">
        <ele>312.57</ele>
        <time>2016-01-17T09:45:01Z</time>
      </trkpt>
      <trkpt lat="43.795" lon="3.70469">
        <ele>311.12</ele>
        <time>2016-01-17T09:45:09Z</time>
      </trkpt>
      <trkpt lat="43.79508" lon="3.70459">
        <ele>310.64</ele>
        <time>2016-01-17T09:45:16Z</time>
      </trkpt>
      <trkpt lat="43.79517" lon="3.70449">
        <ele>309.68</ele>
        <time>2016-01-17T09:45:24Z</time>
      </trkpt>
      <trkpt lat="43.79525" lon="3.7044">
        <ele>308.24</ele>
        <time>2016-01-17T09:45:31Z</time>
      </trkpt>
      <trkpt lat="43.79532" lon="3.70431">
        <ele>308.72</ele>
        <time>2016-01-17T09:45:38Z</time>
      </trkpt>
      <trkpt lat="43.7954" lon="3.70423">
        <ele>308.72</ele>
        <time>2016-01-17T09:45:45Z</time>
      </trkpt>
      <trkpt lat="43.79548" lon="3.70412">
        <ele>308.72</ele>
        <time>2016-01-17T09:45:52Z</time>
      </trkpt>
      <trkpt lat="43.79557" lon="3.70405">
        <ele>308.24</ele>
        <time>2016-01-17T09:45:59Z</time>
      </trkpt>
      <trkpt lat="43.79564" lon="3.70397">
        <ele>307.76</ele>
        <time>2016-01-17T09:46:06Z</time>
      </trkpt>
      <trkpt lat="43.79573" lon="3.70387">
        <ele>307.76</ele>
        <time>2016-01-17T09:46:14Z</time>
      </trkpt>
      <trkpt lat="43.79581" lon="3.70376">
        <ele>307.28</ele>
        <time>2016-01-17T09:46:23Z</time>
      </trkpt>
      <trkpt lat="43.7959" lon="3.70366">
        <ele>307.28</ele>
        <time>2016-01-17T09:46:31Z</time>
      </trkpt>
      <trkpt lat="43.79598" lon="3.70357">
        <ele>306.8</ele>
        <time>2016-01-17T09:46:39Z</time>
      </trkpt>
      <trkpt lat="43.79606" lon="3.70348">
        <ele>306.8</ele>
        <time>2016-01-17T09:46:46Z</time>
      </trkpt>
      <trkpt lat="43.79614" lon="3.70339">
        <ele>306.8</ele>
        <time>2016-01-17T09:46:53Z</time>
      </trkpt>
      <trkpt lat="43.79621" lon="3.7033">
        <ele>306.32</ele>
        <time>2016-01-17T09:47:00Z</time>
      </trkpt>
      <trkpt lat="43.79628" lon="3.70321">
        <ele>306.32</ele>
        <time>2016-01-17T09:47:07Z</time>
      </trkpt>
      <trkpt lat="43.79637" lon="3.70314">
        <ele>305.84</ele>
        <time>2016-01-17T09:47:14Z</time>
      </trkpt>
      <trkpt lat="43.79646" lon="3.70304">
        <ele>305.36</ele>
        <time>2016-01-17T09:47:21Z</time>
      </trkpt>
      <trkpt lat="43.79654" lon="3.70294">
        <ele>305.36</ele>
        <time>2016-01-17T09:47:28Z</time>
      </trkpt>
      <trkpt lat="43.79661" lon="3.70285">
        <ele>304.88</ele>
        <time>2016-01-17T09:47:35Z</time>
      </trkpt>
      <trkpt lat="43.79667" lon="3.70275">
        <ele>305.36</ele>
        <time>2016-01-17T09:47:42Z</time>
      </trkpt>
      <trkpt lat="43.79675" lon="3.70267">
        <ele>304.88</ele>
        <time>2016-01-17T09:47:49Z</time>
      </trkpt>
      <trkpt lat="43.79682" lon="3.70258">
        <ele>304.39</ele>
        <time>2016-01-17T09:47:56Z</time>
      </trkpt>
      <trkpt lat="43.79691" lon="3.7025">
        <ele>304.39</ele>
        <time>2016-01-17T09:48:03Z</time>
      </trkpt>
      <trkpt lat="43.79698" lon="3.70241">
        <ele>303.91</ele>
        <time>2016-01-17T09:48:10Z</time>
      </trkpt>
      <trkpt lat="43.79706" lon="3.70231">
        <ele>303.91</ele>
        <time>2016-01-17T09:48:17Z</time>
      </trkpt>
      <trkpt lat="43.79714" lon="3.70223">
        <ele>303.91</ele>
        <time>2016-01-17T09:48:24Z</time>
      </trkpt>
      <trkpt lat="43.79721" lon="3.70215">
        <ele>303.91</ele>
        <time>2016-01-17T09:48:31Z</time>
      </trkpt>
      <trkpt lat="43.79729" lon="3.70206">
        <ele>303.91</ele>
        <time>2016-01-17T09:48:38Z</time>
      </trkpt>
      <trkpt lat="43.79737" lon="3.70197">
        <ele>303.91</ele>
        <time>2016-01-17T09:48:46Z</time>
      </trkpt>
      <trkpt lat="43.79746" lon="3.70188">
        <ele>304.39</ele>
        <time>2016-01-17T09:48:53Z</time>
      </trkpt>
      <trkpt lat="43.79754" lon="3.70178">
        <ele>304.39</ele>
        <time>2016-01-17T09:49:00Z</time>
      </trkpt>
      <trkpt lat="43.79761" lon="3.70169">
        <ele>304.88</ele>
        <time>2016-01-17T09:49:07Z</time>
      </trkpt>
      <trkpt lat="43.79768" lon="3.70161">
        <ele>305.36</ele>
        <time>2016-01-17T09:49:15Z</time>
      </trkpt>
      <trkpt lat="43.79777" lon="3.70151">
        <ele>305.36</ele>
        <time>2016-01-17T09:49:23Z</time>
      </trkpt>
      <trkpt lat="43.79785" lon="3.70143">
        <ele>305.84</ele>
        <time>2016-01-17T09:49:30Z</time>
      </trkpt>
      <trkpt lat="43.79792" lon="3.70133">
        <ele>306.32</ele>
        <time>2016-01-17T09:49:37Z</time>
      </trkpt>
      <trkpt lat="43.798" lon="3.70125">
        <ele>306.8</ele>
        <time>2016-01-17T09:49:44Z</time>
      </trkpt>
      <trkpt lat="43.79807" lon="3.70118">
        <ele>306.8</ele>
        <time>2016-01-17T09:49:51Z</time>
      </trkpt>
      <trkpt lat="43.79815" lon="3.70108">
        <ele>307.28</ele>
        <time>2016-01-17T09:49:59Z</time>
      </trkpt>
      <trkpt lat="43.79822" lon="3.70098">
        <ele>307.76</ele>
        <time>2016-01-17T09:50:06Z</time>
      </trkpt>
      <trkpt lat="43.79831" lon="3.7009">
        <ele>308.24</ele>
        <time>2016-01-17T09:50:14Z</time>
      </trkpt>
      <trkpt lat="43.79839" lon="3.7008">
        <ele>308.24</ele>
        <time>2016-01-17T09:50:21Z</time>
      </trkpt>
      <trkpt lat="43.79846" lon="3.70071">
        <ele>308.72</ele>
        <time>2016-01-17T09:50:29Z</time>
      </trkpt>
      <trkpt lat="43.79854" lon="3.70062">
        <ele>308.72</ele>
        <time>2016-01-17T09:50:37Z</time>
      </trkpt>
      <trkpt lat="43.79863" lon="3.70054">
        <ele>308.72</ele>
        <time>2016-01-17T09:50:44Z</time>
      </trkpt>
      <trkpt lat="43.7987" lon="3.70045">
        <ele>308.72</ele>
        <time>2016-01-17T09:50:51Z</time>
      </trkpt>
      <trkpt lat="43.79877" lon="3.70036">
        <ele>309.2</ele>
        <time>2016-01-17T09:50:58Z</time>
      </trkpt>
      <trkpt lat="43.79884" lon="3.70027">
        <ele>309.2</ele>
        <time>2016-01-17T09:51:05Z</time>
      </trkpt>
      <trkpt lat="43.79892" lon="3.70018">
        <ele>309.2</ele>
        <time>2016-01-17T09:51:13Z</time>
      </trkpt>
      <trkpt lat="43.799" lon="3.70007">
        <ele>309.2</ele>
        <time>2016-01-17T09:51:21Z</time>
      </trkpt>
      <trkpt lat="43.79906" lon="3.69999">
        <ele>308.72</ele>
        <time>2016-01-17T09:51:28Z</time>
      </trkpt>
      <trkpt lat="43.79915" lon="3.6999">
        <ele>308.24</ele>
        <time>2016-01-17T09:51:36Z</time>
      </trkpt>
      <trkpt lat="43.79918" lon="3.69978">
        <ele>307.76</ele>
        <time>2016-01-17T09:51:58Z</time>
      </trkpt>
      <trkpt lat="43.79912" lon="3.69969">
        <ele>307.76</ele>
        <time>2016-01-17T09:52:09Z</time>
      </trkpt>
      <trkpt lat="43.79905" lon="3.69959">
        <ele>308.24</ele>
        <time>2016-01-17T09:52:24Z</time>
      </trkpt>
      <trkpt lat="43.79897" lon="3.69952">
        <ele>309.2</ele>
        <time>2016-01-17T09:52:32Z</time>
      </trkpt>
      <trkpt lat="43.79889" lon="3.69948">
        <ele>310.16</ele>
        <time>2016-01-17T09:52:41Z</time>
      </trkpt>
      <trkpt lat="43.7988" lon="3.69941">
        <ele>311.12</ele>
        <time>2016-01-17T09:52:50Z</time>
      </trkpt>
      <trkpt lat="43.79875" lon="3.6993">
        <ele>312.09</ele>
        <time>2016-01-17T09:52:59Z</time>
      </trkpt>
      <trkpt lat="43.79869" lon="3.69918">
        <ele>312.57</ele>
        <time>2016-01-17T09:53:10Z</time>
      </trkpt>
      <trkpt lat="43.79864" lon="3.69906">
        <ele>313.53</ele>
        <time>2016-01-17T09:53:18Z</time>
      </trkpt>
      <trkpt lat="43.79857" lon="3.69898">
        <ele>314.49</ele>
        <time>2016-01-17T09:53:27Z</time>
      </trkpt>
      <trkpt lat="43.79849" lon="3.69889">
        <ele>315.93</ele>
        <time>2016-01-17T09:53:36Z</time>
      </trkpt>
      <trkpt lat="43.7984" lon="3.69882">
        <ele>317.37</ele>
        <time>2016-01-17T09:53:46Z</time>
      </trkpt>
      <trkpt lat="43.79828" lon="3.69878">
        <ele>318.81</ele>
        <time>2016-01-17T09:53:56Z</time>
      </trkpt>
      <trkpt lat="43.79818" lon="3.6988">
        <ele>320.26</ele>
        <time>2016-01-17T09:54:05Z</time>
      </trkpt>
      <trkpt lat="43.79809" lon="3.69882">
        <ele>321.22</ele>
        <time>2016-01-17T09:54:14Z</time>
      </trkpt>
      <trkpt lat="43.79798" lon="3.69883">
        <ele>322.66</ele>
        <time>2016-01-17T09:54:24Z</time>
      </trkpt>
      <trkpt lat="43.79787" lon="3.69883">
        <ele>323.62</ele>
        <time>2016-01-17T09:54:34Z</time>
      </trkpt>
      <trkpt lat="43.79776" lon="3.69877">
        <ele>324.58</ele>
        <time>2016-01-17T09:54:43Z</time>
      </trkpt>
      <trkpt lat="43.79769" lon="3.69867">
        <ele>325.54</ele>
        <time>2016-01-17T09:54:52Z</time>
      </trkpt>
      <trkpt lat="43.79761" lon="3.6986">
        <ele>325.54</ele>
        <time>2016-01-17T09:55:00Z</time>
      </trkpt>
      <trkpt lat="43.79752" lon="3.69859">
        <ele>326.02</ele>
        <time>2016-01-17T09:55:08Z</time>
      </trkpt>
      <trkpt lat="43.79743" lon="3.69862">
        <ele>326.02</ele>
        <time>2016-01-17T09:55:16Z</time>
      </trkpt>
      <trkpt lat="43.79733" lon="3.69863">
        <ele>325.54</ele>
        <time>2016-01-17T09:55:24Z</time>
      </trkpt>
      <trkpt lat="43.79725" lon="3.69855">
        <ele>325.54</ele>
        <time>2016-01-17T09:55:32Z</time>
      </trkpt>
      <trkpt lat="43.79717" lon="3.69845">
        <ele>324.58</ele>
        <time>2016-01-17T09:55:41Z</time>
      </trkpt>
      <trkpt lat="43.79712" lon="3.69833">
        <ele>324.1</ele>
        <time>2016-01-17T09:55:49Z</time>
      </trkpt>
      <trkpt lat="43.7971" lon="3.69819">
        <ele>323.62</ele>
        <time>2016-01-17T09:55:58Z</time>
      </trkpt>
      <trkpt lat="43.79709" lon="3.69803">
        <ele>323.14</ele>
        <time>2016-01-17T09:56:09Z</time>
      </trkpt>
      <trkpt lat="43.79714" lon="3.6979">
        <ele>322.66</ele>
        <time>2016-01-17T09:56:18Z</time>
      </trkpt>
      <trkpt lat="43.79719" lon="3.69775">
        <ele>322.18</ele>
        <time>2016-01-17T09:56:27Z</time>
      </trkpt>
      <trkpt lat="43.79723" lon="3.6976">
        <ele>320.74</ele>
        <time>2016-01-17T09:56:36Z</time>
      </trkpt>
      <trkpt lat="43.79729" lon="3.69747">
        <ele>319.78</ele>
        <time>2016-01-17T09:56:46Z</time>
      </trkpt>
      <trkpt lat="43.79731" lon="3.69732">
        <ele>318.81</ele>
        <time>2016-01-17T09:56:55Z</time>
      </trkpt>
      <trkpt lat="43.79735" lon="3.69718">
        <ele>316.89</ele>
        <time>2016-01-17T09:57:06Z</time>
      </trkpt>
      <trkpt lat="43.79743" lon="3.69713">
        <ele>315.45</ele>
        <time>2016-01-17T09:57:18Z</time>
      </trkpt>
      <trkpt lat="43.79744" lon="3.69706">
        <ele>314.97</ele>
        <time>2016-01-17T09:57:43Z</time>
      </trkpt>
      <trkpt lat="43.79746" lon="3.69698">
        <ele>313.05</ele>
        <time>2016-01-17T09:57:59Z</time>
      </trkpt>
      <trkpt lat="43.79756" lon="3.69704">
        <ele>311.6</ele>
        <time>2016-01-17T09:58:58Z</time>
      </trkpt>
      <trkpt lat="43.79761" lon="3.69702">
        <ele>313.05</ele>
        <time>2016-01-17T09:59:16Z</time>
      </trkpt>
      <trkpt lat="43.7976" lon="3.697">
        <ele>313.53</ele>
        <time>2016-01-17T09:59:41Z</time>
      </trkpt>
      <trkpt lat="43.79754" lon="3.69704">
        <ele>311.6</ele>
        <time>2016-01-17T10:00:21Z</time>
      </trkpt>
      <trkpt lat="43.79758" lon="3.69696">
        <ele>313.53</ele>
        <time>2016-01-17T10:00:42Z</time>
      </trkpt>
      <trkpt lat="43.7975" lon="3.69684">
        <ele>312.57</ele>
        <time>2016-01-17T10:00:59Z</time>
      </trkpt>
      <trkpt lat="43.79744" lon="3.69691">
        <ele>313.53</ele>
        <time>2016-01-17T10:01:13Z</time>
      </trkpt>
      <trkpt lat="43.79741" lon="3.69698">
        <ele>314.97</ele>
        <time>2016-01-17T10:04:23Z</time>
      </trkpt>
      <trkpt lat="43.79746" lon="3.69681">
        <ele>313.05</ele>
        <time>2016-01-17T10:05:58Z</time>
      </trkpt>
      <trkpt lat="43.79751" lon="3.69667">
        <ele>311.12</ele>
        <time>2016-01-17T10:06:13Z</time>
      </trkpt>
      <trkpt lat="43.79755" lon="3.69655">
        <ele>309.68</ele>
        <time>2016-01-17T10:06:27Z</time>
      </trkpt>
      <trkpt lat="43.79763" lon="3.69647">
        <ele>308.24</ele>
        <time>2016-01-17T10:06:38Z</time>
      </trkpt>
      <trkpt lat="43.79766" lon="3.69632">
        <ele>305.36</ele>
        <time>2016-01-17T10:06:54Z</time>
      </trkpt>
      <trkpt lat="43.79766" lon="3.69618">
        <ele>302.95</ele>
        <time>2016-01-17T10:07:12Z</time>
      </trkpt>
      <trkpt lat="43.79768" lon="3.69604">
        <ele>300.07</ele>
        <time>2016-01-17T10:07:32Z</time>
      </trkpt>
      <trkpt lat="43.79771" lon="3.69589">
        <ele>298.15</ele>
        <time>2016-01-17T10:07:49Z</time>
      </trkpt>
      <trkpt lat="43.79778" lon="3.69575">
        <ele>294.78</ele>
        <time>2016-01-17T10:08:09Z</time>
      </trkpt>
      <trkpt lat="43.79783" lon="3.69562">
        <ele>292.86</ele>
        <time>2016-01-17T10:08:24Z</time>
      </trkpt>
      <trkpt lat="43.79785" lon="3.69549">
        <ele>289.01</ele>
        <time>2016-01-17T10:08:43Z</time>
      </trkpt>
      <trkpt lat="43.79791" lon="3.69532">
        <ele>286.13</ele>
        <time>2016-01-17T10:09:05Z</time>
      </trkpt>
      <trkpt lat="43.79794" lon="3.69525">
        <ele>286.13</ele>
        <time>2016-01-17T10:10:22Z</time>
      </trkpt>
      <trkpt lat="43.79787" lon="3.69523">
        <ele>286.13</ele>
        <time>2016-01-17T10:12:02Z</time>
      </trkpt>
      <trkpt lat="43.7979" lon="3.69512">
        <ele>284.21</ele>
        <time>2016-01-17T10:12:21Z</time>
      </trkpt>
      <trkpt lat="43.79797" lon="3.69505">
        <ele>283.25</ele>
        <time>2016-01-17T10:12:33Z</time>
      </trkpt>
      <trkpt lat="43.79806" lon="3.69497">
        <ele>281.32</ele>
        <time>2016-01-17T10:12:50Z</time>
      </trkpt>
      <trkpt lat="43.79814" lon="3.69489">
        <ele>279.88</ele>
        <time>2016-01-17T10:13:04Z</time>
      </trkpt>
      <trkpt lat="43.79814" lon="3.69475">
        <ele>278.44</ele>
        <time>2016-01-17T10:13:15Z</time>
      </trkpt>
      <trkpt lat="43.79822" lon="3.69466">
        <ele>277.48</ele>
        <time>2016-01-17T10:13:27Z</time>
      </trkpt>
      <trkpt lat="43.79825" lon="3.69452">
        <ele>276.04</ele>
        <time>2016-01-17T10:13:46Z</time>
      </trkpt>
      <trkpt lat="43.79828" lon="3.69438">
        <ele>275.07</ele>
        <time>2016-01-17T10:14:08Z</time>
      </trkpt>
      <trkpt lat="43.79832" lon="3.69428">
        <ele>274.11</ele>
        <time>2016-01-17T10:14:48Z</time>
      </trkpt>
      <trkpt lat="43.79828" lon="3.69445">
        <ele>275.07</ele>
        <time>2016-01-17T10:15:03Z</time>
      </trkpt>
      <trkpt lat="43.7983" lon="3.6946">
        <ele>276.52</ele>
        <time>2016-01-17T10:15:17Z</time>
      </trkpt>
      <trkpt lat="43.79839" lon="3.69457">
        <ele>275.56</ele>
        <time>2016-01-17T10:15:45Z</time>
      </trkpt>
      <trkpt lat="43.79848" lon="3.6946">
        <ele>275.07</ele>
        <time>2016-01-17T10:15:56Z</time>
      </trkpt>
      <trkpt lat="43.79858" lon="3.69467">
        <ele>274.11</ele>
        <time>2016-01-17T10:16:05Z</time>
      </trkpt>
      <trkpt lat="43.79866" lon="3.69475">
        <ele>273.63</ele>
        <time>2016-01-17T10:16:14Z</time>
      </trkpt>
      <trkpt lat="43.79871" lon="3.69489">
        <ele>273.15</ele>
        <time>2016-01-17T10:16:30Z</time>
      </trkpt>
      <trkpt lat="43.79876" lon="3.69501">
        <ele>271.71</ele>
        <time>2016-01-17T10:16:39Z</time>
      </trkpt>
      <trkpt lat="43.79881" lon="3.69515">
        <ele>270.75</ele>
        <time>2016-01-17T10:16:49Z</time>
      </trkpt>
      <trkpt lat="43.7989" lon="3.69525">
        <ele>270.27</ele>
        <time>2016-01-17T10:16:58Z</time>
      </trkpt>
      <trkpt lat="43.79897" lon="3.69535">
        <ele>268.83</ele>
        <time>2016-01-17T10:17:11Z</time>
      </trkpt>
      <trkpt lat="43.79906" lon="3.69542">
        <ele>268.35</ele>
        <time>2016-01-17T10:17:33Z</time>
      </trkpt>
      <trkpt lat="43.79913" lon="3.69549">
        <ele>267.86</ele>
        <time>2016-01-17T10:18:37Z</time>
      </trkpt>
      <trkpt lat="43.79921" lon="3.69557">
        <ele>267.86</ele>
        <time>2016-01-17T10:18:46Z</time>
      </trkpt>
      <trkpt lat="43.7993" lon="3.69563">
        <ele>266.9</ele>
        <time>2016-01-17T10:18:58Z</time>
      </trkpt>
      <trkpt lat="43.7994" lon="3.69571">
        <ele>266.42</ele>
        <time>2016-01-17T10:19:07Z</time>
      </trkpt>
      <trkpt lat="43.79949" lon="3.69578">
        <ele>265.46</ele>
        <time>2016-01-17T10:19:17Z</time>
      </trkpt>
      <trkpt lat="43.79958" lon="3.69587">
        <ele>264.98</ele>
        <time>2016-01-17T10:19:26Z</time>
      </trkpt>
      <trkpt lat="43.79969" lon="3.69594">
        <ele>264.02</ele>
        <time>2016-01-17T10:19:36Z</time>
      </trkpt>
      <trkpt lat="43.7998" lon="3.69602">
        <ele>263.06</ele>
        <time>2016-01-17T10:19:46Z</time>
      </trkpt>
      <trkpt lat="43.79992" lon="3.69609">
        <ele>261.62</ele>
        <time>2016-01-17T10:19:56Z</time>
      </trkpt>
      <trkpt lat="43.80002" lon="3.69618">
        <ele>260.65</ele>
        <time>2016-01-17T10:20:06Z</time>
      </trkpt>
      <trkpt lat="43.80015" lon="3.69628">
        <ele>258.73</ele>
        <time>2016-01-17T10:20:17Z</time>
      </trkpt>
      <trkpt lat="43.80028" lon="3.69632">
        <ele>257.77</ele>
        <time>2016-01-17T10:20:27Z</time>
      </trkpt>
      <trkpt lat="43.80032" lon="3.69623">
        <ele>255.85</ele>
        <time>2016-01-17T10:20:36Z</time>
      </trkpt>
      <trkpt lat="43.80029" lon="3.69609">
        <ele>254.89</ele>
        <time>2016-01-17T10:20:46Z</time>
      </trkpt>
      <trkpt lat="43.80025" lon="3.69595">
        <ele>253.44</ele>
        <time>2016-01-17T10:20:55Z</time>
      </trkpt>
      <trkpt lat="43.8002" lon="3.69583">
        <ele>252.48</ele>
        <time>2016-01-17T10:21:03Z</time>
      </trkpt>
      <trkpt lat="43.80016" lon="3.6957">
        <ele>251.52</ele>
        <time>2016-01-17T10:21:12Z</time>
      </trkpt>
      <trkpt lat="43.80009" lon="3.69557">
        <ele>250.08</ele>
        <time>2016-01-17T10:21:22Z</time>
      </trkpt>
      <trkpt lat="43.80001" lon="3.69544">
        <ele>248.64</ele>
        <time>2016-01-17T10:21:32Z</time>
      </trkpt>
      <trkpt lat="43.79994" lon="3.69531">
        <ele>246.72</ele>
        <time>2016-01-17T10:21:41Z</time>
      </trkpt>
      <trkpt lat="43.79986" lon="3.69521">
        <ele>245.27</ele>
        <time>2016-01-17T10:21:50Z</time>
      </trkpt>
      <trkpt lat="43.79983" lon="3.69508">
        <ele>244.79</ele>
        <time>2016-01-17T10:21:59Z</time>
      </trkpt>
      <trkpt lat="43.79988" lon="3.69491">
        <ele>244.31</ele>
        <time>2016-01-17T10:22:08Z</time>
      </trkpt>
      <trkpt lat="43.79993" lon="3.69477">
        <ele>243.35</ele>
        <time>2016-01-17T10:22:17Z</time>
      </trkpt>
      <trkpt lat="43.79998" lon="3.69464">
        <ele>243.35</ele>
        <time>2016-01-17T10:22:25Z</time>
      </trkpt>
      <trkpt lat="43.80003" lon="3.6945">
        <ele>242.87</ele>
        <time>2016-01-17T10:22:35Z</time>
      </trkpt>
      <trkpt lat="43.80008" lon="3.69436">
        <ele>242.87</ele>
        <time>2016-01-17T10:22:48Z</time>
      </trkpt>
      <trkpt lat="43.80013" lon="3.69426">
        <ele>242.39</ele>
        <time>2016-01-17T10:24:00Z</time>
      </trkpt>
      <trkpt lat="43.80019" lon="3.69415">
        <ele>242.39</ele>
        <time>2016-01-17T10:24:09Z</time>
      </trkpt>
      <trkpt lat="43.8002" lon="3.69401">
        <ele>242.39</ele>
        <time>2016-01-17T10:24:18Z</time>
      </trkpt>
      <trkpt lat="43.80015" lon="3.69386">
        <ele>243.35</ele>
        <time>2016-01-17T10:24:28Z</time>
      </trkpt>
      <trkpt lat="43.80011" lon="3.69374">
        <ele>244.31</ele>
        <time>2016-01-17T10:24:36Z</time>
      </trkpt>
      <trkpt lat="43.80004" lon="3.69362">
        <ele>243.83</ele>
        <time>2016-01-17T10:24:44Z</time>
      </trkpt>
      <trkpt lat="43.79997" lon="3.69351">
        <ele>244.31</ele>
        <time>2016-01-17T10:24:52Z</time>
      </trkpt>
      <trkpt lat="43.79998" lon="3.69345">
        <ele>244.31</ele>
        <time>2016-01-17T10:25:09Z</time>
      </trkpt>
      <trkpt lat="43.80008" lon="3.6934">
        <ele>242.87</ele>
        <time>2016-01-17T10:25:21Z</time>
      </trkpt>
      <trkpt lat="43.80016" lon="3.69344">
        <ele>242.39</ele>
        <time>2016-01-17T10:26:17Z</time>
      </trkpt>
      <trkpt lat="43.80017" lon="3.69358">
        <ele>242.87</ele>
        <time>2016-01-17T10:26:35Z</time>
      </trkpt>
      <trkpt lat="43.8002" lon="3.69371">
        <ele>242.87</ele>
        <time>2016-01-17T10:26:45Z</time>
      </trkpt>
      <trkpt lat="43.80021" lon="3.69387">
        <ele>242.87</ele>
        <time>2016-01-17T10:26:55Z</time>
      </trkpt>
      <trkpt lat="43.80021" lon="3.69402">
        <ele>242.39</ele>
        <time>2016-01-17T10:27:04Z</time>
      </trkpt>
      <trkpt lat="43.80024" lon="3.69415">
        <ele>241.43</ele>
        <time>2016-01-17T10:27:12Z</time>
      </trkpt>
      <trkpt lat="43.80024" lon="3.69431">
        <ele>241.43</ele>
        <time>2016-01-17T10:27:21Z</time>
      </trkpt>
      <trkpt lat="43.80026" lon="3.69442">
        <ele>240.95</ele>
        <time>2016-01-17T10:27:56Z</time>
      </trkpt>
      <trkpt lat="43.80025" lon="3.69429">
        <ele>240.95</ele>
        <time>2016-01-17T10:28:06Z</time>
      </trkpt>
      <trkpt lat="43.80024" lon="3.69413">
        <ele>241.91</ele>
        <time>2016-01-17T10:28:17Z</time>
      </trkpt>
      <trkpt lat="43.80034" lon="3.69408">
        <ele>240.47</ele>
        <time>2016-01-17T10:28:41Z</time>
      </trkpt>
      <trkpt lat="43.80044" lon="3.69404">
        <ele>239.99</ele>
        <time>2016-01-17T10:28:57Z</time>
      </trkpt>
      <trkpt lat="43.80055" lon="3.69404">
        <ele>238.54</ele>
        <time>2016-01-17T10:29:07Z</time>
      </trkpt>
      <trkpt lat="43.80064" lon="3.69405">
        <ele>237.1</ele>
        <time>2016-01-17T10:29:20Z</time>
      </trkpt>
      <trkpt lat="43.80072" lon="3.69396">
        <ele>236.14</ele>
        <time>2016-01-17T10:29:31Z</time>
      </trkpt>
      <trkpt lat="43.80073" lon="3.69381">
        <ele>236.62</ele>
        <time>2016-01-17T10:29:41Z</time>
      </trkpt>
      <trkpt lat="43.80073" lon="3.69368">
        <ele>236.14</ele>
        <time>2016-01-17T10:29:59Z</time>
      </trkpt>
      <trkpt lat="43.80073" lon="3.69349">
        <ele>236.62</ele>
        <time>2016-01-17T10:30:23Z</time>
      </trkpt>
      <trkpt lat="43.80073" lon="3.69333">
        <ele>236.14</ele>
        <time>2016-01-17T10:30:32Z</time>
      </trkpt>
      <trkpt lat="43.80071" lon="3.69316">
        <ele>236.14</ele>
        <time>2016-01-17T10:30:41Z</time>
      </trkpt>
      <trkpt lat="43.80067" lon="3.69297">
        <ele>236.14</ele>
        <time>2016-01-17T10:30:52Z</time>
      </trkpt>
      <trkpt lat="43.80064" lon="3.69281">
        <ele>236.62</ele>
        <time>2016-01-17T10:31:00Z</time>
      </trkpt>
      <trkpt lat="43.80063" lon="3.69267">
        <ele>236.14</ele>
        <time>2016-01-17T10:31:08Z</time>
      </trkpt>
      <trkpt lat="43.8006" lon="3.69251">
        <ele>236.62</ele>
        <time>2016-01-17T10:31:17Z</time>
      </trkpt>
      <trkpt lat="43.80057" lon="3.69235">
        <ele>236.14</ele>
        <time>2016-01-17T10:31:26Z</time>
      </trkpt>
      <trkpt lat="43.80057" lon="3.69221">
        <ele>235.66</ele>
        <time>2016-01-17T10:31:35Z</time>
      </trkpt>
      <trkpt lat="43.80059" lon="3.69206">
        <ele>235.18</ele>
        <time>2016-01-17T10:31:44Z</time>
      </trkpt>
      <trkpt lat="43.80059" lon="3.6919">
        <ele>234.22</ele>
        <time>2016-01-17T10:31:53Z</time>
      </trkpt>
      <trkpt lat="43.80061" lon="3.69175">
        <ele>234.22</ele>
        <time>2016-01-17T10:32:02Z</time>
      </trkpt>
      <trkpt lat="43.80064" lon="3.69161">
        <ele>233.74</ele>
        <time>2016-01-17T10:32:10Z</time>
      </trkpt>
      <trkpt lat="43.80065" lon="3.69147">
        <ele>233.74</ele>
        <time>2016-01-17T10:32:18Z</time>
      </trkpt>
      <trkpt lat="43.80067" lon="3.69133">
        <ele>232.78</ele>
        <time>2016-01-17T10:32:27Z</time>
      </trkpt>
      <trkpt lat="43.80069" lon="3.69116">
        <ele>232.78</ele>
        <time>2016-01-17T10:33:03Z</time>
      </trkpt>
      <trkpt lat="43.80068" lon="3.69101">
        <ele>232.3</ele>
        <time>2016-01-17T10:33:17Z</time>
      </trkpt>
      <trkpt lat="43.8007" lon="3.69084">
        <ele>231.81</ele>
        <time>2016-01-17T10:33:28Z</time>
      </trkpt>
      <trkpt lat="43.80071" lon="3.69067">
        <ele>230.85</ele>
        <time>2016-01-17T10:33:43Z</time>
      </trkpt>
      <trkpt lat="43.80075" lon="3.69047">
        <ele>230.37</ele>
        <time>2016-01-17T10:33:57Z</time>
      </trkpt>
      <trkpt lat="43.80079" lon="3.69029">
        <ele>229.41</ele>
        <time>2016-01-17T10:34:10Z</time>
      </trkpt>
      <trkpt lat="43.80085" lon="3.69013">
        <ele>228.45</ele>
        <time>2016-01-17T10:34:25Z</time>
      </trkpt>
      <trkpt lat="43.80089" lon="3.68994">
        <ele>228.45</ele>
        <time>2016-01-17T10:34:41Z</time>
      </trkpt>
      <trkpt lat="43.80093" lon="3.68979">
        <ele>227.49</ele>
        <time>2016-01-17T10:34:55Z</time>
      </trkpt>
      <trkpt lat="43.80094" lon="3.68962">
        <ele>227.49</ele>
        <time>2016-01-17T10:35:07Z</time>
      </trkpt>
      <trkpt lat="43.801" lon="3.68947">
        <ele>227.01</ele>
        <time>2016-01-17T10:35:20Z</time>
      </trkpt>
      <trkpt lat="43.80106" lon="3.68932">
        <ele>227.01</ele>
        <time>2016-01-17T10:35:31Z</time>
      </trkpt>
      <trkpt lat="43.80112" lon="3.68916">
        <ele>227.01</ele>
        <time>2016-01-17T10:35:48Z</time>
      </trkpt>
      <trkpt lat="43.80118" lon="3.68904">
        <ele>227.01</ele>
        <time>2016-01-17T10:35:57Z</time>
      </trkpt>
      <trkpt lat="43.80125" lon="3.6889">
        <ele>227.01</ele>
        <time>2016-01-17T10:36:44Z</time>
      </trkpt>
      <trkpt lat="43.80127" lon="3.68874">
        <ele>227.01</ele>
        <time>2016-01-17T10:36:54Z</time>
      </trkpt>
      <trkpt lat="43.80129" lon="3.68861">
        <ele>226.53</ele>
        <time>2016-01-17T10:37:02Z</time>
      </trkpt>
      <trkpt lat="43.80129" lon="3.68847">
        <ele>226.53</ele>
        <time>2016-01-17T10:37:11Z</time>
      </trkpt>
      <trkpt lat="43.80128" lon="3.68833">
        <ele>226.53</ele>
        <time>2016-01-17T10:37:21Z</time>
      </trkpt>
      <trkpt lat="43.80124" lon="3.68819">
        <ele>226.53</ele>
        <time>2016-01-17T10:37:30Z</time>
      </trkpt>
      <trkpt lat="43.80117" lon="3.68806">
        <ele>227.49</ele>
        <time>2016-01-17T10:37:42Z</time>
      </trkpt>
      <trkpt lat="43.80116" lon="3.68792">
        <ele>227.49</ele>
        <time>2016-01-17T10:37:50Z</time>
      </trkpt>
      <trkpt lat="43.80113" lon="3.68776">
        <ele>227.01</ele>
        <time>2016-01-17T10:38:01Z</time>
      </trkpt>
      <trkpt lat="43.80108" lon="3.68761">
        <ele>227.01</ele>
        <time>2016-01-17T10:38:11Z</time>
      </trkpt>
      <trkpt lat="43.80106" lon="3.68743">
        <ele>227.49</ele>
        <time>2016-01-17T10:38:21Z</time>
      </trkpt>
      <trkpt lat="43.80103" lon="3.68728">
        <ele>227.49</ele>
        <time>2016-01-17T10:38:31Z</time>
      </trkpt>
      <trkpt lat="43.80099" lon="3.68712">
        <ele>227.01</ele>
        <time>2016-01-17T10:38:41Z</time>
      </trkpt>
      <trkpt lat="43.80098" lon="3.68698">
        <ele>226.05</ele>
        <time>2016-01-17T10:38:51Z</time>
      </trkpt>
      <trkpt lat="43.80097" lon="3.68681">
        <ele>225.09</ele>
        <time>2016-01-17T10:39:03Z</time>
      </trkpt>
      <trkpt lat="43.80097" lon="3.68662">
        <ele>223.64</ele>
        <time>2016-01-17T10:39:16Z</time>
      </trkpt>
      <trkpt lat="43.80097" lon="3.68643">
        <ele>223.64</ele>
        <time>2016-01-17T10:39:26Z</time>
      </trkpt>
      <trkpt lat="43.80096" lon="3.68626">
        <ele>222.68</ele>
        <time>2016-01-17T10:39:34Z</time>
      </trkpt>
      <trkpt lat="43.80095" lon="3.68613">
        <ele>221.72</ele>
        <time>2016-01-17T10:39:43Z</time>
      </trkpt>
      <trkpt lat="43.80095" lon="3.68597">
        <ele>221.24</ele>
        <time>2016-01-17T10:39:54Z</time>
      </trkpt>
      <trkpt lat="43.80096" lon="3.68581">
        <ele>220.28</ele>
        <time>2016-01-17T10:40:04Z</time>
      </trkpt>
      <trkpt lat="43.80099" lon="3.68565">
        <ele>219.32</ele>
        <time>2016-01-17T10:40:14Z</time>
      </trkpt>
      <trkpt lat="43.80101" lon="3.68547">
        <ele>217.88</ele>
        <time>2016-01-17T10:40:26Z</time>
      </trkpt>
      <trkpt lat="43.80102" lon="3.68531">
        <ele>216.91</ele>
        <time>2016-01-17T10:40:36Z</time>
      </trkpt>
      <trkpt lat="43.80103" lon="3.68515">
        <ele>216.43</ele>
        <time>2016-01-17T10:40:46Z</time>
      </trkpt>
      <trkpt lat="43.80104" lon="3.685">
        <ele>215.95</ele>
        <time>2016-01-17T10:40:54Z</time>
      </trkpt>
      <trkpt lat="43.80104" lon="3.68485">
        <ele>215.47</ele>
        <time>2016-01-17T10:41:03Z</time>
      </trkpt>
      <trkpt lat="43.80106" lon="3.68469">
        <ele>214.99</ele>
        <time>2016-01-17T10:41:11Z</time>
      </trkpt>
      <trkpt lat="43.80106" lon="3.68455">
        <ele>214.51</ele>
        <time>2016-01-17T10:41:18Z</time>
      </trkpt>
      <trkpt lat="43.80107" lon="3.68441">
        <ele>214.03</ele>
        <time>2016-01-17T10:41:26Z</time>
      </trkpt>
      <trkpt lat="43.8011" lon="3.68427">
        <ele>213.07</ele>
        <time>2016-01-17T10:41:35Z</time>
      </trkpt>
      <trkpt lat="43.80112" lon="3.68411">
        <ele>212.11</ele>
        <time>2016-01-17T10:41:44Z</time>
      </trkpt>
      <trkpt lat="43.80117" lon="3.68398">
        <ele>211.63</ele>
        <time>2016-01-17T10:41:53Z</time>
      </trkpt>
      <trkpt lat="43.80121" lon="3.68385">
        <ele>210.67</ele>
        <time>2016-01-17T10:42:02Z</time>
      </trkpt>
      <trkpt lat="43.80124" lon="3.68371">
        <ele>210.19</ele>
        <time>2016-01-17T10:42:10Z</time>
      </trkpt>
      <trkpt lat="43.80123" lon="3.68356">
        <ele>209.7</ele>
        <time>2016-01-17T10:42:19Z</time>
      </trkpt>
      <trkpt lat="43.80124" lon="3.68341">
        <ele>209.7</ele>
        <time>2016-01-17T10:42:30Z</time>
      </trkpt>
      <trkpt lat="43.80125" lon="3.68325">
        <ele>209.22</ele>
        <time>2016-01-17T10:42:39Z</time>
      </trkpt>
      <trkpt lat="43.80126" lon="3.68311">
        <ele>208.74</ele>
        <time>2016-01-17T10:42:47Z</time>
      </trkpt>
      <trkpt lat="43.80126" lon="3.68295">
        <ele>208.26</ele>
        <time>2016-01-17T10:42:58Z</time>
      </trkpt>
      <trkpt lat="43.80125" lon="3.68277">
        <ele>208.26</ele>
        <time>2016-01-17T10:43:08Z</time>
      </trkpt>
      <trkpt lat="43.80122" lon="3.68263">
        <ele>208.26</ele>
        <time>2016-01-17T10:43:18Z</time>
      </trkpt>
      <trkpt lat="43.80119" lon="3.68246">
        <ele>207.78</ele>
        <time>2016-01-17T10:45:54Z</time>
      </trkpt>
      <trkpt lat="43.80117" lon="3.6823">
        <ele>207.3</ele>
        <time>2016-01-17T10:46:07Z</time>
      </trkpt>
      <trkpt lat="43.80115" lon="3.68215">
        <ele>206.82</ele>
        <time>2016-01-17T10:46:16Z</time>
      </trkpt>
      <trkpt lat="43.80115" lon="3.682">
        <ele>205.86</ele>
        <time>2016-01-17T10:46:25Z</time>
      </trkpt>
      <trkpt lat="43.80112" lon="3.68183">
        <ele>204.9</ele>
        <time>2016-01-17T10:46:35Z</time>
      </trkpt>
      <trkpt lat="43.80109" lon="3.68167">
        <ele>203.94</ele>
        <time>2016-01-17T10:46:45Z</time>
      </trkpt>
      <trkpt lat="43.80107" lon="3.68153">
        <ele>203.46</ele>
        <time>2016-01-17T10:46:54Z</time>
      </trkpt>
      <trkpt lat="43.80105" lon="3.68136">
        <ele>203.46</ele>
        <time>2016-01-17T10:47:03Z</time>
      </trkpt>
      <trkpt lat="43.80103" lon="3.68119">
        <ele>202.98</ele>
        <time>2016-01-17T10:47:15Z</time>
      </trkpt>
      <trkpt lat="43.80101" lon="3.68104">
        <ele>203.46</ele>
        <time>2016-01-17T10:47:24Z</time>
      </trkpt>
      <trkpt lat="43.80101" lon="3.68087">
        <ele>203.46</ele>
        <time>2016-01-17T10:47:34Z</time>
      </trkpt>
      <trkpt lat="43.80102" lon="3.68066">
        <ele>203.94</ele>
        <time>2016-01-17T10:47:45Z</time>
      </trkpt>
      <trkpt lat="43.80103" lon="3.68049">
        <ele>203.94</ele>
        <time>2016-01-17T10:47:55Z</time>
      </trkpt>
      <trkpt lat="43.80103" lon="3.68031">
        <ele>204.42</ele>
        <time>2016-01-17T10:48:07Z</time>
      </trkpt>
      <trkpt lat="43.80105" lon="3.68013">
        <ele>204.9</ele>
        <time>2016-01-17T10:48:17Z</time>
      </trkpt>
      <trkpt lat="43.80107" lon="3.67996">
        <ele>205.38</ele>
        <time>2016-01-17T10:48:28Z</time>
      </trkpt>
      <trkpt lat="43.80109" lon="3.67981">
        <ele>205.86</ele>
        <time>2016-01-17T10:48:39Z</time>
      </trkpt>
      <trkpt lat="43.80112" lon="3.67965">
        <ele>205.86</ele>
        <time>2016-01-17T10:48:50Z</time>
      </trkpt>
      <trkpt lat="43.80113" lon="3.67949">
        <ele>206.34</ele>
        <time>2016-01-17T10:49:00Z</time>
      </trkpt>
      <trkpt lat="43.80114" lon="3.67933">
        <ele>206.82</ele>
        <time>2016-01-17T10:49:10Z</time>
      </trkpt>
      <trkpt lat="43.80111" lon="3.67916">
        <ele>207.3</ele>
        <time>2016-01-17T10:49:22Z</time>
      </trkpt>
      <trkpt lat="43.80107" lon="3.67899">
        <ele>207.78</ele>
        <time>2016-01-17T10:49:33Z</time>
      </trkpt>
      <trkpt lat="43.80105" lon="3.67883">
        <ele>207.78</ele>
        <time>2016-01-17T10:49:43Z</time>
      </trkpt>
      <trkpt lat="43.80103" lon="3.67868">
        <ele>208.26</ele>
        <time>2016-01-17T10:49:53Z</time>
      </trkpt>
      <trkpt lat="43.801" lon="3.67854">
        <ele>208.74</ele>
        <time>2016-01-17T10:50:01Z</time>
      </trkpt>
      <trkpt lat="43.80097" lon="3.67836">
        <ele>209.7</ele>
        <time>2016-01-17T10:50:12Z</time>
      </trkpt>
      <trkpt lat="43.80095" lon="3.6782">
        <ele>210.19</ele>
        <time>2016-01-17T10:50:23Z</time>
      </trkpt>
      <trkpt lat="43.80092" lon="3.67805">
        <ele>210.19</ele>
        <time>2016-01-17T10:50:33Z</time>
      </trkpt>
      <trkpt lat="43.8009" lon="3.6779">
        <ele>210.67</ele>
        <time>2016-01-17T10:50:44Z</time>
      </trkpt>
      <trkpt lat="43.80088" lon="3.67771">
        <ele>211.63</ele>
        <time>2016-01-17T10:50:57Z</time>
      </trkpt>
      <trkpt lat="43.80086" lon="3.67753">
        <ele>212.11</ele>
        <time>2016-01-17T10:51:09Z</time>
      </trkpt>
      <trkpt lat="43.80087" lon="3.67734">
        <ele>212.59</ele>
        <time>2016-01-17T10:51:21Z</time>
      </trkpt>
      <trkpt lat="43.80084" lon="3.67718">
        <ele>213.07</ele>
        <time>2016-01-17T10:51:34Z</time>
      </trkpt>
      <trkpt lat="43.80082" lon="3.67695">
        <ele>214.03</ele>
        <time>2016-01-17T10:51:45Z</time>
      </trkpt>
      <trkpt lat="43.80075" lon="3.67682">
        <ele>214.51</ele>
        <time>2016-01-17T10:51:56Z</time>
      </trkpt>
      <trkpt lat="43.80071" lon="3.67669">
        <ele>215.47</ele>
        <time>2016-01-17T10:52:07Z</time>
      </trkpt>
      <trkpt lat="43.80066" lon="3.67654">
        <ele>215.95</ele>
        <time>2016-01-17T10:52:18Z</time>
      </trkpt>
      <trkpt lat="43.8006" lon="3.6764">
        <ele>216.91</ele>
        <time>2016-01-17T10:52:29Z</time>
      </trkpt>
      <trkpt lat="43.80053" lon="3.67625">
        <ele>216.91</ele>
        <time>2016-01-17T10:52:38Z</time>
      </trkpt>
      <trkpt lat="43.80045" lon="3.67618">
        <ele>216.91</ele>
        <time>2016-01-17T10:52:48Z</time>
      </trkpt>
      <trkpt lat="43.80037" lon="3.6761">
        <ele>217.88</ele>
        <time>2016-01-17T10:52:58Z</time>
      </trkpt>
      <trkpt lat="43.80028" lon="3.67602">
        <ele>218.36</ele>
        <time>2016-01-17T10:53:11Z</time>
      </trkpt>
      <trkpt lat="43.80017" lon="3.67596">
        <ele>219.32</ele>
        <time>2016-01-17T10:54:00Z</time>
      </trkpt>
      <trkpt lat="43.80007" lon="3.67591">
        <ele>219.32</ele>
        <time>2016-01-17T10:54:09Z</time>
      </trkpt>
      <trkpt lat="43.79997" lon="3.67586">
        <ele>219.8</ele>
        <time>2016-01-17T10:54:18Z</time>
      </trkpt>
      <trkpt lat="43.79988" lon="3.67579">
        <ele>220.76</ele>
        <time>2016-01-17T10:54:26Z</time>
      </trkpt>
      <trkpt lat="43.7998" lon="3.67572">
        <ele>220.76</ele>
        <time>2016-01-17T10:54:34Z</time>
      </trkpt>
      <trkpt lat="43.79971" lon="3.67567">
        <ele>221.24</ele>
        <time>2016-01-17T10:54:42Z</time>
      </trkpt>
      <trkpt lat="43.79962" lon="3.67565">
        <ele>221.24</ele>
        <time>2016-01-17T10:54:50Z</time>
      </trkpt>
      <trkpt lat="43.79951" lon="3.67564">
        <ele>221.24</ele>
        <time>2016-01-17T10:54:59Z</time>
      </trkpt>
      <trkpt lat="43.79942" lon="3.67564">
        <ele>221.72</ele>
        <time>2016-01-17T10:55:07Z</time>
      </trkpt>
      <trkpt lat="43.79932" lon="3.67563">
        <ele>221.72</ele>
        <time>2016-01-17T10:55:15Z</time>
      </trkpt>
      <trkpt lat="43.79922" lon="3.67561">
        <ele>221.72</ele>
        <time>2016-01-17T10:55:23Z</time>
      </trkpt>
      <trkpt lat="43.79913" lon="3.67558">
        <ele>222.2</ele>
        <time>2016-01-17T10:55:30Z</time>
      </trkpt>
      <trkpt lat="43.79904" lon="3.67555">
        <ele>221.72</ele>
        <time>2016-01-17T10:55:38Z</time>
      </trkpt>
      <trkpt lat="43.79893" lon="3.67551">
        <ele>221.72</ele>
        <time>2016-01-17T10:55:46Z</time>
      </trkpt>
      <trkpt lat="43.79884" lon="3.67547">
        <ele>221.24</ele>
        <time>2016-01-17T10:55:54Z</time>
      </trkpt>
      <trkpt lat="43.79875" lon="3.67541">
        <ele>221.24</ele>
        <time>2016-01-17T10:56:02Z</time>
      </trkpt>
      <trkpt lat="43.79866" lon="3.67534">
        <ele>220.28</ele>
        <time>2016-01-17T10:56:10Z</time>
      </trkpt>
      <trkpt lat="43.79857" lon="3.67528">
        <ele>220.28</ele>
        <time>2016-01-17T10:56:17Z</time>
      </trkpt>
      <trkpt lat="43.79849" lon="3.67523">
        <ele>219.8</ele>
        <time>2016-01-17T10:56:24Z</time>
      </trkpt>
      <trkpt lat="43.79839" lon="3.67519">
        <ele>219.32</ele>
        <time>2016-01-17T10:56:32Z</time>
      </trkpt>
      <trkpt lat="43.7983" lon="3.67514">
        <ele>218.84</ele>
        <time>2016-01-17T10:56:39Z</time>
      </trkpt>
      <trkpt lat="43.79822" lon="3.67508">
        <ele>217.88</ele>
        <time>2016-01-17T10:56:46Z</time>
      </trkpt>
      <trkpt lat="43.79813" lon="3.67504">
        <ele>217.4</ele>
        <time>2016-01-17T10:56:53Z</time>
      </trkpt>
      <trkpt lat="43.79803" lon="3.67501">
        <ele>217.4</ele>
        <time>2016-01-17T10:57:01Z</time>
      </trkpt>
      <trkpt lat="43.79793" lon="3.67498">
        <ele>216.91</ele>
        <time>2016-01-17T10:57:09Z</time>
      </trkpt>
      <trkpt lat="43.79784" lon="3.67495">
        <ele>215.95</ele>
        <time>2016-01-17T10:57:17Z</time>
      </trkpt>
      <trkpt lat="43.79774" lon="3.67492">
        <ele>215.47</ele>
        <time>2016-01-17T10:57:25Z</time>
      </trkpt>
      <trkpt lat="43.79764" lon="3.67491">
        <ele>214.51</ele>
        <time>2016-01-17T10:57:32Z</time>
      </trkpt>
      <trkpt lat="43.79754" lon="3.6749">
        <ele>214.03</ele>
        <time>2016-01-17T10:57:40Z</time>
      </trkpt>
      <trkpt lat="43.79745" lon="3.67493">
        <ele>213.55</ele>
        <time>2016-01-17T10:58:03Z</time>
      </trkpt>
      <trkpt lat="43.79736" lon="3.67497">
        <ele>212.59</ele>
        <time>2016-01-17T10:58:12Z</time>
      </trkpt>
      <trkpt lat="43.79725" lon="3.67503">
        <ele>212.11</ele>
        <time>2016-01-17T10:58:22Z</time>
      </trkpt>
      <trkpt lat="43.79716" lon="3.67509">
        <ele>212.11</ele>
        <time>2016-01-17T10:58:30Z</time>
      </trkpt>
      <trkpt lat="43.79707" lon="3.67516">
        <ele>211.63</ele>
        <time>2016-01-17T10:58:40Z</time>
      </trkpt>
      <trkpt lat="43.79697" lon="3.67526">
        <ele>211.63</ele>
        <time>2016-01-17T10:58:51Z</time>
      </trkpt>
      <trkpt lat="43.79688" lon="3.67535">
        <ele>211.15</ele>
        <time>2016-01-17T10:58:59Z</time>
      </trkpt>
      <trkpt lat="43.79678" lon="3.67546">
        <ele>211.15</ele>
        <time>2016-01-17T10:59:09Z</time>
      </trkpt>
      <trkpt lat="43.7967" lon="3.6756">
        <ele>211.15</ele>
        <time>2016-01-17T10:59:21Z</time>
      </trkpt>
      <trkpt lat="43.79662" lon="3.67572">
        <ele>211.15</ele>
        <time>2016-01-17T10:59:31Z</time>
      </trkpt>
      <trkpt lat="43.79653" lon="3.67582">
        <ele>211.15</ele>
        <time>2016-01-17T10:59:43Z</time>
      </trkpt>
      <trkpt lat="43.79646" lon="3.67596">
        <ele>211.15</ele>
        <time>2016-01-17T10:59:54Z</time>
      </trkpt>
      <trkpt lat="43.79638" lon="3.67608">
        <ele>211.15</ele>
        <time>2016-01-17T11:00:09Z</time>
      </trkpt>
      <trkpt lat="43.79635" lon="3.67621">
        <ele>210.67</ele>
        <time>2016-01-17T11:00:18Z</time>
      </trkpt>
      <trkpt lat="43.79631" lon="3.67634">
        <ele>210.67</ele>
        <time>2016-01-17T11:00:28Z</time>
      </trkpt>
      <trkpt lat="43.7962" lon="3.67635">
        <ele>210.19</ele>
        <time>2016-01-17T11:00:50Z</time>
      </trkpt>
      <trkpt lat="43.79607" lon="3.67636">
        <ele>210.19</ele>
        <time>2016-01-17T11:01:28Z</time>
      </trkpt>
      <trkpt lat="43.796" lon="3.67627">
        <ele>210.67</ele>
        <time>2016-01-17T11:01:50Z</time>
      </trkpt>
      <trkpt lat="43.79596" lon="3.67625">
        <ele>209.7</ele>
        <time>2016-01-17T11:02:14Z</time>
      </trkpt>
      <trkpt lat="43.79587" lon="3.67626">
        <ele>209.7</ele>
        <time>2016-01-17T11:02:48Z</time>
      </trkpt>
      <trkpt lat="43.79576" lon="3.67625">
        <ele>209.22</ele>
        <time>2016-01-17T11:03:07Z</time>
      </trkpt>
      <trkpt lat="43.79564" lon="3.6763">
        <ele>208.74</ele>
        <time>2016-01-17T11:03:18Z</time>
      </trkpt>
      <trkpt lat="43.79555" lon="3.67631">
        <ele>208.26</ele>
        <time>2016-01-17T11:03:27Z</time>
      </trkpt>
      <trkpt lat="43.79544" lon="3.67635">
        <ele>207.78</ele>
        <time>2016-01-17T11:03:37Z</time>
      </trkpt>
      <trkpt lat="43.79534" lon="3.67639">
        <ele>207.3</ele>
        <time>2016-01-17T11:03:50Z</time>
      </trkpt>
      <trkpt lat="43.79522" lon="3.67643">
        <ele>206.82</ele>
        <time>2016-01-17T11:04:01Z</time>
      </trkpt>
      <trkpt lat="43.79511" lon="3.67645">
        <ele>206.34</ele>
        <time>2016-01-17T11:04:11Z</time>
      </trkpt>
      <trkpt lat="43.79499" lon="3.6765">
        <ele>205.38</ele>
        <time>2016-01-17T11:04:21Z</time>
      </trkpt>
      <trkpt lat="43.79489" lon="3.67652">
        <ele>204.9</ele>
        <time>2016-01-17T11:04:31Z</time>
      </trkpt>
      <trkpt lat="43.79477" lon="3.67653">
        <ele>205.38</ele>
        <time>2016-01-17T11:04:41Z</time>
      </trkpt>
      <trkpt lat="43.79466" lon="3.67655">
        <ele>204.9</ele>
        <time>2016-01-17T11:04:50Z</time>
      </trkpt>
      <trkpt lat="43.79454" lon="3.67653">
        <ele>203.94</ele>
        <time>2016-01-17T11:05:01Z</time>
      </trkpt>
      <trkpt lat="43.79443" lon="3.67653">
        <ele>203.94</ele>
        <time>2016-01-17T11:05:16Z</time>
      </trkpt>
      <trkpt lat="43.79433" lon="3.67657">
        <ele>202.49</ele>
        <time>2016-01-17T11:05:27Z</time>
      </trkpt>
      <trkpt lat="43.79426" lon="3.67669">
        <ele>200.57</ele>
        <time>2016-01-17T11:05:40Z</time>
      </trkpt>
      <trkpt lat="43.79428" lon="3.67683">
        <ele>199.13</ele>
        <time>2016-01-17T11:05:51Z</time>
      </trkpt>
      <trkpt lat="43.79431" lon="3.67695">
        <ele>197.21</ele>
        <time>2016-01-17T11:06:02Z</time>
      </trkpt>
      <trkpt lat="43.79431" lon="3.6771">
        <ele>197.69</ele>
        <time>2016-01-17T11:06:12Z</time>
      </trkpt>
      <trkpt lat="43.79428" lon="3.67725">
        <ele>196.25</ele>
        <time>2016-01-17T11:06:22Z</time>
      </trkpt>
      <trkpt lat="43.79427" lon="3.6774">
        <ele>195.77</ele>
        <time>2016-01-17T11:06:38Z</time>
      </trkpt>
      <trkpt lat="43.79422" lon="3.67752">
        <ele>195.77</ele>
        <time>2016-01-17T11:07:10Z</time>
      </trkpt>
      <trkpt lat="43.79416" lon="3.67764">
        <ele>195.77</ele>
        <time>2016-01-17T11:07:21Z</time>
      </trkpt>
      <trkpt lat="43.7941" lon="3.67773">
        <ele>196.73</ele>
        <time>2016-01-17T11:07:40Z</time>
      </trkpt>
      <trkpt lat="43.794" lon="3.67783">
        <ele>197.69</ele>
        <time>2016-01-17T11:07:52Z</time>
      </trkpt>
      <trkpt lat="43.79392" lon="3.67796">
        <ele>198.65</ele>
        <time>2016-01-17T11:08:03Z</time>
      </trkpt>
      <trkpt lat="43.79387" lon="3.67809">
        <ele>199.61</ele>
        <time>2016-01-17T11:08:13Z</time>
      </trkpt>
      <trkpt lat="43.7938" lon="3.67821">
        <ele>201.05</ele>
        <time>2016-01-17T11:08:25Z</time>
      </trkpt>
      <trkpt lat="43.79371" lon="3.6783">
        <ele>202.01</ele>
        <time>2016-01-17T11:08:40Z</time>
      </trkpt>
      <trkpt lat="43.79361" lon="3.6783">
        <ele>202.49</ele>
        <time>2016-01-17T11:08:50Z</time>
      </trkpt>
      <trkpt lat="43.7935" lon="3.67833">
        <ele>202.49</ele>
        <time>2016-01-17T11:09:00Z</time>
      </trkpt>
      <trkpt lat="43.7934" lon="3.67842">
        <ele>202.98</ele>
        <time>2016-01-17T11:09:10Z</time>
      </trkpt>
      <trkpt lat="43.79331" lon="3.67852">
        <ele>203.46</ele>
        <time>2016-01-17T11:09:19Z</time>
      </trkpt>
      <trkpt lat="43.79323" lon="3.67861">
        <ele>203.94</ele>
        <time>2016-01-17T11:09:27Z</time>
      </trkpt>
      <trkpt lat="43.79316" lon="3.67873">
        <ele>204.42</ele>
        <time>2016-01-17T11:09:36Z</time>
      </trkpt>
      <trkpt lat="43.79308" lon="3.67883">
        <ele>204.9</ele>
        <time>2016-01-17T11:09:45Z</time>
      </trkpt>
      <trkpt lat="43.79301" lon="3.67893">
        <ele>205.38</ele>
        <time>2016-01-17T11:09:54Z</time>
      </trkpt>
      <trkpt lat="43.79293" lon="3.67904">
        <ele>205.86</ele>
        <time>2016-01-17T11:10:03Z</time>
      </trkpt>
      <trkpt lat="43.79286" lon="3.67915">
        <ele>205.86</ele>
        <time>2016-01-17T11:10:12Z</time>
      </trkpt>
      <trkpt lat="43.79278" lon="3.67926">
        <ele>206.82</ele>
        <time>2016-01-17T11:10:21Z</time>
      </trkpt>
      <trkpt lat="43.79271" lon="3.67935">
        <ele>206.82</ele>
        <time>2016-01-17T11:10:29Z</time>
      </trkpt>
      <trkpt lat="43.79263" lon="3.67946">
        <ele>206.82</ele>
        <time>2016-01-17T11:10:39Z</time>
      </trkpt>
      <trkpt lat="43.79255" lon="3.67958">
        <ele>207.78</ele>
        <time>2016-01-17T11:10:49Z</time>
      </trkpt>
      <trkpt lat="43.79247" lon="3.67972">
        <ele>209.22</ele>
        <time>2016-01-17T11:11:00Z</time>
      </trkpt>
      <trkpt lat="43.79241" lon="3.67988">
        <ele>210.19</ele>
        <time>2016-01-17T11:11:10Z</time>
      </trkpt>
      <trkpt lat="43.79236" lon="3.68002">
        <ele>210.19</ele>
        <time>2016-01-17T11:11:19Z</time>
      </trkpt>
      <trkpt lat="43.79235" lon="3.68021">
        <ele>210.19</ele>
        <time>2016-01-17T11:11:30Z</time>
      </trkpt>
      <trkpt lat="43.79236" lon="3.68038">
        <ele>209.7</ele>
        <time>2016-01-17T11:11:51Z</time>
      </trkpt>
      <trkpt lat="43.79236" lon="3.68054">
        <ele>209.22</ele>
        <time>2016-01-17T11:12:00Z</time>
      </trkpt>
      <trkpt lat="43.79237" lon="3.68071">
        <ele>209.22</ele>
        <time>2016-01-17T11:12:09Z</time>
      </trkpt>
      <trkpt lat="43.79238" lon="3.68088">
        <ele>208.74</ele>
        <time>2016-01-17T11:12:18Z</time>
      </trkpt>
      <trkpt lat="43.7924" lon="3.68106">
        <ele>208.74</ele>
        <time>2016-01-17T11:12:28Z</time>
      </trkpt>
      <trkpt lat="43.79244" lon="3.68123">
        <ele>208.26</ele>
        <time>2016-01-17T11:12:38Z</time>
      </trkpt>
      <trkpt lat="43.79249" lon="3.68143">
        <ele>207.3</ele>
        <time>2016-01-17T11:12:51Z</time>
      </trkpt>
      <trkpt lat="43.79256" lon="3.68162">
        <ele>206.34</ele>
        <time>2016-01-17T11:13:04Z</time>
      </trkpt>
      <trkpt lat="43.79259" lon="3.68181">
        <ele>204.42</ele>
        <time>2016-01-17T11:13:16Z</time>
      </trkpt>
      <trkpt lat="43.79256" lon="3.68203">
        <ele>202.49</ele>
        <time>2016-01-17T11:13:30Z</time>
      </trkpt>
      <trkpt lat="43.79244" lon="3.68213">
        <ele>200.57</ele>
        <time>2016-01-17T11:13:44Z</time>
      </trkpt>
      <trkpt lat="43.79228" lon="3.68211">
        <ele>199.13</ele>
        <time>2016-01-17T11:13:56Z</time>
      </trkpt>
      <trkpt lat="43.79215" lon="3.68218">
        <ele>198.17</ele>
        <time>2016-01-17T11:14:05Z</time>
      </trkpt>
      <trkpt lat="43.79205" lon="3.68226">
        <ele>197.69</ele>
        <time>2016-01-17T11:14:13Z</time>
      </trkpt>
      <trkpt lat="43.79196" lon="3.68237">
        <ele>196.25</ele>
        <time>2016-01-17T11:14:22Z</time>
      </trkpt>
      <trkpt lat="43.79189" lon="3.68248">
        <ele>194.32</ele>
        <time>2016-01-17T11:14:31Z</time>
      </trkpt>
      <trkpt lat="43.79187" lon="3.68262">
        <ele>192.88</ele>
        <time>2016-01-17T11:14:40Z</time>
      </trkpt>
      <trkpt lat="43.79185" lon="3.68277">
        <ele>191.92</ele>
        <time>2016-01-17T11:14:49Z</time>
      </trkpt>
      <trkpt lat="43.79181" lon="3.68292">
        <ele>191.92</ele>
        <time>2016-01-17T11:14:59Z</time>
      </trkpt>
      <trkpt lat="43.79176" lon="3.68309">
        <ele>192.4</ele>
        <time>2016-01-17T11:15:11Z</time>
      </trkpt>
      <trkpt lat="43.79175" lon="3.68325">
        <ele>192.88</ele>
        <time>2016-01-17T11:15:21Z</time>
      </trkpt>
      <trkpt lat="43.79165" lon="3.6833">
        <ele>193.36</ele>
        <time>2016-01-17T11:15:32Z</time>
      </trkpt>
      <trkpt lat="43.79158" lon="3.68319">
        <ele>195.28</ele>
        <time>2016-01-17T11:15:43Z</time>
      </trkpt>
      <trkpt lat="43.79152" lon="3.68305">
        <ele>196.25</ele>
        <time>2016-01-17T11:15:52Z</time>
      </trkpt>
      <trkpt lat="43.79148" lon="3.6829">
        <ele>197.69</ele>
        <time>2016-01-17T11:16:02Z</time>
      </trkpt>
      <trkpt lat="43.79143" lon="3.68276">
        <ele>199.13</ele>
        <time>2016-01-17T11:16:13Z</time>
      </trkpt>
      <trkpt lat="43.79135" lon="3.68262">
        <ele>200.57</ele>
        <time>2016-01-17T11:16:24Z</time>
      </trkpt>
      <trkpt lat="43.79126" lon="3.6825">
        <ele>202.49</ele>
        <time>2016-01-17T11:16:36Z</time>
      </trkpt>
      <trkpt lat="43.79118" lon="3.68239">
        <ele>203.94</ele>
        <time>2016-01-17T11:16:47Z</time>
      </trkpt>
      <trkpt lat="43.79109" lon="3.68229">
        <ele>205.86</ele>
        <time>2016-01-17T11:16:57Z</time>
      </trkpt>
      <trkpt lat="43.79101" lon="3.68222">
        <ele>207.78</ele>
        <time>2016-01-17T11:17:07Z</time>
      </trkpt>
      <trkpt lat="43.79092" lon="3.68213">
        <ele>208.74</ele>
        <time>2016-01-17T11:17:17Z</time>
      </trkpt>
      <trkpt lat="43.79083" lon="3.68206">
        <ele>209.7</ele>
        <time>2016-01-17T11:17:27Z</time>
      </trkpt>
      <trkpt lat="43.79073" lon="3.682">
        <ele>211.15</ele>
        <time>2016-01-17T11:17:37Z</time>
      </trkpt>
      <trkpt lat="43.79063" lon="3.68194">
        <ele>211.63</ele>
        <time>2016-01-17T11:17:46Z</time>
      </trkpt>
      <trkpt lat="43.79054" lon="3.68186">
        <ele>212.59</ele>
        <time>2016-01-17T11:17:55Z</time>
      </trkpt>
      <trkpt lat="43.79046" lon="3.68178">
        <ele>213.07</ele>
        <time>2016-01-17T11:18:04Z</time>
      </trkpt>
      <trkpt lat="43.79039" lon="3.68167">
        <ele>214.03</ele>
        <time>2016-01-17T11:18:12Z</time>
      </trkpt>
      <trkpt lat="43.7903" lon="3.68157">
        <ele>214.51</ele>
        <time>2016-01-17T11:18:21Z</time>
      </trkpt>
      <trkpt lat="43.79022" lon="3.68149">
        <ele>214.99</ele>
        <time>2016-01-17T11:18:29Z</time>
      </trkpt>
      <trkpt lat="43.79012" lon="3.68141">
        <ele>215.95</ele>
        <time>2016-01-17T11:18:39Z</time>
      </trkpt>
      <trkpt lat="43.79001" lon="3.68134">
        <ele>216.91</ele>
        <time>2016-01-17T11:18:49Z</time>
      </trkpt>
      <trkpt lat="43.7899" lon="3.68129">
        <ele>217.88</ele>
        <time>2016-01-17T11:18:59Z</time>
      </trkpt>
      <trkpt lat="43.78981" lon="3.68122">
        <ele>218.36</ele>
        <time>2016-01-17T11:19:08Z</time>
      </trkpt>
      <trkpt lat="43.78971" lon="3.68112">
        <ele>218.36</ele>
        <time>2016-01-17T11:19:17Z</time>
      </trkpt>
      <trkpt lat="43.78961" lon="3.68106">
        <ele>218.84</ele>
        <time>2016-01-17T11:19:26Z</time>
      </trkpt>
      <trkpt lat="43.78951" lon="3.68102">
        <ele>219.32</ele>
        <time>2016-01-17T11:19:35Z</time>
      </trkpt>
      <trkpt lat="43.78953" lon="3.68113">
        <ele>220.28</ele>
        <time>2016-01-17T11:19:46Z</time>
      </trkpt>
      <trkpt lat="43.78962" lon="3.68121">
        <ele>221.72</ele>
        <time>2016-01-17T11:19:55Z</time>
      </trkpt>
      <trkpt lat="43.78969" lon="3.68128">
        <ele>221.72</ele>
        <time>2016-01-17T11:20:03Z</time>
      </trkpt>
      <trkpt lat="43.78978" lon="3.68135">
        <ele>222.68</ele>
        <time>2016-01-17T11:20:12Z</time>
      </trkpt>
      <trkpt lat="43.78985" lon="3.68144">
        <ele>223.64</ele>
        <time>2016-01-17T11:20:21Z</time>
      </trkpt>
      <trkpt lat="43.78993" lon="3.68158">
        <ele>224.61</ele>
        <time>2016-01-17T11:20:50Z</time>
      </trkpt>
      <trkpt lat="43.78999" lon="3.6817">
        <ele>225.09</ele>
        <time>2016-01-17T11:20:58Z</time>
      </trkpt>
      <trkpt lat="43.79006" lon="3.68183">
        <ele>226.53</ele>
        <time>2016-01-17T11:21:07Z</time>
      </trkpt>
      <trkpt lat="43.79011" lon="3.68197">
        <ele>227.49</ele>
        <time>2016-01-17T11:21:16Z</time>
      </trkpt>
      <trkpt lat="43.79016" lon="3.6821">
        <ele>228.45</ele>
        <time>2016-01-17T11:21:25Z</time>
      </trkpt>
      <trkpt lat="43.79023" lon="3.68223">
        <ele>229.41</ele>
        <time>2016-01-17T11:21:34Z</time>
      </trkpt>
      <trkpt lat="43.79029" lon="3.68237">
        <ele>229.89</ele>
        <time>2016-01-17T11:21:43Z</time>
      </trkpt>
      <trkpt lat="43.79035" lon="3.68251">
        <ele>231.33</ele>
        <time>2016-01-17T11:21:53Z</time>
      </trkpt>
      <trkpt lat="43.79041" lon="3.68263">
        <ele>231.81</ele>
        <time>2016-01-17T11:22:01Z</time>
      </trkpt>
      <trkpt lat="43.79046" lon="3.68276">
        <ele>232.78</ele>
        <time>2016-01-17T11:22:09Z</time>
      </trkpt>
      <trkpt lat="43.79049" lon="3.6829">
        <ele>233.74</ele>
        <time>2016-01-17T11:22:18Z</time>
      </trkpt>
      <trkpt lat="43.79053" lon="3.68305">
        <ele>234.22</ele>
        <time>2016-01-17T11:22:27Z</time>
      </trkpt>
      <trkpt lat="43.79057" lon="3.68318">
        <ele>234.7</ele>
        <time>2016-01-17T11:22:36Z</time>
      </trkpt>
      <trkpt lat="43.79061" lon="3.68332">
        <ele>235.66</ele>
        <time>2016-01-17T11:22:45Z</time>
      </trkpt>
      <trkpt lat="43.79062" lon="3.68348">
        <ele>235.18</ele>
        <time>2016-01-17T11:22:55Z</time>
      </trkpt>
      <trkpt lat="43.79064" lon="3.68363">
        <ele>235.18</ele>
        <time>2016-01-17T11:23:04Z</time>
      </trkpt>
      <trkpt lat="43.79067" lon="3.68379">
        <ele>235.18</ele>
        <time>2016-01-17T11:23:13Z</time>
      </trkpt>
      <trkpt lat="43.79068" lon="3.68395">
        <ele>235.18</ele>
        <time>2016-01-17T11:23:23Z</time>
      </trkpt>
      <trkpt lat="43.79069" lon="3.68415">
        <ele>235.66</ele>
        <time>2016-01-17T11:23:34Z</time>
      </trkpt>
      <trkpt lat="43.79067" lon="3.68433">
        <ele>236.62</ele>
        <time>2016-01-17T11:23:44Z</time>
      </trkpt>
      <trkpt lat="43.79063" lon="3.68447">
        <ele>238.06</ele>
        <time>2016-01-17T11:23:53Z</time>
      </trkpt>
      <trkpt lat="43.79058" lon="3.68462">
        <ele>239.02</ele>
        <time>2016-01-17T11:24:04Z</time>
      </trkpt>
      <trkpt lat="43.79051" lon="3.68476">
        <ele>240.47</ele>
        <time>2016-01-17T11:24:14Z</time>
      </trkpt>
      <trkpt lat="43.79041" lon="3.68489">
        <ele>241.91</ele>
        <time>2016-01-17T11:24:26Z</time>
      </trkpt>
      <trkpt lat="43.79033" lon="3.68502">
        <ele>243.83</ele>
        <time>2016-01-17T11:24:38Z</time>
      </trkpt>
      <trkpt lat="43.79023" lon="3.68516">
        <ele>244.79</ele>
        <time>2016-01-17T11:24:49Z</time>
      </trkpt>
      <trkpt lat="43.79015" lon="3.68527">
        <ele>246.23</ele>
        <time>2016-01-17T11:24:59Z</time>
      </trkpt>
      <trkpt lat="43.79004" lon="3.68541">
        <ele>247.68</ele>
        <time>2016-01-17T11:25:10Z</time>
      </trkpt>
      <trkpt lat="43.78996" lon="3.68551">
        <ele>249.12</ele>
        <time>2016-01-17T11:25:21Z</time>
      </trkpt>
      <trkpt lat="43.78987" lon="3.68559">
        <ele>250.08</ele>
        <time>2016-01-17T11:25:31Z</time>
      </trkpt>
      <trkpt lat="43.78975" lon="3.68569">
        <ele>251.52</ele>
        <time>2016-01-17T11:25:42Z</time>
      </trkpt>
      <trkpt lat="43.78965" lon="3.68575">
        <ele>252.96</ele>
        <time>2016-01-17T11:25:52Z</time>
      </trkpt>
      <trkpt lat="43.78959" lon="3.68592">
        <ele>254.89</ele>
        <time>2016-01-17T11:26:05Z</time>
      </trkpt>
      <trkpt lat="43.78959" lon="3.68606">
        <ele>255.37</ele>
        <time>2016-01-17T11:26:15Z</time>
      </trkpt>
      <trkpt lat="43.78954" lon="3.68619">
        <ele>256.33</ele>
        <time>2016-01-17T11:26:26Z</time>
      </trkpt>
      <trkpt lat="43.78951" lon="3.68634">
        <ele>257.29</ele>
        <time>2016-01-17T11:26:38Z</time>
      </trkpt>
      <trkpt lat="43.78944" lon="3.68651">
        <ele>258.25</ele>
        <time>2016-01-17T11:26:48Z</time>
      </trkpt>
      <trkpt lat="43.78938" lon="3.68667">
        <ele>259.21</ele>
        <time>2016-01-17T11:26:57Z</time>
      </trkpt>
      <trkpt lat="43.78932" lon="3.68679">
        <ele>259.69</ele>
        <time>2016-01-17T11:27:06Z</time>
      </trkpt>
      <trkpt lat="43.78925" lon="3.68694">
        <ele>260.65</ele>
        <time>2016-01-17T11:27:17Z</time>
      </trkpt>
      <trkpt lat="43.78919" lon="3.68709">
        <ele>262.1</ele>
        <time>2016-01-17T11:27:28Z</time>
      </trkpt>
      <trkpt lat="43.78913" lon="3.68724">
        <ele>262.58</ele>
        <time>2016-01-17T11:27:37Z</time>
      </trkpt>
      <trkpt lat="43.78908" lon="3.68739">
        <ele>264.02</ele>
        <time>2016-01-17T11:27:49Z</time>
      </trkpt>
      <trkpt lat="43.78903" lon="3.68754">
        <ele>264.98</ele>
        <time>2016-01-17T11:28:00Z</time>
      </trkpt>
      <trkpt lat="43.78897" lon="3.68771">
        <ele>265.46</ele>
        <time>2016-01-17T11:28:10Z</time>
      </trkpt>
      <trkpt lat="43.7889" lon="3.68787">
        <ele>265.94</ele>
        <time>2016-01-17T11:28:19Z</time>
      </trkpt>
      <trkpt lat="43.78884" lon="3.68804">
        <ele>266.42</ele>
        <time>2016-01-17T11:28:29Z</time>
      </trkpt>
      <trkpt lat="43.78879" lon="3.68819">
        <ele>265.94</ele>
        <time>2016-01-17T11:28:38Z</time>
      </trkpt>
      <trkpt lat="43.78873" lon="3.6883">
        <ele>265.46</ele>
        <time>2016-01-17T11:28:46Z</time>
      </trkpt>
      <trkpt lat="43.78867" lon="3.68845">
        <ele>264.98</ele>
        <time>2016-01-17T11:28:55Z</time>
      </trkpt>
      <trkpt lat="43.78861" lon="3.68861">
        <ele>264.5</ele>
        <time>2016-01-17T11:29:06Z</time>
      </trkpt>
      <trkpt lat="43.78857" lon="3.6888">
        <ele>264.02</ele>
        <time>2016-01-17T11:29:16Z</time>
      </trkpt>
      <trkpt lat="43.78852" lon="3.68896">
        <ele>263.54</ele>
        <time>2016-01-17T11:29:25Z</time>
      </trkpt>
      <trkpt lat="43.78844" lon="3.68911">
        <ele>263.54</ele>
        <time>2016-01-17T11:29:35Z</time>
      </trkpt>
      <trkpt lat="43.78838" lon="3.68924">
        <ele>263.54</ele>
        <time>2016-01-17T11:29:44Z</time>
      </trkpt>
      <trkpt lat="43.78829" lon="3.68934">
        <ele>263.54</ele>
        <time>2016-01-17T11:29:53Z</time>
      </trkpt>
      <trkpt lat="43.7882" lon="3.68943">
        <ele>264.02</ele>
        <time>2016-01-17T11:30:02Z</time>
      </trkpt>
      <trkpt lat="43.78812" lon="3.68952">
        <ele>264.02</ele>
        <time>2016-01-17T11:30:12Z</time>
      </trkpt>
      <trkpt lat="43.78801" lon="3.68958">
        <ele>264.98</ele>
        <time>2016-01-17T11:30:43Z</time>
      </trkpt>
      <trkpt lat="43.78789" lon="3.68948">
        <ele>267.86</ele>
        <time>2016-01-17T11:31:01Z</time>
      </trkpt>
      <trkpt lat="43.78788" lon="3.6893">
        <ele>270.27</ele>
        <time>2016-01-17T11:31:16Z</time>
      </trkpt>
      <trkpt lat="43.78791" lon="3.68912">
        <ele>273.63</ele>
        <time>2016-01-17T11:31:35Z</time>
      </trkpt>
      <trkpt lat="43.78798" lon="3.68894">
        <ele>276.52</ele>
        <time>2016-01-17T11:32:01Z</time>
      </trkpt>
      <trkpt lat="43.78804" lon="3.68881">
        <ele>279.4</ele>
        <time>2016-01-17T11:32:17Z</time>
      </trkpt>
      <trkpt lat="43.78808" lon="3.68863">
        <ele>282.28</ele>
        <time>2016-01-17T11:32:33Z</time>
      </trkpt>
      <trkpt lat="43.78812" lon="3.68843">
        <ele>284.21</ele>
        <time>2016-01-17T11:32:50Z</time>
      </trkpt>
      <trkpt lat="43.78815" lon="3.68825">
        <ele>286.61</ele>
        <time>2016-01-17T11:33:05Z</time>
      </trkpt>
      <trkpt lat="43.78816" lon="3.68804">
        <ele>289.49</ele>
        <time>2016-01-17T11:33:21Z</time>
      </trkpt>
      <trkpt lat="43.78817" lon="3.68787">
        <ele>292.38</ele>
        <time>2016-01-17T11:33:37Z</time>
      </trkpt>
      <trkpt lat="43.78823" lon="3.68769">
        <ele>294.3</ele>
        <time>2016-01-17T11:33:54Z</time>
      </trkpt>
      <trkpt lat="43.7883" lon="3.68756">
        <ele>294.3</ele>
        <time>2016-01-17T11:34:06Z</time>
      </trkpt>
      <trkpt lat="43.78834" lon="3.68738">
        <ele>296.22</ele>
        <time>2016-01-17T11:34:22Z</time>
      </trkpt>
      <trkpt lat="43.78826" lon="3.68737">
        <ele>299.59</ele>
        <time>2016-01-17T11:34:40Z</time>
      </trkpt>
      <trkpt lat="43.78818" lon="3.68729">
        <ele>302.47</ele>
        <time>2016-01-17T11:34:58Z</time>
      </trkpt>
      <trkpt lat="43.78813" lon="3.68714">
        <ele>304.88</ele>
        <time>2016-01-17T11:35:14Z</time>
      </trkpt>
      <trkpt lat="43.78806" lon="3.68702">
        <ele>307.28</ele>
        <time>2016-01-17T11:35:30Z</time>
      </trkpt>
      <trkpt lat="43.78799" lon="3.68693">
        <ele>310.64</ele>
        <time>2016-01-17T11:36:07Z</time>
      </trkpt>
      <trkpt lat="43.78789" lon="3.68691">
        <ele>313.53</ele>
        <time>2016-01-17T11:36:22Z</time>
      </trkpt>
      <trkpt lat="43.78778" lon="3.6869">
        <ele>317.85</ele>
        <time>2016-01-17T11:36:45Z</time>
      </trkpt>
      <trkpt lat="43.78764" lon="3.68677">
        <ele>321.22</ele>
        <time>2016-01-17T11:37:07Z</time>
      </trkpt>
      <trkpt lat="43.78752" lon="3.68671">
        <ele>325.54</ele>
        <time>2016-01-17T11:37:28Z</time>
      </trkpt>
      <trkpt lat="43.78741" lon="3.6866">
        <ele>328.43</ele>
        <time>2016-01-17T11:37:48Z</time>
      </trkpt>
      <trkpt lat="43.78732" lon="3.68646">
        <ele>330.35</ele>
        <time>2016-01-17T11:38:04Z</time>
      </trkpt>
      <trkpt lat="43.78723" lon="3.68647">
        <ele>332.75</ele>
        <time>2016-01-17T11:38:18Z</time>
      </trkpt>
      <trkpt lat="43.78714" lon="3.68659">
        <ele>336.12</ele>
        <time>2016-01-17T11:38:35Z</time>
      </trkpt>
      <trkpt lat="43.78709" lon="3.6867">
        <ele>338.52</ele>
        <time>2016-01-17T11:39:01Z</time>
      </trkpt>
      <trkpt lat="43.78709" lon="3.68687">
        <ele>340.44</ele>
        <time>2016-01-17T11:39:17Z</time>
      </trkpt>
      <trkpt lat="43.787" lon="3.68702">
        <ele>344.77</ele>
        <time>2016-01-17T11:39:40Z</time>
      </trkpt>
      <trkpt lat="43.78689" lon="3.68701">
        <ele>347.17</ele>
        <time>2016-01-17T11:39:59Z</time>
      </trkpt>
      <trkpt lat="43.78678" lon="3.68695">
        <ele>350.06</ele>
        <time>2016-01-17T11:40:19Z</time>
      </trkpt>
      <trkpt lat="43.78665" lon="3.68696">
        <ele>353.42</ele>
        <time>2016-01-17T11:40:40Z</time>
      </trkpt>
      <trkpt lat="43.78654" lon="3.68702">
        <ele>356.31</ele>
        <time>2016-01-17T11:40:58Z</time>
      </trkpt>
      <trkpt lat="43.78644" lon="3.68706">
        <ele>358.71</ele>
        <time>2016-01-17T11:41:16Z</time>
      </trkpt>
      <trkpt lat="43.78632" lon="3.68711">
        <ele>360.15</ele>
        <time>2016-01-17T11:42:06Z</time>
      </trkpt>
      <trkpt lat="43.78623" lon="3.68719">
        <ele>362.07</ele>
        <time>2016-01-17T11:42:20Z</time>
      </trkpt>
      <trkpt lat="43.78614" lon="3.68724">
        <ele>364</ele>
        <time>2016-01-17T11:42:34Z</time>
      </trkpt>
      <trkpt lat="43.78604" lon="3.6873">
        <ele>364.96</ele>
        <time>2016-01-17T11:42:47Z</time>
      </trkpt>
      <trkpt lat="43.78594" lon="3.68734">
        <ele>366.4</ele>
        <time>2016-01-17T11:42:58Z</time>
      </trkpt>
      <trkpt lat="43.78585" lon="3.68741">
        <ele>367.36</ele>
        <time>2016-01-17T11:43:09Z</time>
      </trkpt>
      <trkpt lat="43.78576" lon="3.68746">
        <ele>368.8</ele>
        <time>2016-01-17T11:43:21Z</time>
      </trkpt>
      <trkpt lat="43.78565" lon="3.68751">
        <ele>369.76</ele>
        <time>2016-01-17T11:43:33Z</time>
      </trkpt>
      <trkpt lat="43.78555" lon="3.68753">
        <ele>371.21</ele>
        <time>2016-01-17T11:43:44Z</time>
      </trkpt>
      <trkpt lat="43.78544" lon="3.68755">
        <ele>372.17</ele>
        <time>2016-01-17T11:43:56Z</time>
      </trkpt>
      <trkpt lat="43.78533" lon="3.68756">
        <ele>373.13</ele>
        <time>2016-01-17T11:44:08Z</time>
      </trkpt>
      <trkpt lat="43.78523" lon="3.68759">
        <ele>374.09</ele>
        <time>2016-01-17T11:44:20Z</time>
      </trkpt>
      <trkpt lat="43.78514" lon="3.68766">
        <ele>375.05</ele>
        <time>2016-01-17T11:44:35Z</time>
      </trkpt>
      <trkpt lat="43.78509" lon="3.6877">
        <ele>375.53</ele>
        <time>2016-01-17T11:46:12Z</time>
      </trkpt>
      <trkpt lat="43.785" lon="3.68774">
        <ele>376.01</ele>
        <time>2016-01-17T11:47:14Z</time>
      </trkpt>
      <trkpt lat="43.78491" lon="3.68778">
        <ele>376.01</ele>
        <time>2016-01-17T11:47:28Z</time>
      </trkpt>
      <trkpt lat="43.78481" lon="3.68772">
        <ele>376.97</ele>
        <time>2016-01-17T11:47:41Z</time>
      </trkpt>
      <trkpt lat="43.78469" lon="3.68767">
        <ele>377.94</ele>
        <time>2016-01-17T11:47:56Z</time>
      </trkpt>
      <trkpt lat="43.78459" lon="3.68758">
        <ele>378.9</ele>
        <time>2016-01-17T11:48:07Z</time>
      </trkpt>
      <trkpt lat="43.78448" lon="3.68746">
        <ele>379.86</ele>
        <time>2016-01-17T11:48:19Z</time>
      </trkpt>
      <trkpt lat="43.78439" lon="3.68738">
        <ele>380.34</ele>
        <time>2016-01-17T11:48:29Z</time>
      </trkpt>
      <trkpt lat="43.78429" lon="3.68735">
        <ele>381.78</ele>
        <time>2016-01-17T11:48:40Z</time>
      </trkpt>
      <trkpt lat="43.7842" lon="3.68726">
        <ele>382.74</ele>
        <time>2016-01-17T11:48:51Z</time>
      </trkpt>
      <trkpt lat="43.78411" lon="3.68719">
        <ele>384.18</ele>
        <time>2016-01-17T11:49:06Z</time>
      </trkpt>
      <trkpt lat="43.78401" lon="3.6871">
        <ele>385.15</ele>
        <time>2016-01-17T11:49:18Z</time>
      </trkpt>
      <trkpt lat="43.78392" lon="3.68701">
        <ele>386.59</ele>
        <time>2016-01-17T11:49:30Z</time>
      </trkpt>
      <trkpt lat="43.78384" lon="3.68694">
        <ele>387.07</ele>
        <time>2016-01-17T11:49:41Z</time>
      </trkpt>
      <trkpt lat="43.78375" lon="3.68685">
        <ele>388.03</ele>
        <time>2016-01-17T11:49:52Z</time>
      </trkpt>
      <trkpt lat="43.78366" lon="3.68678">
        <ele>388.99</ele>
        <time>2016-01-17T11:50:02Z</time>
      </trkpt>
      <trkpt lat="43.78357" lon="3.68672">
        <ele>389.47</ele>
        <time>2016-01-17T11:50:14Z</time>
      </trkpt>
      <trkpt lat="43.78349" lon="3.68666">
        <ele>389.95</ele>
        <time>2016-01-17T11:50:24Z</time>
      </trkpt>
      <trkpt lat="43.78338" lon="3.68665">
        <ele>390.43</ele>
        <time>2016-01-17T11:50:35Z</time>
      </trkpt>
      <trkpt lat="43.78328" lon="3.6866">
        <ele>390.43</ele>
        <time>2016-01-17T11:50:45Z</time>
      </trkpt>
      <trkpt lat="43.78317" lon="3.68657">
        <ele>389.95</ele>
        <time>2016-01-17T11:50:56Z</time>
      </trkpt>
      <trkpt lat="43.78307" lon="3.68654">
        <ele>389.47</ele>
        <time>2016-01-17T11:51:07Z</time>
      </trkpt>
      <trkpt lat="43.78296" lon="3.6865">
        <ele>388.99</ele>
        <time>2016-01-17T11:51:17Z</time>
      </trkpt>
      <trkpt lat="43.78284" lon="3.68649">
        <ele>389.47</ele>
        <time>2016-01-17T11:51:28Z</time>
      </trkpt>
      <trkpt lat="43.78273" lon="3.68646">
        <ele>389.47</ele>
        <time>2016-01-17T11:51:40Z</time>
      </trkpt>
      <trkpt lat="43.78262" lon="3.68642">
        <ele>390.43</ele>
        <time>2016-01-17T11:51:52Z</time>
      </trkpt>
      <trkpt lat="43.78251" lon="3.68635">
        <ele>390.43</ele>
        <time>2016-01-17T11:52:03Z</time>
      </trkpt>
      <trkpt lat="43.78242" lon="3.68629">
        <ele>391.39</ele>
        <time>2016-01-17T11:52:14Z</time>
      </trkpt>
      <trkpt lat="43.78233" lon="3.68624">
        <ele>391.87</ele>
        <time>2016-01-17T11:52:24Z</time>
      </trkpt>
      <trkpt lat="43.78225" lon="3.68615">
        <ele>392.84</ele>
        <time>2016-01-17T11:52:37Z</time>
      </trkpt>
      <trkpt lat="43.78217" lon="3.68606">
        <ele>393.32</ele>
        <time>2016-01-17T11:52:56Z</time>
      </trkpt>
      <trkpt lat="43.78207" lon="3.68598">
        <ele>393.8</ele>
        <time>2016-01-17T11:53:09Z</time>
      </trkpt>
      <trkpt lat="43.78197" lon="3.68595">
        <ele>394.28</ele>
        <time>2016-01-17T11:53:21Z</time>
      </trkpt>
      <trkpt lat="43.78187" lon="3.68594">
        <ele>395.24</ele>
        <time>2016-01-17T11:53:32Z</time>
      </trkpt>
      <trkpt lat="43.78177" lon="3.68596">
        <ele>395.72</ele>
        <time>2016-01-17T11:53:54Z</time>
      </trkpt>
      <trkpt lat="43.78174" lon="3.68583">
        <ele>394.28</ele>
        <time>2016-01-17T11:54:18Z</time>
      </trkpt>
      <trkpt lat="43.78176" lon="3.68572">
        <ele>392.84</ele>
        <time>2016-01-17T11:54:45Z</time>
      </trkpt>
      <trkpt lat="43.7818" lon="3.68559">
        <ele>391.87</ele>
        <time>2016-01-17T11:55:11Z</time>
      </trkpt>
      <trkpt lat="43.78184" lon="3.68562">
        <ele>391.39</ele>
        <time>2016-01-17T11:56:59Z</time>
      </trkpt>
      <trkpt lat="43.78188" lon="3.68558">
        <ele>390.91</ele>
        <time>2016-01-17T11:57:54Z</time>
      </trkpt>
      <trkpt lat="43.78188" lon="3.6856">
        <ele>390.43</ele>
        <time>2016-01-17T11:59:33Z</time>
      </trkpt>
      <trkpt lat="43.78187" lon="3.68559">
        <ele>390.91</ele>
        <time>2016-01-17T12:14:28Z</time>
      </trkpt>
      <trkpt lat="43.7819" lon="3.68552">
        <ele>391.39</ele>
        <time>2016-01-17T12:21:38Z</time>
      </trkpt>
      <trkpt lat="43.78185" lon="3.68558">
        <ele>391.39</ele>
        <time>2016-01-17T12:22:44Z</time>
      </trkpt>
      <trkpt lat="43.78181" lon="3.6856">
        <ele>391.87</ele>
        <time>2016-01-17T12:23:22Z</time>
      </trkpt>
      <trkpt lat="43.78187" lon="3.68558">
        <ele>391.87</ele>
        <time>2016-01-17T12:24:43Z</time>
      </trkpt>
      <trkpt lat="43.7819" lon="3.68558">
        <ele>391.39</ele>
        <time>2016-01-17T12:31:20Z</time>
      </trkpt>
      <trkpt lat="43.78192" lon="3.68559">
        <ele>390.91</ele>
        <time>2016-01-17T12:31:57Z</time>
      </trkpt>
      <trkpt lat="43.78193" lon="3.68559">
        <ele>391.87</ele>
        <time>2016-01-17T12:36:14Z</time>
      </trkpt>
      <trkpt lat="43.78202" lon="3.68566">
        <ele>392.36</ele>
        <time>2016-01-17T12:36:29Z</time>
      </trkpt>
      <trkpt lat="43.78208" lon="3.6857">
        <ele>391.87</ele>
        <time>2016-01-17T12:38:16Z</time>
      </trkpt>
      <trkpt lat="43.782" lon="3.68562">
        <ele>391.87</ele>
        <time>2016-01-17T12:38:28Z</time>
      </trkpt>
      <trkpt lat="43.78191" lon="3.68556">
        <ele>391.87</ele>
        <time>2016-01-17T12:38:45Z</time>
      </trkpt>
      <trkpt lat="43.78191" lon="3.68557">
        <ele>391.39</ele>
        <time>2016-01-17T12:41:05Z</time>
      </trkpt>
      <trkpt lat="43.78191" lon="3.68555">
        <ele>391.87</ele>
        <time>2016-01-17T12:44:30Z</time>
      </trkpt>
      <trkpt lat="43.78191" lon="3.68558">
        <ele>392.84</ele>
        <time>2016-01-17T12:48:11Z</time>
      </trkpt>
      <trkpt lat="43.78191" lon="3.68556">
        <ele>392.84</ele>
        <time>2016-01-17T12:50:25Z</time>
      </trkpt>
      <trkpt lat="43.78188" lon="3.68569">
        <ele>394.28</ele>
        <time>2016-01-17T12:50:54Z</time>
      </trkpt>
      <trkpt lat="43.78182" lon="3.68584">
        <ele>395.72</ele>
        <time>2016-01-17T12:51:15Z</time>
      </trkpt>
      <trkpt lat="43.78178" lon="3.68596">
        <ele>397.16</ele>
        <time>2016-01-17T12:51:59Z</time>
      </trkpt>
      <trkpt lat="43.78177" lon="3.68594">
        <ele>397.16</ele>
        <time>2016-01-17T12:52:50Z</time>
      </trkpt>
      <trkpt lat="43.78167" lon="3.6859">
        <ele>396.68</ele>
        <time>2016-01-17T12:53:08Z</time>
      </trkpt>
      <trkpt lat="43.78158" lon="3.6859">
        <ele>396.68</ele>
        <time>2016-01-17T12:53:19Z</time>
      </trkpt>
      <trkpt lat="43.78149" lon="3.68589">
        <ele>396.2</ele>
        <time>2016-01-17T12:53:29Z</time>
      </trkpt>
      <trkpt lat="43.78138" lon="3.68589">
        <ele>395.72</ele>
        <time>2016-01-17T12:53:40Z</time>
      </trkpt>
      <trkpt lat="43.78127" lon="3.68589">
        <ele>394.76</ele>
        <time>2016-01-17T12:53:50Z</time>
      </trkpt>
      <trkpt lat="43.78118" lon="3.68588">
        <ele>393.8</ele>
        <time>2016-01-17T12:53:59Z</time>
      </trkpt>
      <trkpt lat="43.78108" lon="3.68587">
        <ele>393.32</ele>
        <time>2016-01-17T12:54:09Z</time>
      </trkpt>
      <trkpt lat="43.78098" lon="3.68588">
        <ele>392.36</ele>
        <time>2016-01-17T12:54:18Z</time>
      </trkpt>
      <trkpt lat="43.78089" lon="3.68587">
        <ele>392.36</ele>
        <time>2016-01-17T12:54:27Z</time>
      </trkpt>
      <trkpt lat="43.78079" lon="3.68586">
        <ele>392.36</ele>
        <time>2016-01-17T12:54:36Z</time>
      </trkpt>
      <trkpt lat="43.78069" lon="3.68584">
        <ele>391.87</ele>
        <time>2016-01-17T12:54:45Z</time>
      </trkpt>
      <trkpt lat="43.78059" lon="3.68583">
        <ele>392.36</ele>
        <time>2016-01-17T12:54:54Z</time>
      </trkpt>
      <trkpt lat="43.78048" lon="3.68582">
        <ele>393.32</ele>
        <time>2016-01-17T12:55:04Z</time>
      </trkpt>
      <trkpt lat="43.78038" lon="3.6858">
        <ele>394.28</ele>
        <time>2016-01-17T12:55:14Z</time>
      </trkpt>
      <trkpt lat="43.78027" lon="3.6858">
        <ele>395.24</ele>
        <time>2016-01-17T12:55:24Z</time>
      </trkpt>
      <trkpt lat="43.78016" lon="3.68582">
        <ele>396.2</ele>
        <time>2016-01-17T12:55:33Z</time>
      </trkpt>
      <trkpt lat="43.78009" lon="3.68591">
        <ele>396.68</ele>
        <time>2016-01-17T12:55:42Z</time>
      </trkpt>
      <trkpt lat="43.78002" lon="3.68601">
        <ele>396.2</ele>
        <time>2016-01-17T12:55:51Z</time>
      </trkpt>
      <trkpt lat="43.77998" lon="3.68614">
        <ele>396.68</ele>
        <time>2016-01-17T12:56:00Z</time>
      </trkpt>
      <trkpt lat="43.77992" lon="3.68626">
        <ele>396.2</ele>
        <time>2016-01-17T12:56:08Z</time>
      </trkpt>
      <trkpt lat="43.77988" lon="3.68638">
        <ele>395.72</ele>
        <time>2016-01-17T12:56:16Z</time>
      </trkpt>
      <trkpt lat="43.77986" lon="3.6865">
        <ele>396.2</ele>
        <time>2016-01-17T12:56:24Z</time>
      </trkpt>
      <trkpt lat="43.7798" lon="3.68661">
        <ele>395.24</ele>
        <time>2016-01-17T12:56:33Z</time>
      </trkpt>
      <trkpt lat="43.77971" lon="3.6867">
        <ele>395.24</ele>
        <time>2016-01-17T12:56:43Z</time>
      </trkpt>
      <trkpt lat="43.77961" lon="3.68676">
        <ele>394.76</ele>
        <time>2016-01-17T12:56:53Z</time>
      </trkpt>
      <trkpt lat="43.77953" lon="3.68686">
        <ele>394.28</ele>
        <time>2016-01-17T12:57:03Z</time>
      </trkpt>
      <trkpt lat="43.77945" lon="3.68692">
        <ele>393.32</ele>
        <time>2016-01-17T12:57:13Z</time>
      </trkpt>
      <trkpt lat="43.77935" lon="3.68695">
        <ele>392.84</ele>
        <time>2016-01-17T12:57:23Z</time>
      </trkpt>
      <trkpt lat="43.77924" lon="3.68701">
        <ele>391.39</ele>
        <time>2016-01-17T12:57:33Z</time>
      </trkpt>
      <trkpt lat="43.77915" lon="3.68711">
        <ele>389.95</ele>
        <time>2016-01-17T12:57:43Z</time>
      </trkpt>
      <trkpt lat="43.77904" lon="3.68717">
        <ele>388.99</ele>
        <time>2016-01-17T12:57:53Z</time>
      </trkpt>
      <trkpt lat="43.77896" lon="3.6873">
        <ele>388.03</ele>
        <time>2016-01-17T12:58:01Z</time>
      </trkpt>
      <trkpt lat="43.77889" lon="3.68739">
        <ele>386.59</ele>
        <time>2016-01-17T12:58:10Z</time>
      </trkpt>
      <trkpt lat="43.7788" lon="3.68748">
        <ele>385.63</ele>
        <time>2016-01-17T12:58:20Z</time>
      </trkpt>
      <trkpt lat="43.7787" lon="3.68756">
        <ele>383.7</ele>
        <time>2016-01-17T12:58:31Z</time>
      </trkpt>
      <trkpt lat="43.77859" lon="3.68764">
        <ele>382.26</ele>
        <time>2016-01-17T12:58:43Z</time>
      </trkpt>
      <trkpt lat="43.77847" lon="3.68777">
        <ele>380.82</ele>
        <time>2016-01-17T12:58:55Z</time>
      </trkpt>
      <trkpt lat="43.77838" lon="3.68791">
        <ele>378.9</ele>
        <time>2016-01-17T12:59:07Z</time>
      </trkpt>
      <trkpt lat="43.77833" lon="3.68807">
        <ele>377.45</ele>
        <time>2016-01-17T12:59:18Z</time>
      </trkpt>
      <trkpt lat="43.77827" lon="3.68825">
        <ele>376.01</ele>
        <time>2016-01-17T12:59:30Z</time>
      </trkpt>
      <trkpt lat="43.77826" lon="3.6884">
        <ele>375.05</ele>
        <time>2016-01-17T12:59:41Z</time>
      </trkpt>
      <trkpt lat="43.77825" lon="3.68858">
        <ele>373.61</ele>
        <time>2016-01-17T12:59:52Z</time>
      </trkpt>
      <trkpt lat="43.77821" lon="3.68877">
        <ele>371.69</ele>
        <time>2016-01-17T13:00:04Z</time>
      </trkpt>
      <trkpt lat="43.77817" lon="3.68892">
        <ele>370.73</ele>
        <time>2016-01-17T13:00:15Z</time>
      </trkpt>
      <trkpt lat="43.77813" lon="3.68909">
        <ele>369.28</ele>
        <time>2016-01-17T13:00:28Z</time>
      </trkpt>
      <trkpt lat="43.77806" lon="3.68921">
        <ele>367.84</ele>
        <time>2016-01-17T13:00:43Z</time>
      </trkpt>
      <trkpt lat="43.77796" lon="3.68941">
        <ele>366.4</ele>
        <time>2016-01-17T13:00:57Z</time>
      </trkpt>
      <trkpt lat="43.77793" lon="3.68959">
        <ele>364.96</ele>
        <time>2016-01-17T13:01:09Z</time>
      </trkpt>
      <trkpt lat="43.77791" lon="3.68978">
        <ele>364</ele>
        <time>2016-01-17T13:01:19Z</time>
      </trkpt>
      <trkpt lat="43.77788" lon="3.68995">
        <ele>363.04</ele>
        <time>2016-01-17T13:01:29Z</time>
      </trkpt>
      <trkpt lat="43.77787" lon="3.69011">
        <ele>362.07</ele>
        <time>2016-01-17T13:01:39Z</time>
      </trkpt>
      <trkpt lat="43.77785" lon="3.69027">
        <ele>360.63</ele>
        <time>2016-01-17T13:01:50Z</time>
      </trkpt>
      <trkpt lat="43.77786" lon="3.69043">
        <ele>359.67</ele>
        <time>2016-01-17T13:02:02Z</time>
      </trkpt>
      <trkpt lat="43.7779" lon="3.6906">
        <ele>358.23</ele>
        <time>2016-01-17T13:02:14Z</time>
      </trkpt>
      <trkpt lat="43.77792" lon="3.69077">
        <ele>357.27</ele>
        <time>2016-01-17T13:02:27Z</time>
      </trkpt>
      <trkpt lat="43.77788" lon="3.69093">
        <ele>355.83</ele>
        <time>2016-01-17T13:02:39Z</time>
      </trkpt>
      <trkpt lat="43.77787" lon="3.69111">
        <ele>354.86</ele>
        <time>2016-01-17T13:02:51Z</time>
      </trkpt>
      <trkpt lat="43.77786" lon="3.69135">
        <ele>353.42</ele>
        <time>2016-01-17T13:03:04Z</time>
      </trkpt>
      <trkpt lat="43.77785" lon="3.69151">
        <ele>351.98</ele>
        <time>2016-01-17T13:03:16Z</time>
      </trkpt>
      <trkpt lat="43.77783" lon="3.6917">
        <ele>351.5</ele>
        <time>2016-01-17T13:03:28Z</time>
      </trkpt>
      <trkpt lat="43.7778" lon="3.69191">
        <ele>350.54</ele>
        <time>2016-01-17T13:03:39Z</time>
      </trkpt>
      <trkpt lat="43.77777" lon="3.69207">
        <ele>349.58</ele>
        <time>2016-01-17T13:03:48Z</time>
      </trkpt>
      <trkpt lat="43.77772" lon="3.69222">
        <ele>349.1</ele>
        <time>2016-01-17T13:03:59Z</time>
      </trkpt>
      <trkpt lat="43.77771" lon="3.69239">
        <ele>348.13</ele>
        <time>2016-01-17T13:04:10Z</time>
      </trkpt>
      <trkpt lat="43.77765" lon="3.69255">
        <ele>347.65</ele>
        <time>2016-01-17T13:04:21Z</time>
      </trkpt>
      <trkpt lat="43.77759" lon="3.69271">
        <ele>346.21</ele>
        <time>2016-01-17T13:04:30Z</time>
      </trkpt>
      <trkpt lat="43.77755" lon="3.69288">
        <ele>345.73</ele>
        <time>2016-01-17T13:04:39Z</time>
      </trkpt>
      <trkpt lat="43.7775" lon="3.69302">
        <ele>345.25</ele>
        <time>2016-01-17T13:04:50Z</time>
      </trkpt>
      <trkpt lat="43.77747" lon="3.69315">
        <ele>344.77</ele>
        <time>2016-01-17T13:05:05Z</time>
      </trkpt>
      <trkpt lat="43.77745" lon="3.69329">
        <ele>343.81</ele>
        <time>2016-01-17T13:05:14Z</time>
      </trkpt>
      <trkpt lat="43.77738" lon="3.69341">
        <ele>343.33</ele>
        <time>2016-01-17T13:05:23Z</time>
      </trkpt>
      <trkpt lat="43.77733" lon="3.69353">
        <ele>342.37</ele>
        <time>2016-01-17T13:05:32Z</time>
      </trkpt>
      <trkpt lat="43.77728" lon="3.69367">
        <ele>342.37</ele>
        <time>2016-01-17T13:05:42Z</time>
      </trkpt>
      <trkpt lat="43.77723" lon="3.69384">
        <ele>341.41</ele>
        <time>2016-01-17T13:05:52Z</time>
      </trkpt>
      <trkpt lat="43.77718" lon="3.69401">
        <ele>340.92</ele>
        <time>2016-01-17T13:06:03Z</time>
      </trkpt>
      <trkpt lat="43.77716" lon="3.69419">
        <ele>339.96</ele>
        <time>2016-01-17T13:06:12Z</time>
      </trkpt>
      <trkpt lat="43.77711" lon="3.69434">
        <ele>339.48</ele>
        <time>2016-01-17T13:06:20Z</time>
      </trkpt>
      <trkpt lat="43.77704" lon="3.69444">
        <ele>339</ele>
        <time>2016-01-17T13:06:28Z</time>
      </trkpt>
      <trkpt lat="43.77697" lon="3.69449">
        <ele>339</ele>
        <time>2016-01-17T13:07:52Z</time>
      </trkpt>
      <trkpt lat="43.77689" lon="3.69457">
        <ele>338.52</ele>
        <time>2016-01-17T13:08:01Z</time>
      </trkpt>
      <trkpt lat="43.77682" lon="3.69469">
        <ele>338.04</ele>
        <time>2016-01-17T13:08:12Z</time>
      </trkpt>
      <trkpt lat="43.77675" lon="3.6948">
        <ele>337.56</ele>
        <time>2016-01-17T13:08:23Z</time>
      </trkpt>
      <trkpt lat="43.7767" lon="3.69491">
        <ele>337.08</ele>
        <time>2016-01-17T13:08:33Z</time>
      </trkpt>
      <trkpt lat="43.7767" lon="3.69506">
        <ele>336.6</ele>
        <time>2016-01-17T13:08:42Z</time>
      </trkpt>
      <trkpt lat="43.77666" lon="3.69519">
        <ele>336.12</ele>
        <time>2016-01-17T13:08:52Z</time>
      </trkpt>
      <trkpt lat="43.77662" lon="3.69532">
        <ele>335.64</ele>
        <time>2016-01-17T13:09:01Z</time>
      </trkpt>
      <trkpt lat="43.77662" lon="3.69548">
        <ele>335.16</ele>
        <time>2016-01-17T13:09:11Z</time>
      </trkpt>
      <trkpt lat="43.77657" lon="3.6956">
        <ele>334.2</ele>
        <time>2016-01-17T13:09:21Z</time>
      </trkpt>
      <trkpt lat="43.77653" lon="3.69575">
        <ele>333.71</ele>
        <time>2016-01-17T13:09:31Z</time>
      </trkpt>
      <trkpt lat="43.7765" lon="3.69591">
        <ele>333.23</ele>
        <time>2016-01-17T13:09:39Z</time>
      </trkpt>
      <trkpt lat="43.77647" lon="3.69605">
        <ele>332.75</ele>
        <time>2016-01-17T13:09:47Z</time>
      </trkpt>
      <trkpt lat="43.77642" lon="3.69617">
        <ele>332.27</ele>
        <time>2016-01-17T13:09:56Z</time>
      </trkpt>
      <trkpt lat="43.77634" lon="3.69627">
        <ele>332.27</ele>
        <time>2016-01-17T13:10:05Z</time>
      </trkpt>
      <trkpt lat="43.77629" lon="3.69639">
        <ele>331.31</ele>
        <time>2016-01-17T13:10:14Z</time>
      </trkpt>
      <trkpt lat="43.77628" lon="3.69652">
        <ele>330.83</ele>
        <time>2016-01-17T13:10:23Z</time>
      </trkpt>
      <trkpt lat="43.77627" lon="3.69666">
        <ele>330.83</ele>
        <time>2016-01-17T13:10:32Z</time>
      </trkpt>
      <trkpt lat="43.77624" lon="3.69682">
        <ele>329.87</ele>
        <time>2016-01-17T13:10:41Z</time>
      </trkpt>
      <trkpt lat="43.77622" lon="3.69697">
        <ele>329.87</ele>
        <time>2016-01-17T13:10:49Z</time>
      </trkpt>
      <trkpt lat="43.77617" lon="3.69707">
        <ele>329.39</ele>
        <time>2016-01-17T13:10:57Z</time>
      </trkpt>
      <trkpt lat="43.77609" lon="3.69716">
        <ele>328.91</ele>
        <time>2016-01-17T13:11:05Z</time>
      </trkpt>
      <trkpt lat="43.77604" lon="3.69728">
        <ele>328.91</ele>
        <time>2016-01-17T13:11:15Z</time>
      </trkpt>
      <trkpt lat="43.776" lon="3.69742">
        <ele>328.91</ele>
        <time>2016-01-17T13:11:24Z</time>
      </trkpt>
      <trkpt lat="43.776" lon="3.69757">
        <ele>328.91</ele>
        <time>2016-01-17T13:11:33Z</time>
      </trkpt>
      <trkpt lat="43.776" lon="3.69772">
        <ele>328.43</ele>
        <time>2016-01-17T13:11:42Z</time>
      </trkpt>
      <trkpt lat="43.77595" lon="3.69785">
        <ele>327.95</ele>
        <time>2016-01-17T13:11:51Z</time>
      </trkpt>
      <trkpt lat="43.7759" lon="3.69798">
        <ele>327.47</ele>
        <time>2016-01-17T13:12:01Z</time>
      </trkpt>
      <trkpt lat="43.7759" lon="3.69814">
        <ele>327.47</ele>
        <time>2016-01-17T13:12:10Z</time>
      </trkpt>
      <trkpt lat="43.77591" lon="3.6983">
        <ele>327.47</ele>
        <time>2016-01-17T13:12:19Z</time>
      </trkpt>
      <trkpt lat="43.77591" lon="3.69845">
        <ele>326.99</ele>
        <time>2016-01-17T13:12:27Z</time>
      </trkpt>
      <trkpt lat="43.77587" lon="3.69861">
        <ele>326.5</ele>
        <time>2016-01-17T13:12:36Z</time>
      </trkpt>
      <trkpt lat="43.77587" lon="3.69874">
        <ele>326.99</ele>
        <time>2016-01-17T13:12:44Z</time>
      </trkpt>
      <trkpt lat="43.77589" lon="3.69888">
        <ele>326.5</ele>
        <time>2016-01-17T13:12:53Z</time>
      </trkpt>
      <trkpt lat="43.77589" lon="3.69902">
        <ele>326.02</ele>
        <time>2016-01-17T13:13:01Z</time>
      </trkpt>
      <trkpt lat="43.77589" lon="3.69916">
        <ele>326.02</ele>
        <time>2016-01-17T13:13:10Z</time>
      </trkpt>
      <trkpt lat="43.77592" lon="3.69929">
        <ele>326.02</ele>
        <time>2016-01-17T13:13:19Z</time>
      </trkpt>
      <trkpt lat="43.77598" lon="3.6994">
        <ele>325.54</ele>
        <time>2016-01-17T13:13:28Z</time>
      </trkpt>
      <trkpt lat="43.77607" lon="3.69945">
        <ele>326.02</ele>
        <time>2016-01-17T13:13:39Z</time>
      </trkpt>
      <trkpt lat="43.77616" lon="3.69952">
        <ele>326.02</ele>
        <time>2016-01-17T13:13:48Z</time>
      </trkpt>
      <trkpt lat="43.77627" lon="3.69955">
        <ele>326.02</ele>
        <time>2016-01-17T13:13:57Z</time>
      </trkpt>
      <trkpt lat="43.77637" lon="3.69959">
        <ele>326.02</ele>
        <time>2016-01-17T13:14:06Z</time>
      </trkpt>
      <trkpt lat="43.77648" lon="3.69963">
        <ele>326.02</ele>
        <time>2016-01-17T13:14:16Z</time>
      </trkpt>
      <trkpt lat="43.77656" lon="3.69972">
        <ele>326.5</ele>
        <time>2016-01-17T13:14:25Z</time>
      </trkpt>
      <trkpt lat="43.77662" lon="3.69986">
        <ele>326.02</ele>
        <time>2016-01-17T13:14:34Z</time>
      </trkpt>
      <trkpt lat="43.7766" lon="3.70001">
        <ele>326.02</ele>
        <time>2016-01-17T13:14:42Z</time>
      </trkpt>
      <trkpt lat="43.77661" lon="3.70014">
        <ele>325.06</ele>
        <time>2016-01-17T13:14:50Z</time>
      </trkpt>
      <trkpt lat="43.77664" lon="3.70028">
        <ele>325.06</ele>
        <time>2016-01-17T13:14:58Z</time>
      </trkpt>
      <trkpt lat="43.77666" lon="3.70042">
        <ele>325.06</ele>
        <time>2016-01-17T13:15:06Z</time>
      </trkpt>
      <trkpt lat="43.77665" lon="3.70058">
        <ele>324.58</ele>
        <time>2016-01-17T13:15:14Z</time>
      </trkpt>
      <trkpt lat="43.77668" lon="3.70071">
        <ele>324.58</ele>
        <time>2016-01-17T13:15:21Z</time>
      </trkpt>
      <trkpt lat="43.77672" lon="3.70084">
        <ele>324.1</ele>
        <time>2016-01-17T13:15:28Z</time>
      </trkpt>
      <trkpt lat="43.77673" lon="3.70097">
        <ele>324.1</ele>
        <time>2016-01-17T13:15:35Z</time>
      </trkpt>
      <trkpt lat="43.77672" lon="3.7011">
        <ele>323.14</ele>
        <time>2016-01-17T13:15:43Z</time>
      </trkpt>
      <trkpt lat="43.77669" lon="3.70123">
        <ele>323.14</ele>
        <time>2016-01-17T13:15:51Z</time>
      </trkpt>
      <trkpt lat="43.77666" lon="3.70137">
        <ele>322.18</ele>
        <time>2016-01-17T13:15:59Z</time>
      </trkpt>
      <trkpt lat="43.77664" lon="3.70153">
        <ele>322.66</ele>
        <time>2016-01-17T13:16:07Z</time>
      </trkpt>
      <trkpt lat="43.77659" lon="3.70167">
        <ele>322.18</ele>
        <time>2016-01-17T13:16:15Z</time>
      </trkpt>
      <trkpt lat="43.77654" lon="3.70181">
        <ele>321.7</ele>
        <time>2016-01-17T13:16:24Z</time>
      </trkpt>
      <trkpt lat="43.77649" lon="3.70194">
        <ele>321.22</ele>
        <time>2016-01-17T13:16:33Z</time>
      </trkpt>
      <trkpt lat="43.77641" lon="3.70205">
        <ele>321.7</ele>
        <time>2016-01-17T13:16:42Z</time>
      </trkpt>
      <trkpt lat="43.77635" lon="3.70219">
        <ele>321.22</ele>
        <time>2016-01-17T13:16:51Z</time>
      </trkpt>
      <trkpt lat="43.77631" lon="3.70236">
        <ele>320.74</ele>
        <time>2016-01-17T13:17:00Z</time>
      </trkpt>
      <trkpt lat="43.7763" lon="3.70252">
        <ele>320.74</ele>
        <time>2016-01-17T13:17:08Z</time>
      </trkpt>
      <trkpt lat="43.77627" lon="3.70267">
        <ele>320.26</ele>
        <time>2016-01-17T13:17:17Z</time>
      </trkpt>
      <trkpt lat="43.77627" lon="3.70282">
        <ele>320.26</ele>
        <time>2016-01-17T13:17:27Z</time>
      </trkpt>
      <trkpt lat="43.77629" lon="3.70299">
        <ele>320.26</ele>
        <time>2016-01-17T13:17:37Z</time>
      </trkpt>
      <trkpt lat="43.77627" lon="3.70313">
        <ele>319.78</ele>
        <time>2016-01-17T13:17:48Z</time>
      </trkpt>
      <trkpt lat="43.77625" lon="3.70331">
        <ele>319.78</ele>
        <time>2016-01-17T13:17:58Z</time>
      </trkpt>
      <trkpt lat="43.77628" lon="3.70346">
        <ele>319.78</ele>
        <time>2016-01-17T13:18:06Z</time>
      </trkpt>
      <trkpt lat="43.7763" lon="3.70361">
        <ele>319.78</ele>
        <time>2016-01-17T13:18:15Z</time>
      </trkpt>
      <trkpt lat="43.77632" lon="3.70377">
        <ele>319.3</ele>
        <time>2016-01-17T13:18:24Z</time>
      </trkpt>
      <trkpt lat="43.77633" lon="3.70392">
        <ele>319.3</ele>
        <time>2016-01-17T13:18:33Z</time>
      </trkpt>
      <trkpt lat="43.77635" lon="3.70408">
        <ele>319.3</ele>
        <time>2016-01-17T13:18:42Z</time>
      </trkpt>
      <trkpt lat="43.77643" lon="3.7042">
        <ele>318.81</ele>
        <time>2016-01-17T13:18:51Z</time>
      </trkpt>
      <trkpt lat="43.7765" lon="3.70431">
        <ele>318.81</ele>
        <time>2016-01-17T13:18:59Z</time>
      </trkpt>
      <trkpt lat="43.77658" lon="3.70442">
        <ele>318.81</ele>
        <time>2016-01-17T13:19:09Z</time>
      </trkpt>
      <trkpt lat="43.77667" lon="3.70446">
        <ele>318.33</ele>
        <time>2016-01-17T13:19:18Z</time>
      </trkpt>
      <trkpt lat="43.77677" lon="3.70447">
        <ele>318.33</ele>
        <time>2016-01-17T13:19:26Z</time>
      </trkpt>
      <trkpt lat="43.77687" lon="3.70454">
        <ele>317.85</ele>
        <time>2016-01-17T13:19:34Z</time>
      </trkpt>
      <trkpt lat="43.77695" lon="3.70463">
        <ele>317.85</ele>
        <time>2016-01-17T13:19:42Z</time>
      </trkpt>
      <trkpt lat="43.77704" lon="3.70472">
        <ele>317.37</ele>
        <time>2016-01-17T13:19:50Z</time>
      </trkpt>
      <trkpt lat="43.77714" lon="3.70481">
        <ele>316.89</ele>
        <time>2016-01-17T13:19:58Z</time>
      </trkpt>
      <trkpt lat="43.77723" lon="3.70489">
        <ele>316.41</ele>
        <time>2016-01-17T13:20:07Z</time>
      </trkpt>
      <trkpt lat="43.77733" lon="3.70498">
        <ele>316.41</ele>
        <time>2016-01-17T13:20:18Z</time>
      </trkpt>
      <trkpt lat="43.77737" lon="3.70513">
        <ele>316.41</ele>
        <time>2016-01-17T13:20:29Z</time>
      </trkpt>
      <trkpt lat="43.77731" lon="3.70524">
        <ele>316.41</ele>
        <time>2016-01-17T13:20:40Z</time>
      </trkpt>
      <trkpt lat="43.7772" lon="3.70532">
        <ele>317.37</ele>
        <time>2016-01-17T13:20:52Z</time>
      </trkpt>
      <trkpt lat="43.77709" lon="3.70543">
        <ele>317.85</ele>
        <time>2016-01-17T13:21:04Z</time>
      </trkpt>
      <trkpt lat="43.77698" lon="3.70553">
        <ele>318.33</ele>
        <time>2016-01-17T13:21:15Z</time>
      </trkpt>
      <trkpt lat="43.77687" lon="3.70562">
        <ele>319.3</ele>
        <time>2016-01-17T13:21:25Z</time>
      </trkpt>
      <trkpt lat="43.77676" lon="3.7057">
        <ele>320.26</ele>
        <time>2016-01-17T13:21:36Z</time>
      </trkpt>
      <trkpt lat="43.77665" lon="3.70576">
        <ele>321.7</ele>
        <time>2016-01-17T13:21:46Z</time>
      </trkpt>
      <trkpt lat="43.77654" lon="3.70583">
        <ele>323.14</ele>
        <time>2016-01-17T13:21:57Z</time>
      </trkpt>
      <trkpt lat="43.77644" lon="3.70591">
        <ele>324.58</ele>
        <time>2016-01-17T13:22:07Z</time>
      </trkpt>
      <trkpt lat="43.77633" lon="3.70601">
        <ele>325.06</ele>
        <time>2016-01-17T13:22:17Z</time>
      </trkpt>
      <trkpt lat="43.77623" lon="3.7061">
        <ele>326.5</ele>
        <time>2016-01-17T13:22:28Z</time>
      </trkpt>
      <trkpt lat="43.77612" lon="3.70618">
        <ele>327.47</ele>
        <time>2016-01-17T13:22:40Z</time>
      </trkpt>
      <trkpt lat="43.77601" lon="3.70624">
        <ele>328.91</ele>
        <time>2016-01-17T13:22:52Z</time>
      </trkpt>
      <trkpt lat="43.77591" lon="3.70631">
        <ele>329.87</ele>
        <time>2016-01-17T13:23:02Z</time>
      </trkpt>
      <trkpt lat="43.7758" lon="3.70638">
        <ele>330.83</ele>
        <time>2016-01-17T13:23:12Z</time>
      </trkpt>
      <trkpt lat="43.7757" lon="3.70646">
        <ele>331.79</ele>
        <time>2016-01-17T13:23:22Z</time>
      </trkpt>
      <trkpt lat="43.7756" lon="3.70654">
        <ele>332.75</ele>
        <time>2016-01-17T13:23:33Z</time>
      </trkpt>
      <trkpt lat="43.77551" lon="3.70666">
        <ele>333.71</ele>
        <time>2016-01-17T13:23:44Z</time>
      </trkpt>
      <trkpt lat="43.77539" lon="3.70676">
        <ele>334.2</ele>
        <time>2016-01-17T13:24:14Z</time>
      </trkpt>
      <trkpt lat="43.7753" lon="3.70682">
        <ele>335.16</ele>
        <time>2016-01-17T13:24:24Z</time>
      </trkpt>
      <trkpt lat="43.7752" lon="3.70689">
        <ele>335.64</ele>
        <time>2016-01-17T13:24:34Z</time>
      </trkpt>
      <trkpt lat="43.77512" lon="3.70698">
        <ele>336.12</ele>
        <time>2016-01-17T13:24:45Z</time>
      </trkpt>
      <trkpt lat="43.77504" lon="3.70711">
        <ele>337.08</ele>
        <time>2016-01-17T13:24:54Z</time>
      </trkpt>
      <trkpt lat="43.77498" lon="3.70726">
        <ele>337.08</ele>
        <time>2016-01-17T13:25:04Z</time>
      </trkpt>
      <trkpt lat="43.77493" lon="3.70743">
        <ele>337.08</ele>
        <time>2016-01-17T13:25:13Z</time>
      </trkpt>
      <trkpt lat="43.77487" lon="3.70755">
        <ele>337.08</ele>
        <time>2016-01-17T13:25:21Z</time>
      </trkpt>
      <trkpt lat="43.77481" lon="3.70767">
        <ele>336.6</ele>
        <time>2016-01-17T13:25:30Z</time>
      </trkpt>
      <trkpt lat="43.77473" lon="3.70775">
        <ele>335.64</ele>
        <time>2016-01-17T13:25:40Z</time>
      </trkpt>
      <trkpt lat="43.77462" lon="3.70785">
        <ele>335.64</ele>
        <time>2016-01-17T13:25:52Z</time>
      </trkpt>
      <trkpt lat="43.77452" lon="3.70796">
        <ele>334.68</ele>
        <time>2016-01-17T13:26:03Z</time>
      </trkpt>
      <trkpt lat="43.77441" lon="3.70808">
        <ele>333.71</ele>
        <time>2016-01-17T13:26:14Z</time>
      </trkpt>
      <trkpt lat="43.77432" lon="3.70817">
        <ele>333.23</ele>
        <time>2016-01-17T13:26:24Z</time>
      </trkpt>
      <trkpt lat="43.77424" lon="3.70827">
        <ele>332.27</ele>
        <time>2016-01-17T13:26:37Z</time>
      </trkpt>
      <trkpt lat="43.77413" lon="3.70838">
        <ele>330.35</ele>
        <time>2016-01-17T13:26:49Z</time>
      </trkpt>
      <trkpt lat="43.77401" lon="3.7085">
        <ele>329.87</ele>
        <time>2016-01-17T13:27:49Z</time>
      </trkpt>
      <trkpt lat="43.77392" lon="3.70856">
        <ele>328.91</ele>
        <time>2016-01-17T13:28:52Z</time>
      </trkpt>
      <trkpt lat="43.77381" lon="3.70858">
        <ele>327.47</ele>
        <time>2016-01-17T13:29:04Z</time>
      </trkpt>
      <trkpt lat="43.7737" lon="3.7086">
        <ele>326.02</ele>
        <time>2016-01-17T13:29:15Z</time>
      </trkpt>
      <trkpt lat="43.77359" lon="3.70859">
        <ele>325.06</ele>
        <time>2016-01-17T13:29:25Z</time>
      </trkpt>
      <trkpt lat="43.77347" lon="3.7086">
        <ele>323.62</ele>
        <time>2016-01-17T13:29:36Z</time>
      </trkpt>
      <trkpt lat="43.77336" lon="3.70861">
        <ele>322.18</ele>
        <time>2016-01-17T13:29:46Z</time>
      </trkpt>
      <trkpt lat="43.77324" lon="3.70864">
        <ele>320.26</ele>
        <time>2016-01-17T13:29:56Z</time>
      </trkpt>
      <trkpt lat="43.77326" lon="3.70875">
        <ele>318.33</ele>
        <time>2016-01-17T13:30:07Z</time>
      </trkpt>
      <trkpt lat="43.77335" lon="3.70881">
        <ele>317.85</ele>
        <time>2016-01-17T13:30:16Z</time>
      </trkpt>
      <trkpt lat="43.77343" lon="3.70889">
        <ele>316.89</ele>
        <time>2016-01-17T13:30:25Z</time>
      </trkpt>
      <trkpt lat="43.77352" lon="3.70897">
        <ele>316.41</ele>
        <time>2016-01-17T13:30:33Z</time>
      </trkpt>
      <trkpt lat="43.77363" lon="3.70909">
        <ele>315.45</ele>
        <time>2016-01-17T13:30:43Z</time>
      </trkpt>
      <trkpt lat="43.77372" lon="3.70918">
        <ele>314.01</ele>
        <time>2016-01-17T13:30:51Z</time>
      </trkpt>
      <trkpt lat="43.77381" lon="3.70925">
        <ele>313.53</ele>
        <time>2016-01-17T13:30:59Z</time>
      </trkpt>
      <trkpt lat="43.77388" lon="3.70934">
        <ele>312.57</ele>
        <time>2016-01-17T13:31:07Z</time>
      </trkpt>
      <trkpt lat="43.77395" lon="3.70946">
        <ele>311.12</ele>
        <time>2016-01-17T13:31:15Z</time>
      </trkpt>
      <trkpt lat="43.77405" lon="3.70953">
        <ele>310.16</ele>
        <time>2016-01-17T13:31:24Z</time>
      </trkpt>
      <trkpt lat="43.77415" lon="3.70959">
        <ele>309.68</ele>
        <time>2016-01-17T13:31:33Z</time>
      </trkpt>
      <trkpt lat="43.77426" lon="3.70963">
        <ele>308.72</ele>
        <time>2016-01-17T13:31:41Z</time>
      </trkpt>
      <trkpt lat="43.77435" lon="3.70973">
        <ele>307.76</ele>
        <time>2016-01-17T13:31:50Z</time>
      </trkpt>
      <trkpt lat="43.77441" lon="3.70985">
        <ele>306.32</ele>
        <time>2016-01-17T13:31:59Z</time>
      </trkpt>
      <trkpt lat="43.77448" lon="3.70999">
        <ele>304.88</ele>
        <time>2016-01-17T13:32:08Z</time>
      </trkpt>
      <trkpt lat="43.77449" lon="3.71012">
        <ele>302.95</ele>
        <time>2016-01-17T13:32:17Z</time>
      </trkpt>
      <trkpt lat="43.77449" lon="3.71029">
        <ele>301.03</ele>
        <time>2016-01-17T13:32:27Z</time>
      </trkpt>
      <trkpt lat="43.77449" lon="3.71047">
        <ele>298.63</ele>
        <time>2016-01-17T13:32:39Z</time>
      </trkpt>
      <trkpt lat="43.77454" lon="3.71062">
        <ele>296.7</ele>
        <time>2016-01-17T13:32:48Z</time>
      </trkpt>
      <trkpt lat="43.77455" lon="3.7108">
        <ele>294.78</ele>
        <time>2016-01-17T13:32:59Z</time>
      </trkpt>
      <trkpt lat="43.77461" lon="3.71095">
        <ele>292.86</ele>
        <time>2016-01-17T13:33:09Z</time>
      </trkpt>
      <trkpt lat="43.77464" lon="3.71115">
        <ele>291.9</ele>
        <time>2016-01-17T13:33:18Z</time>
      </trkpt>
      <trkpt lat="43.77463" lon="3.7113">
        <ele>290.46</ele>
        <time>2016-01-17T13:33:26Z</time>
      </trkpt>
      <trkpt lat="43.77464" lon="3.71147">
        <ele>289.49</ele>
        <time>2016-01-17T13:33:42Z</time>
      </trkpt>
      <trkpt lat="43.77472" lon="3.71155">
        <ele>289.49</ele>
        <time>2016-01-17T13:33:52Z</time>
      </trkpt>
      <trkpt lat="43.77481" lon="3.71164">
        <ele>289.97</ele>
        <time>2016-01-17T13:34:02Z</time>
      </trkpt>
      <trkpt lat="43.77492" lon="3.71174">
        <ele>290.46</ele>
        <time>2016-01-17T13:34:12Z</time>
      </trkpt>
      <trkpt lat="43.775" lon="3.71187">
        <ele>290.94</ele>
        <time>2016-01-17T13:34:23Z</time>
      </trkpt>
      <trkpt lat="43.77508" lon="3.712">
        <ele>290.94</ele>
        <time>2016-01-17T13:34:32Z</time>
      </trkpt>
      <trkpt lat="43.77515" lon="3.71212">
        <ele>290.94</ele>
        <time>2016-01-17T13:34:41Z</time>
      </trkpt>
      <trkpt lat="43.77523" lon="3.71223">
        <ele>290.94</ele>
        <time>2016-01-17T13:34:50Z</time>
      </trkpt>
      <trkpt lat="43.77529" lon="3.71238">
        <ele>290.94</ele>
        <time>2016-01-17T13:35:02Z</time>
      </trkpt>
      <trkpt lat="43.77539" lon="3.71248">
        <ele>291.42</ele>
        <time>2016-01-17T13:35:13Z</time>
      </trkpt>
      <trkpt lat="43.77546" lon="3.71258">
        <ele>291.42</ele>
        <time>2016-01-17T13:35:23Z</time>
      </trkpt>
      <trkpt lat="43.77557" lon="3.71269">
        <ele>291.42</ele>
        <time>2016-01-17T13:35:35Z</time>
      </trkpt>
      <trkpt lat="43.77566" lon="3.71281">
        <ele>291.42</ele>
        <time>2016-01-17T13:35:46Z</time>
      </trkpt>
      <trkpt lat="43.77573" lon="3.71293">
        <ele>291.9</ele>
        <time>2016-01-17T13:35:55Z</time>
      </trkpt>
      <trkpt lat="43.77581" lon="3.71305">
        <ele>291.42</ele>
        <time>2016-01-17T13:36:04Z</time>
      </trkpt>
      <trkpt lat="43.7759" lon="3.71313">
        <ele>291.42</ele>
        <time>2016-01-17T13:36:11Z</time>
      </trkpt>
      <trkpt lat="43.77599" lon="3.7132">
        <ele>291.42</ele>
        <time>2016-01-17T13:36:20Z</time>
      </trkpt>
      <trkpt lat="43.77608" lon="3.71327">
        <ele>291.9</ele>
        <time>2016-01-17T13:36:29Z</time>
      </trkpt>
      <trkpt lat="43.77617" lon="3.71335">
        <ele>292.38</ele>
        <time>2016-01-17T13:36:38Z</time>
      </trkpt>
      <trkpt lat="43.77626" lon="3.71342">
        <ele>292.38</ele>
        <time>2016-01-17T13:36:47Z</time>
      </trkpt>
      <trkpt lat="43.77635" lon="3.71353">
        <ele>291.9</ele>
        <time>2016-01-17T13:36:56Z</time>
      </trkpt>
      <trkpt lat="43.77643" lon="3.71362">
        <ele>290.94</ele>
        <time>2016-01-17T13:37:05Z</time>
      </trkpt>
      <trkpt lat="43.77652" lon="3.7137">
        <ele>290.46</ele>
        <time>2016-01-17T13:37:13Z</time>
      </trkpt>
      <trkpt lat="43.77661" lon="3.71378">
        <ele>289.97</ele>
        <time>2016-01-17T13:37:21Z</time>
      </trkpt>
      <trkpt lat="43.7767" lon="3.71386">
        <ele>289.01</ele>
        <time>2016-01-17T13:37:30Z</time>
      </trkpt>
      <trkpt lat="43.77679" lon="3.71393">
        <ele>288.05</ele>
        <time>2016-01-17T13:37:38Z</time>
      </trkpt>
      <trkpt lat="43.77688" lon="3.714">
        <ele>287.57</ele>
        <time>2016-01-17T13:37:46Z</time>
      </trkpt>
      <trkpt lat="43.77698" lon="3.71411">
        <ele>286.13</ele>
        <time>2016-01-17T13:37:57Z</time>
      </trkpt>
      <trkpt lat="43.77707" lon="3.7142">
        <ele>285.65</ele>
        <time>2016-01-17T13:38:06Z</time>
      </trkpt>
      <trkpt lat="43.77717" lon="3.71428">
        <ele>284.69</ele>
        <time>2016-01-17T13:38:16Z</time>
      </trkpt>
      <trkpt lat="43.77727" lon="3.71437">
        <ele>284.21</ele>
        <time>2016-01-17T13:38:25Z</time>
      </trkpt>
      <trkpt lat="43.77736" lon="3.71445">
        <ele>283.73</ele>
        <time>2016-01-17T13:38:35Z</time>
      </trkpt>
      <trkpt lat="43.77746" lon="3.71451">
        <ele>283.25</ele>
        <time>2016-01-17T13:38:42Z</time>
      </trkpt>
      <trkpt lat="43.77755" lon="3.71461">
        <ele>282.28</ele>
        <time>2016-01-17T13:38:51Z</time>
      </trkpt>
      <trkpt lat="43.77763" lon="3.71469">
        <ele>280.84</ele>
        <time>2016-01-17T13:39:00Z</time>
      </trkpt>
      <trkpt lat="43.77773" lon="3.71479">
        <ele>279.88</ele>
        <time>2016-01-17T13:39:11Z</time>
      </trkpt>
      <trkpt lat="43.77782" lon="3.7149">
        <ele>279.4</ele>
        <time>2016-01-17T13:39:21Z</time>
      </trkpt>
      <trkpt lat="43.77792" lon="3.71499">
        <ele>278.44</ele>
        <time>2016-01-17T13:39:29Z</time>
      </trkpt>
      <trkpt lat="43.778" lon="3.71509">
        <ele>277.96</ele>
        <time>2016-01-17T13:39:37Z</time>
      </trkpt>
      <trkpt lat="43.77808" lon="3.71518">
        <ele>277.48</ele>
        <time>2016-01-17T13:39:45Z</time>
      </trkpt>
      <trkpt lat="43.77817" lon="3.71528">
        <ele>276.52</ele>
        <time>2016-01-17T13:39:54Z</time>
      </trkpt>
      <trkpt lat="43.77825" lon="3.71536">
        <ele>276.04</ele>
        <time>2016-01-17T13:40:03Z</time>
      </trkpt>
      <trkpt lat="43.77835" lon="3.71543">
        <ele>275.07</ele>
        <time>2016-01-17T13:40:12Z</time>
      </trkpt>
      <trkpt lat="43.77845" lon="3.71551">
        <ele>274.11</ele>
        <time>2016-01-17T13:40:21Z</time>
      </trkpt>
      <trkpt lat="43.77855" lon="3.71556">
        <ele>273.15</ele>
        <time>2016-01-17T13:40:31Z</time>
      </trkpt>
      <trkpt lat="43.77865" lon="3.71562">
        <ele>272.67</ele>
        <time>2016-01-17T13:40:39Z</time>
      </trkpt>
      <trkpt lat="43.77876" lon="3.7157">
        <ele>272.67</ele>
        <time>2016-01-17T13:40:48Z</time>
      </trkpt>
      <trkpt lat="43.77886" lon="3.71577">
        <ele>271.71</ele>
        <time>2016-01-17T13:40:56Z</time>
      </trkpt>
      <trkpt lat="43.77896" lon="3.71584">
        <ele>271.23</ele>
        <time>2016-01-17T13:41:05Z</time>
      </trkpt>
      <trkpt lat="43.77907" lon="3.7159">
        <ele>270.75</ele>
        <time>2016-01-17T13:41:14Z</time>
      </trkpt>
      <trkpt lat="43.77917" lon="3.71593">
        <ele>270.27</ele>
        <time>2016-01-17T13:41:22Z</time>
      </trkpt>
      <trkpt lat="43.77927" lon="3.71596">
        <ele>270.27</ele>
        <time>2016-01-17T13:41:31Z</time>
      </trkpt>
      <trkpt lat="43.77938" lon="3.716">
        <ele>269.79</ele>
        <time>2016-01-17T13:41:41Z</time>
      </trkpt>
      <trkpt lat="43.77948" lon="3.71605">
        <ele>268.83</ele>
        <time>2016-01-17T13:41:50Z</time>
      </trkpt>
      <trkpt lat="43.77959" lon="3.71609">
        <ele>268.35</ele>
        <time>2016-01-17T13:42:00Z</time>
      </trkpt>
      <trkpt lat="43.77972" lon="3.71612">
        <ele>268.35</ele>
        <time>2016-01-17T13:42:09Z</time>
      </trkpt>
      <trkpt lat="43.77984" lon="3.71615">
        <ele>267.86</ele>
        <time>2016-01-17T13:42:17Z</time>
      </trkpt>
      <trkpt lat="43.77995" lon="3.71619">
        <ele>267.86</ele>
        <time>2016-01-17T13:42:26Z</time>
      </trkpt>
      <trkpt lat="43.78004" lon="3.71623">
        <ele>267.38</ele>
        <time>2016-01-17T13:42:34Z</time>
      </trkpt>
      <trkpt lat="43.78013" lon="3.71626">
        <ele>266.9</ele>
        <time>2016-01-17T13:42:42Z</time>
      </trkpt>
      <trkpt lat="43.78023" lon="3.7163">
        <ele>265.46</ele>
        <time>2016-01-17T13:42:50Z</time>
      </trkpt>
      <trkpt lat="43.78032" lon="3.71637">
        <ele>264.5</ele>
        <time>2016-01-17T13:42:59Z</time>
      </trkpt>
      <trkpt lat="43.78043" lon="3.71641">
        <ele>262.58</ele>
        <time>2016-01-17T13:43:09Z</time>
      </trkpt>
      <trkpt lat="43.78055" lon="3.71648">
        <ele>260.65</ele>
        <time>2016-01-17T13:43:18Z</time>
      </trkpt>
      <trkpt lat="43.78066" lon="3.71651">
        <ele>259.69</ele>
        <time>2016-01-17T13:43:28Z</time>
      </trkpt>
      <trkpt lat="43.78077" lon="3.71659">
        <ele>257.77</ele>
        <time>2016-01-17T13:43:40Z</time>
      </trkpt>
      <trkpt lat="43.78088" lon="3.71666">
        <ele>255.85</ele>
        <time>2016-01-17T13:43:51Z</time>
      </trkpt>
      <trkpt lat="43.78101" lon="3.71669">
        <ele>253.93</ele>
        <time>2016-01-17T13:44:01Z</time>
      </trkpt>
      <trkpt lat="43.78115" lon="3.71672">
        <ele>252</ele>
        <time>2016-01-17T13:44:12Z</time>
      </trkpt>
      <trkpt lat="43.78124" lon="3.71674">
        <ele>251.04</ele>
        <time>2016-01-17T13:44:20Z</time>
      </trkpt>
      <trkpt lat="43.78134" lon="3.71679">
        <ele>249.12</ele>
        <time>2016-01-17T13:44:29Z</time>
      </trkpt>
      <trkpt lat="43.78144" lon="3.71685">
        <ele>248.16</ele>
        <time>2016-01-17T13:46:45Z</time>
      </trkpt>
      <trkpt lat="43.78145" lon="3.71684">
        <ele>248.16</ele>
        <time>2016-01-17T13:47:44Z</time>
      </trkpt>
      <trkpt lat="43.78153" lon="3.71683">
        <ele>250.08</ele>
        <time>2016-01-17T13:47:58Z</time>
      </trkpt>
      <trkpt lat="43.78163" lon="3.71678">
        <ele>252</ele>
        <time>2016-01-17T13:48:07Z</time>
      </trkpt>
      <trkpt lat="43.78173" lon="3.71675">
        <ele>254.41</ele>
        <time>2016-01-17T13:48:18Z</time>
      </trkpt>
      <trkpt lat="43.78182" lon="3.71671">
        <ele>256.81</ele>
        <time>2016-01-17T13:48:29Z</time>
      </trkpt>
      <trkpt lat="43.78192" lon="3.71669">
        <ele>258.25</ele>
        <time>2016-01-17T13:48:39Z</time>
      </trkpt>
      <trkpt lat="43.78201" lon="3.71665">
        <ele>259.69</ele>
        <time>2016-01-17T13:48:49Z</time>
      </trkpt>
      <trkpt lat="43.78211" lon="3.7166">
        <ele>261.14</ele>
        <time>2016-01-17T13:49:00Z</time>
      </trkpt>
      <trkpt lat="43.78223" lon="3.71655">
        <ele>262.58</ele>
        <time>2016-01-17T13:49:10Z</time>
      </trkpt>
      <trkpt lat="43.78233" lon="3.71651">
        <ele>264.02</ele>
        <time>2016-01-17T13:49:19Z</time>
      </trkpt>
      <trkpt lat="43.78243" lon="3.71646">
        <ele>264.98</ele>
        <time>2016-01-17T13:49:29Z</time>
      </trkpt>
      <trkpt lat="43.78253" lon="3.71641">
        <ele>266.42</ele>
        <time>2016-01-17T13:49:39Z</time>
      </trkpt>
      <trkpt lat="43.78264" lon="3.71637">
        <ele>267.38</ele>
        <time>2016-01-17T13:49:50Z</time>
      </trkpt>
      <trkpt lat="43.78274" lon="3.71635">
        <ele>268.35</ele>
        <time>2016-01-17T13:50:00Z</time>
      </trkpt>
      <trkpt lat="43.78285" lon="3.71638">
        <ele>269.31</ele>
        <time>2016-01-17T13:50:10Z</time>
      </trkpt>
      <trkpt lat="43.78291" lon="3.7165">
        <ele>268.83</ele>
        <time>2016-01-17T13:50:19Z</time>
      </trkpt>
      <trkpt lat="43.78298" lon="3.71662">
        <ele>268.35</ele>
        <time>2016-01-17T13:50:28Z</time>
      </trkpt>
      <trkpt lat="43.78306" lon="3.71674">
        <ele>267.86</ele>
        <time>2016-01-17T13:50:36Z</time>
      </trkpt>
      <trkpt lat="43.78314" lon="3.71685">
        <ele>267.38</ele>
        <time>2016-01-17T13:50:44Z</time>
      </trkpt>
      <trkpt lat="43.78323" lon="3.71689">
        <ele>266.9</ele>
        <time>2016-01-17T13:50:54Z</time>
      </trkpt>
      <trkpt lat="43.78334" lon="3.71693">
        <ele>267.38</ele>
        <time>2016-01-17T13:51:05Z</time>
      </trkpt>
      <trkpt lat="43.78345" lon="3.71703">
        <ele>266.9</ele>
        <time>2016-01-17T13:51:17Z</time>
      </trkpt>
      <trkpt lat="43.78354" lon="3.71715">
        <ele>265.94</ele>
        <time>2016-01-17T13:51:28Z</time>
      </trkpt>
      <trkpt lat="43.78364" lon="3.71733">
        <ele>264.98</ele>
        <time>2016-01-17T13:51:58Z</time>
      </trkpt>
      <trkpt lat="43.78358" lon="3.71743">
        <ele>264.5</ele>
        <time>2016-01-17T13:52:08Z</time>
      </trkpt>
      <trkpt lat="43.78352" lon="3.71753">
        <ele>264.02</ele>
        <time>2016-01-17T13:52:16Z</time>
      </trkpt>
      <trkpt lat="43.78343" lon="3.71763">
        <ele>263.54</ele>
        <time>2016-01-17T13:52:25Z</time>
      </trkpt>
      <trkpt lat="43.78335" lon="3.71774">
        <ele>262.58</ele>
        <time>2016-01-17T13:52:35Z</time>
      </trkpt>
      <trkpt lat="43.78327" lon="3.71786">
        <ele>262.1</ele>
        <time>2016-01-17T13:52:47Z</time>
      </trkpt>
      <trkpt lat="43.78317" lon="3.71798">
        <ele>261.62</ele>
        <time>2016-01-17T13:52:58Z</time>
      </trkpt>
      <trkpt lat="43.78308" lon="3.71807">
        <ele>260.65</ele>
        <time>2016-01-17T13:53:08Z</time>
      </trkpt>
      <trkpt lat="43.78313" lon="3.71818">
        <ele>260.17</ele>
        <time>2016-01-17T13:53:19Z</time>
      </trkpt>
      <trkpt lat="43.78322" lon="3.71826">
        <ele>259.21</ele>
        <time>2016-01-17T13:53:29Z</time>
      </trkpt>
      <trkpt lat="43.78332" lon="3.71833">
        <ele>259.69</ele>
        <time>2016-01-17T13:53:39Z</time>
      </trkpt>
      <trkpt lat="43.78342" lon="3.7184">
        <ele>259.21</ele>
        <time>2016-01-17T13:53:48Z</time>
      </trkpt>
      <trkpt lat="43.78352" lon="3.71849">
        <ele>258.73</ele>
        <time>2016-01-17T13:53:58Z</time>
      </trkpt>
      <trkpt lat="43.78363" lon="3.71858">
        <ele>258.73</ele>
        <time>2016-01-17T13:54:08Z</time>
      </trkpt>
      <trkpt lat="43.78373" lon="3.71866">
        <ele>258.25</ele>
        <time>2016-01-17T13:54:18Z</time>
      </trkpt>
      <trkpt lat="43.78384" lon="3.71873">
        <ele>258.25</ele>
        <time>2016-01-17T13:54:28Z</time>
      </trkpt>
      <trkpt lat="43.78394" lon="3.7188">
        <ele>257.77</ele>
        <time>2016-01-17T13:54:37Z</time>
      </trkpt>
      <trkpt lat="43.78406" lon="3.71889">
        <ele>257.29</ele>
        <time>2016-01-17T13:54:50Z</time>
      </trkpt>
      <trkpt lat="43.78417" lon="3.71898">
        <ele>256.81</ele>
        <time>2016-01-17T13:55:00Z</time>
      </trkpt>
      <trkpt lat="43.78428" lon="3.71905">
        <ele>256.33</ele>
        <time>2016-01-17T13:55:08Z</time>
      </trkpt>
      <trkpt lat="43.78437" lon="3.71915">
        <ele>256.33</ele>
        <time>2016-01-17T13:55:17Z</time>
      </trkpt>
      <trkpt lat="43.78447" lon="3.71925">
        <ele>255.85</ele>
        <time>2016-01-17T13:55:26Z</time>
      </trkpt>
      <trkpt lat="43.78454" lon="3.71936">
        <ele>255.37</ele>
        <time>2016-01-17T13:55:35Z</time>
      </trkpt>
      <trkpt lat="43.78461" lon="3.7195">
        <ele>254.89</ele>
        <time>2016-01-17T13:55:45Z</time>
      </trkpt>
      <trkpt lat="43.78465" lon="3.71965">
        <ele>253.44</ele>
        <time>2016-01-17T13:55:56Z</time>
      </trkpt>
      <trkpt lat="43.78467" lon="3.71983">
        <ele>252</ele>
        <time>2016-01-17T13:56:09Z</time>
      </trkpt>
      <trkpt lat="43.78466" lon="3.72001">
        <ele>250.56</ele>
        <time>2016-01-17T13:56:21Z</time>
      </trkpt>
      <trkpt lat="43.78464" lon="3.72019">
        <ele>248.64</ele>
        <time>2016-01-17T13:56:33Z</time>
      </trkpt>
      <trkpt lat="43.7846" lon="3.72036">
        <ele>247.68</ele>
        <time>2016-01-17T13:56:43Z</time>
      </trkpt>
      <trkpt lat="43.78457" lon="3.72055">
        <ele>245.27</ele>
        <time>2016-01-17T13:56:57Z</time>
      </trkpt>
      <trkpt lat="43.78453" lon="3.72076">
        <ele>242.87</ele>
        <time>2016-01-17T13:57:11Z</time>
      </trkpt>
      <trkpt lat="43.7845" lon="3.72094">
        <ele>240.47</ele>
        <time>2016-01-17T13:57:22Z</time>
      </trkpt>
      <trkpt lat="43.78447" lon="3.72114">
        <ele>238.54</ele>
        <time>2016-01-17T13:57:34Z</time>
      </trkpt>
      <trkpt lat="43.78446" lon="3.72132">
        <ele>236.62</ele>
        <time>2016-01-17T13:57:46Z</time>
      </trkpt>
      <trkpt lat="43.78443" lon="3.72148">
        <ele>234.7</ele>
        <time>2016-01-17T13:57:55Z</time>
      </trkpt>
      <trkpt lat="43.78444" lon="3.72166">
        <ele>233.26</ele>
        <time>2016-01-17T13:58:06Z</time>
      </trkpt>
      <trkpt lat="43.78444" lon="3.72183">
        <ele>231.33</ele>
        <time>2016-01-17T13:58:16Z</time>
      </trkpt>
      <trkpt lat="43.78442" lon="3.72201">
        <ele>229.89</ele>
        <time>2016-01-17T13:58:26Z</time>
      </trkpt>
      <trkpt lat="43.78442" lon="3.72216">
        <ele>228.93</ele>
        <time>2016-01-17T13:58:35Z</time>
      </trkpt>
      <trkpt lat="43.78441" lon="3.72233">
        <ele>227.49</ele>
        <time>2016-01-17T13:58:45Z</time>
      </trkpt>
      <trkpt lat="43.78438" lon="3.72251">
        <ele>226.53</ele>
        <time>2016-01-17T13:58:55Z</time>
      </trkpt>
      <trkpt lat="43.78437" lon="3.72269">
        <ele>225.09</ele>
        <time>2016-01-17T13:59:05Z</time>
      </trkpt>
      <trkpt lat="43.78433" lon="3.72285">
        <ele>224.12</ele>
        <time>2016-01-17T13:59:15Z</time>
      </trkpt>
      <trkpt lat="43.78429" lon="3.72301">
        <ele>223.16</ele>
        <time>2016-01-17T13:59:24Z</time>
      </trkpt>
      <trkpt lat="43.78427" lon="3.72316">
        <ele>221.72</ele>
        <time>2016-01-17T13:59:33Z</time>
      </trkpt>
      <trkpt lat="43.78424" lon="3.72334">
        <ele>220.76</ele>
        <time>2016-01-17T13:59:42Z</time>
      </trkpt>
      <trkpt lat="43.78422" lon="3.72349">
        <ele>219.8</ele>
        <time>2016-01-17T13:59:52Z</time>
      </trkpt>
      <trkpt lat="43.7842" lon="3.72366">
        <ele>218.36</ele>
        <time>2016-01-17T14:00:01Z</time>
      </trkpt>
      <trkpt lat="43.78417" lon="3.72381">
        <ele>217.4</ele>
        <time>2016-01-17T14:00:10Z</time>
      </trkpt>
      <trkpt lat="43.78413" lon="3.72396">
        <ele>215.95</ele>
        <time>2016-01-17T14:00:19Z</time>
      </trkpt>
      <trkpt lat="43.7841" lon="3.7241">
        <ele>214.51</ele>
        <time>2016-01-17T14:00:29Z</time>
      </trkpt>
      <trkpt lat="43.78402" lon="3.72428">
        <ele>213.55</ele>
        <time>2016-01-17T14:00:38Z</time>
      </trkpt>
      <trkpt lat="43.78389" lon="3.72439">
        <ele>211.63</ele>
        <time>2016-01-17T14:00:48Z</time>
      </trkpt>
      <trkpt lat="43.78379" lon="3.72449">
        <ele>210.67</ele>
        <time>2016-01-17T14:00:59Z</time>
      </trkpt>
      <trkpt lat="43.78371" lon="3.7246">
        <ele>209.7</ele>
        <time>2016-01-17T14:01:09Z</time>
      </trkpt>
      <trkpt lat="43.78367" lon="3.72474">
        <ele>209.7</ele>
        <time>2016-01-17T14:01:21Z</time>
      </trkpt>
      <trkpt lat="43.78365" lon="3.72488">
        <ele>207.78</ele>
        <time>2016-01-17T14:01:32Z</time>
      </trkpt>
      <trkpt lat="43.78363" lon="3.72503">
        <ele>205.86</ele>
        <time>2016-01-17T14:01:42Z</time>
      </trkpt>
      <trkpt lat="43.78357" lon="3.72519">
        <ele>204.9</ele>
        <time>2016-01-17T14:01:50Z</time>
      </trkpt>
      <trkpt lat="43.7836" lon="3.72531">
        <ele>204.9</ele>
        <time>2016-01-17T14:02:01Z</time>
      </trkpt>
      <trkpt lat="43.78366" lon="3.72543">
        <ele>204.42</ele>
        <time>2016-01-17T14:02:18Z</time>
      </trkpt>
      <trkpt lat="43.78373" lon="3.72557">
        <ele>203.94</ele>
        <time>2016-01-17T14:02:28Z</time>
      </trkpt>
      <trkpt lat="43.78376" lon="3.72566">
        <ele>203.46</ele>
        <time>2016-01-17T14:03:41Z</time>
      </trkpt>
      <trkpt lat="43.78382" lon="3.72578">
        <ele>202.01</ele>
        <time>2016-01-17T14:03:51Z</time>
      </trkpt>
      <trkpt lat="43.78387" lon="3.72591">
        <ele>200.09</ele>
        <time>2016-01-17T14:04:02Z</time>
      </trkpt>
      <trkpt lat="43.78393" lon="3.72606">
        <ele>198.17</ele>
        <time>2016-01-17T14:04:13Z</time>
      </trkpt>
      <trkpt lat="43.784" lon="3.72619">
        <ele>196.25</ele>
        <time>2016-01-17T14:04:23Z</time>
      </trkpt>
      <trkpt lat="43.78409" lon="3.7263">
        <ele>196.25</ele>
        <time>2016-01-17T14:04:32Z</time>
      </trkpt>
      <trkpt lat="43.78416" lon="3.72644">
        <ele>195.28</ele>
        <time>2016-01-17T14:04:43Z</time>
      </trkpt>
      <trkpt lat="43.78423" lon="3.72657">
        <ele>194.32</ele>
        <time>2016-01-17T14:04:53Z</time>
      </trkpt>
      <trkpt lat="43.7843" lon="3.72669">
        <ele>194.32</ele>
        <time>2016-01-17T14:05:02Z</time>
      </trkpt>
      <trkpt lat="43.78436" lon="3.72683">
        <ele>193.84</ele>
        <time>2016-01-17T14:05:12Z</time>
      </trkpt>
      <trkpt lat="43.78442" lon="3.72697">
        <ele>192.88</ele>
        <time>2016-01-17T14:05:23Z</time>
      </trkpt>
      <trkpt lat="43.78451" lon="3.72707">
        <ele>192.4</ele>
        <time>2016-01-17T14:05:33Z</time>
      </trkpt>
      <trkpt lat="43.78462" lon="3.72715">
        <ele>191.92</ele>
        <time>2016-01-17T14:05:49Z</time>
      </trkpt>
      <trkpt lat="43.78471" lon="3.72724">
        <ele>191.92</ele>
        <time>2016-01-17T14:05:58Z</time>
      </trkpt>
      <trkpt lat="43.78479" lon="3.72731">
        <ele>191.92</ele>
        <time>2016-01-17T14:06:06Z</time>
      </trkpt>
      <trkpt lat="43.78489" lon="3.72739">
        <ele>191.44</ele>
        <time>2016-01-17T14:06:16Z</time>
      </trkpt>
      <trkpt lat="43.78498" lon="3.72745">
        <ele>191.92</ele>
        <time>2016-01-17T14:06:25Z</time>
      </trkpt>
      <trkpt lat="43.78507" lon="3.7275">
        <ele>191.44</ele>
        <time>2016-01-17T14:06:35Z</time>
      </trkpt>
      <trkpt lat="43.78519" lon="3.72757">
        <ele>191.92</ele>
        <time>2016-01-17T14:06:46Z</time>
      </trkpt>
      <trkpt lat="43.78527" lon="3.7277">
        <ele>191.44</ele>
        <time>2016-01-17T14:06:55Z</time>
      </trkpt>
      <trkpt lat="43.78538" lon="3.72786">
        <ele>190.96</ele>
        <time>2016-01-17T14:07:05Z</time>
      </trkpt>
      <trkpt lat="43.78542" lon="3.72802">
        <ele>190</ele>
        <time>2016-01-17T14:07:17Z</time>
      </trkpt>
      <trkpt lat="43.78544" lon="3.72821">
        <ele>189.04</ele>
        <time>2016-01-17T14:07:28Z</time>
      </trkpt>
      <trkpt lat="43.78548" lon="3.72832">
        <ele>189.04</ele>
        <time>2016-01-17T14:07:44Z</time>
      </trkpt>
      <trkpt lat="43.78556" lon="3.72824">
        <ele>189.52</ele>
        <time>2016-01-17T14:07:53Z</time>
      </trkpt>
      <trkpt lat="43.78566" lon="3.72824">
        <ele>189.52</ele>
        <time>2016-01-17T14:08:02Z</time>
      </trkpt>
      <trkpt lat="43.78576" lon="3.72822">
        <ele>190.96</ele>
        <time>2016-01-17T14:08:11Z</time>
      </trkpt>
      <trkpt lat="43.78586" lon="3.72822">
        <ele>191.44</ele>
        <time>2016-01-17T14:08:20Z</time>
      </trkpt>
      <trkpt lat="43.78595" lon="3.72821">
        <ele>190.96</ele>
        <time>2016-01-17T14:08:30Z</time>
      </trkpt>
      <trkpt lat="43.78608" lon="3.72818">
        <ele>191.44</ele>
        <time>2016-01-17T14:08:40Z</time>
      </trkpt>
      <trkpt lat="43.78625" lon="3.72813">
        <ele>192.4</ele>
        <time>2016-01-17T14:08:55Z</time>
      </trkpt>
      <trkpt lat="43.78636" lon="3.72808">
        <ele>192.4</ele>
        <time>2016-01-17T14:09:06Z</time>
      </trkpt>
      <trkpt lat="43.78648" lon="3.72801">
        <ele>193.36</ele>
        <time>2016-01-17T14:09:17Z</time>
      </trkpt>
      <trkpt lat="43.78662" lon="3.72795">
        <ele>193.84</ele>
        <time>2016-01-17T14:09:27Z</time>
      </trkpt>
      <trkpt lat="43.78672" lon="3.72787">
        <ele>194.32</ele>
        <time>2016-01-17T14:09:37Z</time>
      </trkpt>
      <trkpt lat="43.78686" lon="3.72775">
        <ele>195.28</ele>
        <time>2016-01-17T14:09:49Z</time>
      </trkpt>
      <trkpt lat="43.78699" lon="3.72766">
        <ele>195.77</ele>
        <time>2016-01-17T14:09:59Z</time>
      </trkpt>
      <trkpt lat="43.78711" lon="3.72758">
        <ele>195.77</ele>
        <time>2016-01-17T14:10:11Z</time>
      </trkpt>
      <trkpt lat="43.78723" lon="3.72758">
        <ele>195.77</ele>
        <time>2016-01-17T14:10:24Z</time>
      </trkpt>
      <trkpt lat="43.78731" lon="3.72766">
        <ele>194.8</ele>
        <time>2016-01-17T14:10:32Z</time>
      </trkpt>
      <trkpt lat="43.7874" lon="3.72775">
        <ele>194.8</ele>
        <time>2016-01-17T14:10:40Z</time>
      </trkpt>
      <trkpt lat="43.78746" lon="3.72784">
        <ele>194.8</ele>
        <time>2016-01-17T14:10:48Z</time>
      </trkpt>
      <trkpt lat="43.78755" lon="3.72794">
        <ele>194.32</ele>
        <time>2016-01-17T14:10:57Z</time>
      </trkpt>
      <trkpt lat="43.78763" lon="3.72803">
        <ele>194.32</ele>
        <time>2016-01-17T14:11:05Z</time>
      </trkpt>
      <trkpt lat="43.7877" lon="3.72812">
        <ele>194.32</ele>
        <time>2016-01-17T14:11:13Z</time>
      </trkpt>
      <trkpt lat="43.78778" lon="3.72821">
        <ele>194.32</ele>
        <time>2016-01-17T14:11:25Z</time>
      </trkpt>
      <trkpt lat="43.78787" lon="3.72825">
        <ele>193.84</ele>
        <time>2016-01-17T14:11:49Z</time>
      </trkpt>
      <trkpt lat="43.78796" lon="3.72826">
        <ele>192.88</ele>
        <time>2016-01-17T14:12:00Z</time>
      </trkpt>
      <trkpt lat="43.78808" lon="3.72826">
        <ele>192.88</ele>
        <time>2016-01-17T14:12:10Z</time>
      </trkpt>
      <trkpt lat="43.7882" lon="3.72828">
        <ele>191.92</ele>
        <time>2016-01-17T14:12:20Z</time>
      </trkpt>
      <trkpt lat="43.78831" lon="3.72832">
        <ele>191.92</ele>
        <time>2016-01-17T14:12:29Z</time>
      </trkpt>
      <trkpt lat="43.78839" lon="3.72842">
        <ele>191.92</ele>
        <time>2016-01-17T14:12:38Z</time>
      </trkpt>
      <trkpt lat="43.78843" lon="3.72857">
        <ele>191.44</ele>
        <time>2016-01-17T14:12:48Z</time>
      </trkpt>
      <trkpt lat="43.78841" lon="3.72872">
        <ele>190.96</ele>
        <time>2016-01-17T14:12:57Z</time>
      </trkpt>
      <trkpt lat="43.7884" lon="3.72887">
        <ele>190.48</ele>
        <time>2016-01-17T14:13:06Z</time>
      </trkpt>
      <trkpt lat="43.78842" lon="3.72902">
        <ele>189.52</ele>
        <time>2016-01-17T14:13:17Z</time>
      </trkpt>
      <trkpt lat="43.78845" lon="3.72918">
        <ele>189.04</ele>
        <time>2016-01-17T14:13:26Z</time>
      </trkpt>
      <trkpt lat="43.78847" lon="3.72934">
        <ele>189.04</ele>
        <time>2016-01-17T14:13:35Z</time>
      </trkpt>
      <trkpt lat="43.7885" lon="3.72948">
        <ele>188.08</ele>
        <time>2016-01-17T14:13:44Z</time>
      </trkpt>
      <trkpt lat="43.78853" lon="3.72961">
        <ele>187.59</ele>
        <time>2016-01-17T14:13:52Z</time>
      </trkpt>
      <trkpt lat="43.78855" lon="3.72978">
        <ele>188.08</ele>
        <time>2016-01-17T14:14:01Z</time>
      </trkpt>
      <trkpt lat="43.78858" lon="3.72991">
        <ele>187.11</ele>
        <time>2016-01-17T14:14:10Z</time>
      </trkpt>
      <trkpt lat="43.78859" lon="3.73006">
        <ele>186.63</ele>
        <time>2016-01-17T14:14:22Z</time>
      </trkpt>
      <trkpt lat="43.78862" lon="3.73023">
        <ele>186.63</ele>
        <time>2016-01-17T14:14:31Z</time>
      </trkpt>
      <trkpt lat="43.78866" lon="3.73038">
        <ele>186.63</ele>
        <time>2016-01-17T14:14:41Z</time>
      </trkpt>
      <trkpt lat="43.78871" lon="3.73051">
        <ele>186.15</ele>
        <time>2016-01-17T14:14:52Z</time>
      </trkpt>
      <trkpt lat="43.78875" lon="3.73067">
        <ele>186.15</ele>
        <time>2016-01-17T14:15:01Z</time>
      </trkpt>
      <trkpt lat="43.78877" lon="3.73081">
        <ele>185.19</ele>
        <time>2016-01-17T14:15:10Z</time>
      </trkpt>
      <trkpt lat="43.7888" lon="3.73096">
        <ele>185.19</ele>
        <time>2016-01-17T14:15:22Z</time>
      </trkpt>
      <trkpt lat="43.78882" lon="3.73111">
        <ele>184.71</ele>
        <time>2016-01-17T14:15:32Z</time>
      </trkpt>
      <trkpt lat="43.78889" lon="3.73122">
        <ele>183.27</ele>
        <time>2016-01-17T14:15:45Z</time>
      </trkpt>
      <trkpt lat="43.78897" lon="3.73131">
        <ele>183.27</ele>
        <time>2016-01-17T14:15:56Z</time>
      </trkpt>
      <trkpt lat="43.78898" lon="3.73136">
        <ele>183.27</ele>
        <time>2016-01-17T14:16:36Z</time>
      </trkpt>
      <trkpt lat="43.78907" lon="3.73138">
        <ele>182.79</ele>
        <time>2016-01-17T14:17:20Z</time>
      </trkpt>
      <trkpt lat="43.78919" lon="3.73139">
        <ele>182.31</ele>
        <time>2016-01-17T14:17:29Z</time>
      </trkpt>
      <trkpt lat="43.7893" lon="3.73139">
        <ele>181.83</ele>
        <time>2016-01-17T14:17:37Z</time>
      </trkpt>
      <trkpt lat="43.7894" lon="3.73139">
        <ele>181.83</ele>
        <time>2016-01-17T14:17:45Z</time>
      </trkpt>
      <trkpt lat="43.7895" lon="3.73138">
        <ele>181.35</ele>
        <time>2016-01-17T14:17:54Z</time>
      </trkpt>
      <trkpt lat="43.7896" lon="3.73136">
        <ele>180.87</ele>
        <time>2016-01-17T14:18:02Z</time>
      </trkpt>
      <trkpt lat="43.7897" lon="3.7313">
        <ele>181.35</ele>
        <time>2016-01-17T14:18:18Z</time>
      </trkpt>
      <trkpt lat="43.7897" lon="3.73117">
        <ele>182.31</ele>
        <time>2016-01-17T14:18:27Z</time>
      </trkpt>
      <trkpt lat="43.78965" lon="3.73103">
        <ele>182.79</ele>
        <time>2016-01-17T14:18:38Z</time>
      </trkpt>
      <trkpt lat="43.78961" lon="3.7309">
        <ele>182.79</ele>
        <time>2016-01-17T14:18:48Z</time>
      </trkpt>
      <trkpt lat="43.78961" lon="3.73075">
        <ele>183.75</ele>
        <time>2016-01-17T14:20:03Z</time>
      </trkpt>
    </trkseg>
  </trk>
</gpx>